Time,TemperatureF,DewpointF,PressureIn,WindDirection,WindDirectionDegrees,WindSpeedMPH,WindSpeedGustMPH,Humidity,HourlyPrecipIn,Conditions,Clouds,dailyrainin,SoftwareType,DateUTC
2013-10-04 00:00:00,63.1,62.5,30.06,ESE,122,0.0,0.0,98,0.00,,,0.00,VWS V14.01,2013-10-04 04:00:00,
2013-10-04 00:01:00,63.2,62.6,30.06,ESE,121,0.0,0.0,98,0.00,,,0.00,VWS V14.01,2013-10-04 04:01:00,
2013-10-04 00:02:00,63.2,62.6,30.06,ESE,122,0.0,0.0,98,0.00,,,0.00,VWS V14.01,2013-10-04 04:02:00,
2013-10-04 00:03:00,63.3,62.7,30.06,ESE,121,0.0,0.0,98,0.00,,,0.00,VWS V14.01,2013-10-04 04:03:00,
2013-10-04 00:04:00,63.3,62.7,30.06,ESE,122,0.0,0.0,98,0.00,,,0.00,VWS V14.01,2013-10-04 04:04:00,
2013-10-04 00:05:00,63.4,62.8,30.06,ESE,121,0.0,0.0,98,0.00,,,0.00,VWS V14.01,2013-10-04 04:05:00,
2013-10-04 00:06:00,63.3,62.7,30.06,ESE,122,0.0,0.0,98,0.00,,,0.00,VWS V14.01,2013-10-04 04:06:00,
2013-10-04 00:07:00,63.3,62.7,30.06,ESE,121,0.0,0.0,98,0.00,,,0.00,VWS V14.01,2013-10-04 04:07:00,
2013-10-04 00:08:00,63.3,62.7,30.06,ESE,122,0.0,0.0,98,0.00,,,0.00,VWS V14.01,2013-10-04 04:08:00,
2013-10-04 00:09:00,63.2,62.6,30.06,ESE,122,0.0,0.0,98,0.00,,,0.00,VWS V14.01,2013-10-04 04:09:00,
2013-10-04 00:10:00,63.1,62.5,30.06,ESE,121,0.0,0.0,98,0.00,,,0.00,VWS V14.01,2013-10-04 04:10:00,
2013-10-04 00:11:00,63.0,62.4,30.06,ESE,122,0.0,0.0,98,0.00,,,0.00,VWS V14.01,2013-10-04 04:11:00,
2013-10-04 00:12:00,63.0,62.4,30.06,ESE,121,0.0,0.0,98,0.00,,,0.00,VWS V14.01,2013-10-04 04:12:00,
2013-10-04 00:13:00,63.0,62.4,30.06,ESE,121,0.0,0.0,98,0.00,,,0.00,VWS V14.01,2013-10-04 04:13:00,
2013-10-04 00:14:00,62.9,62.3,30.06,ESE,121,0.0,0.0,98,0.00,,,0.00,VWS V14.01,2013-10-04 04:14:00,
2013-10-04 00:15:00,62.9,62.3,30.05,ESE,121,0.0,0.0,98,0.00,,,0.00,VWS V14.01,2013-10-04 04:15:00,
2013-10-04 00:16:00,62.8,62.2,30.05,ESE,122,0.0,0.0,98,0.00,,,0.00,VWS V14.01,2013-10-04 04:16:00,
2013-10-04 00:17:00,62.8,62.2,30.05,ESE,121,0.0,0.0,98,0.00,,,0.00,VWS V14.01,2013-10-04 04:17:00,
2013-10-04 00:18:00,62.8,62.2,30.05,ESE,122,0.0,0.0,98,0.00,,,0.00,VWS V14.01,2013-10-04 04:18:00,
2013-10-04 00:19:00,62.8,62.2,30.05,ESE,122,0.0,0.0,98,0.00,,,0.00,VWS V14.01,2013-10-04 04:19:00,
2013-10-04 00:20:00,62.7,62.1,30.05,ESE,121,0.0,0.0,98,0.00,,,0.00,VWS V14.01,2013-10-04 04:20:00,
2013-10-04 00:21:00,62.7,62.1,30.05,ESE,121,0.0,0.0,98,0.00,,,0.00,VWS V14.01,2013-10-04 04:21:00,
2013-10-04 00:22:00,62.7,62.1,30.05,ESE,122,0.0,0.0,98,0.00,,,0.00,VWS V14.01,2013-10-04 04:22:00,
2013-10-04 00:23:00,62.6,62.0,30.05,ESE,121,0.0,0.0,98,0.00,,,0.00,VWS V14.01,2013-10-04 04:23:00,
2013-10-04 00:24:00,62.6,62.0,30.05,ESE,121,0.0,0.0,98,0.00,,,0.00,VWS V14.01,2013-10-04 04:24:00,
2013-10-04 00:25:00,62.7,62.1,30.05,ESE,122,0.0,0.0,98,0.00,,,0.00,VWS V14.01,2013-10-04 04:25:00,
2013-10-04 00:26:00,62.7,62.1,30.05,ESE,121,0.0,0.0,98,0.00,,,0.00,VWS V14.01,2013-10-04 04:26:00,
2013-10-04 00:27:00,62.8,62.2,30.05,ESE,121,0.0,0.0,98,0.00,,,0.00,VWS V14.01,2013-10-04 04:27:00,
2013-10-04 00:28:00,62.7,62.1,30.05,ESE,121,0.0,0.0,98,0.00,,,0.00,VWS V14.01,2013-10-04 04:28:00,
2013-10-04 00:29:00,62.8,62.2,30.05,ESE,121,0.0,0.0,98,0.00,,,0.00,VWS V14.01,2013-10-04 04:29:00,
2013-10-04 00:30:00,62.7,62.1,30.05,ESE,121,0.0,0.0,98,0.00,,,0.00,VWS V14.01,2013-10-04 04:30:00,
2013-10-04 00:31:00,62.7,62.1,30.05,ESE,121,0.0,0.0,98,0.00,,,0.00,VWS V14.01,2013-10-04 04:31:00,
2013-10-04 00:32:00,62.7,62.1,30.05,ESE,121,0.0,0.0,98,0.00,,,0.00,VWS V14.01,2013-10-04 04:32:00,
2013-10-04 00:33:00,62.6,62.0,30.05,ESE,121,0.0,0.0,98,0.00,,,0.00,VWS V14.01,2013-10-04 04:33:00,
2013-10-04 00:34:00,62.6,62.0,30.05,ESE,121,0.0,0.0,98,0.00,,,0.00,VWS V14.01,2013-10-04 04:34:00,
2013-10-04 00:35:00,62.6,62.0,30.05,ESE,121,0.0,0.0,98,0.00,,,0.00,VWS V14.01,2013-10-04 04:35:00,
2013-10-04 00:36:00,62.5,61.9,30.05,ESE,121,0.0,0.0,98,0.00,,,0.00,VWS V14.01,2013-10-04 04:36:00,
2013-10-04 00:37:00,62.5,61.9,30.05,ESE,121,0.0,0.0,98,0.00,,,0.00,VWS V14.01,2013-10-04 04:37:00,
2013-10-04 00:38:00,62.5,61.9,30.05,ESE,121,0.0,0.0,98,0.00,,,0.00,VWS V14.01,2013-10-04 04:38:00,
2013-10-04 00:39:00,62.5,61.9,30.05,ESE,122,0.0,0.0,98,0.00,,,0.00,VWS V14.01,2013-10-04 04:39:00,
2013-10-04 00:40:00,62.5,61.9,30.05,ESE,121,0.0,0.0,98,0.00,,,0.00,VWS V14.01,2013-10-04 04:40:00,
2013-10-04 00:41:00,62.5,61.9,30.05,ESE,121,0.0,0.0,98,0.00,,,0.00,VWS V14.01,2013-10-04 04:41:00,
2013-10-04 00:42:00,62.5,62.2,30.05,ESE,121,0.0,0.0,99,0.00,,,0.00,VWS V14.01,2013-10-04 04:42:00,
2013-10-04 00:43:00,62.5,62.2,30.05,ESE,122,0.0,0.0,99,0.00,,,0.00,VWS V14.01,2013-10-04 04:43:00,
2013-10-04 00:44:00,62.5,62.2,30.05,ESE,121,0.0,0.0,99,0.00,,,0.00,VWS V14.01,2013-10-04 04:44:00,
2013-10-04 00:45:00,62.6,62.3,30.05,ESE,121,0.0,0.0,99,0.00,,,0.00,VWS V14.01,2013-10-04 04:45:00,
2013-10-04 00:46:00,62.6,62.3,30.05,ESE,122,0.0,0.0,99,0.00,,,0.00,VWS V14.01,2013-10-04 04:46:00,
2013-10-04 00:47:00,62.6,62.3,30.05,ESE,122,0.0,0.0,99,0.00,,,0.00,VWS V14.01,2013-10-04 04:47:00,
2013-10-04 00:48:00,62.6,62.3,30.05,ESE,121,0.0,0.0,99,0.00,,,0.00,VWS V14.01,2013-10-04 04:48:00,
2013-10-04 00:49:00,62.6,62.3,30.05,ESE,122,0.0,0.0,99,0.00,,,0.00,VWS V14.01,2013-10-04 04:49:00,
2013-10-04 00:50:00,62.5,62.2,30.05,ESE,122,0.0,0.0,99,0.00,,,0.00,VWS V14.01,2013-10-04 04:50:00,
2013-10-04 00:51:00,62.5,62.2,30.05,ESE,121,0.0,0.0,99,0.00,,,0.00,VWS V14.01,2013-10-04 04:51:00,
2013-10-04 00:52:00,62.6,62.3,30.05,ESE,121,0.0,0.0,99,0.00,,,0.00,VWS V14.01,2013-10-04 04:52:00,
2013-10-04 00:53:00,62.7,62.4,30.05,ESE,122,0.0,0.0,99,0.00,,,0.00,VWS V14.01,2013-10-04 04:53:00,
2013-10-04 00:54:00,62.7,62.4,30.05,ESE,122,0.0,0.0,99,0.00,,,0.00,VWS V14.01,2013-10-04 04:54:00,
2013-10-04 00:55:00,62.8,62.5,30.05,ESE,121,0.0,0.0,99,0.00,,,0.00,VWS V14.01,2013-10-04 04:55:00,
2013-10-04 00:56:00,62.8,62.5,30.05,ESE,122,0.0,0.0,99,0.00,,,0.00,VWS V14.01,2013-10-04 04:56:00,
2013-10-04 00:57:00,63.1,62.8,30.05,ESE,121,0.0,0.0,99,0.00,,,0.00,VWS V14.01,2013-10-04 04:57:00,
2013-10-04 00:58:00,63.3,63.0,30.05,ESE,122,0.0,0.0,99,0.00,,,0.00,VWS V14.01,2013-10-04 04:58:00,
2013-10-04 00:59:00,63.7,63.4,30.05,ESE,121,0.0,0.0,99,0.00,,,0.00,VWS V14.01,2013-10-04 04:59:00,
2013-10-04 01:00:00,63.7,63.4,30.05,ESE,121,0.0,0.0,99,0.00,,,0.00,VWS V14.01,2013-10-04 05:00:00,
2013-10-04 01:01:00,63.9,63.6,30.05,ESE,121,0.0,0.0,99,0.00,,,0.00,VWS V14.01,2013-10-04 05:01:00,
2013-10-04 01:02:00,64.1,63.8,30.05,ESE,121,0.0,0.0,99,0.00,,,0.00,VWS V14.01,2013-10-04 05:02:00,
2013-10-04 01:03:00,64.1,63.8,30.05,ESE,122,0.0,0.0,99,0.00,,,0.00,VWS V14.01,2013-10-04 05:03:00,
2013-10-04 01:05:00,64.2,63.9,30.05,ESE,122,0.0,0.0,99,0.00,,,0.00,VWS V14.01,2013-10-04 05:05:00,
2013-10-04 01:06:00,64.1,63.8,30.05,ESE,122,0.0,0.0,99,0.00,,,0.00,VWS V14.01,2013-10-04 05:06:00,
2013-10-04 01:07:00,64.1,63.8,30.05,ESE,121,0.0,0.0,99,0.00,,,0.00,VWS V14.01,2013-10-04 05:07:00,
2013-10-04 01:08:00,64.1,63.8,30.05,ESE,121,0.0,0.0,99,0.00,,,0.00,VWS V14.01,2013-10-04 05:08:00,
2013-10-04 01:09:00,64.0,63.7,30.05,ESE,122,0.0,0.0,99,0.00,,,0.00,VWS V14.01,2013-10-04 05:09:00,
2013-10-04 01:10:00,64.0,63.7,30.05,ESE,121,0.0,0.0,99,0.00,,,0.00,VWS V14.01,2013-10-04 05:10:00,
2013-10-04 01:11:00,63.9,63.6,30.05,ESE,121,0.0,0.0,99,0.00,,,0.00,VWS V14.01,2013-10-04 05:11:00,
2013-10-04 01:12:00,63.9,63.6,30.05,ESE,122,0.0,0.0,99,0.00,,,0.00,VWS V14.01,2013-10-04 05:12:00,
2013-10-04 01:13:00,63.8,63.5,30.05,ESE,121,0.0,0.0,99,0.00,,,0.00,VWS V14.01,2013-10-04 05:13:00,
2013-10-04 01:14:00,63.5,63.2,30.05,ESE,122,0.0,0.0,99,0.00,,,0.00,VWS V14.01,2013-10-04 05:14:00,
2013-10-04 01:15:00,63.5,63.2,30.05,ESE,122,0.0,0.0,99,0.00,,,0.00,VWS V14.01,2013-10-04 05:15:00,
2013-10-04 01:16:00,63.4,63.1,30.05,ESE,121,0.0,0.0,99,0.00,,,0.00,VWS V14.01,2013-10-04 05:16:00,
2013-10-04 01:17:00,63.3,63.0,30.05,ESE,121,0.0,0.0,99,0.00,,,0.00,VWS V14.01,2013-10-04 05:17:00,
2013-10-04 01:18:00,62.9,62.6,30.05,ESE,121,0.0,0.0,99,0.00,,,0.00,VWS V14.01,2013-10-04 05:18:00,
2013-10-04 01:19:00,62.9,62.3,30.05,ESE,121,0.0,0.0,98,0.00,,,0.00,VWS V14.01,2013-10-04 05:19:00,
2013-10-04 01:20:00,62.7,62.1,30.05,ESE,121,0.0,0.0,98,0.00,,,0.00,VWS V14.01,2013-10-04 05:20:00,
2013-10-04 01:21:00,62.5,61.9,30.05,ESE,121,0.0,0.0,98,0.00,,,0.00,VWS V14.01,2013-10-04 05:21:00,
2013-10-04 01:22:00,62.4,61.8,30.05,ESE,121,0.0,0.0,98,0.00,,,0.00,VWS V14.01,2013-10-04 05:22:00,
2013-10-04 01:23:00,62.3,61.7,30.05,ESE,121,0.0,0.0,98,0.00,,,0.00,VWS V14.01,2013-10-04 05:23:00,
2013-10-04 01:24:00,62.2,61.6,30.05,ESE,121,0.0,0.0,98,0.00,,,0.00,VWS V14.01,2013-10-04 05:24:00,
2013-10-04 01:25:00,62.1,61.5,30.05,ESE,121,0.0,0.0,98,0.00,,,0.00,VWS V14.01,2013-10-04 05:25:00,
2013-10-04 01:26:00,62.1,61.5,30.05,ESE,122,0.0,0.0,98,0.00,,,0.00,VWS V14.01,2013-10-04 05:26:00,
2013-10-04 01:27:00,62.0,61.4,30.05,ESE,121,0.0,0.0,98,0.00,,,0.00,VWS V14.01,2013-10-04 05:27:00,
2013-10-04 01:28:00,62.0,61.4,30.05,ESE,121,0.0,0.0,98,0.00,,,0.00,VWS V14.01,2013-10-04 05:28:00,
2013-10-04 01:29:00,62.0,61.4,30.05,ESE,121,0.0,0.0,98,0.00,,,0.00,VWS V14.01,2013-10-04 05:29:00,
2013-10-04 01:30:00,62.0,61.4,30.05,ESE,121,0.0,0.0,98,0.00,,,0.00,VWS V14.01,2013-10-04 05:30:00,
2013-10-04 01:31:00,61.9,61.3,30.05,ESE,121,0.0,0.0,98,0.00,,,0.00,VWS V14.01,2013-10-04 05:31:00,
2013-10-04 01:32:00,61.9,61.3,30.05,ESE,121,0.0,0.0,98,0.00,,,0.00,VWS V14.01,2013-10-04 05:32:00,
2013-10-04 01:33:00,61.9,61.3,30.05,ESE,122,0.0,0.0,98,0.00,,,0.00,VWS V14.01,2013-10-04 05:33:00,
2013-10-04 01:34:00,61.9,61.3,30.05,ESE,121,0.0,0.0,98,0.00,,,0.00,VWS V14.01,2013-10-04 05:34:00,
2013-10-04 01:35:00,61.9,61.3,30.05,ESE,121,0.0,0.0,98,0.00,,,0.00,VWS V14.01,2013-10-04 05:35:00,
2013-10-04 01:36:00,61.9,61.6,30.05,ESE,121,0.0,0.0,99,0.00,,,0.00,VWS V14.01,2013-10-04 05:36:00,
2013-10-04 01:37:00,61.9,61.6,30.05,ESE,121,0.0,0.0,99,0.00,,,0.00,VWS V14.01,2013-10-04 05:37:00,
2013-10-04 01:38:00,61.9,61.6,30.05,ESE,122,0.0,0.0,99,0.00,,,0.00,VWS V14.01,2013-10-04 05:38:00,
2013-10-04 01:39:00,62.0,61.7,30.05,ESE,122,0.0,0.0,99,0.00,,,0.00,VWS V14.01,2013-10-04 05:39:00,
2013-10-04 01:40:00,62.1,61.8,30.05,ESE,121,0.0,0.0,99,0.00,,,0.00,VWS V14.01,2013-10-04 05:40:00,
2013-10-04 01:41:00,62.2,61.9,30.05,ESE,121,0.0,0.0,99,0.00,,,0.00,VWS V14.01,2013-10-04 05:41:00,
2013-10-04 01:42:00,62.2,61.9,30.05,ESE,121,0.0,0.0,99,0.00,,,0.00,VWS V14.01,2013-10-04 05:42:00,
2013-10-04 01:43:00,62.2,61.9,30.05,ESE,121,0.0,0.0,99,0.00,,,0.00,VWS V14.01,2013-10-04 05:43:00,
2013-10-04 01:44:00,62.3,62.0,30.05,SE,124,0.0,0.0,99,0.00,,,0.00,VWS V14.01,2013-10-04 05:44:00,
2013-10-04 01:45:00,62.4,62.1,30.05,SE,124,0.0,0.0,99,0.00,,,0.00,VWS V14.01,2013-10-04 05:45:00,
2013-10-04 01:46:00,62.7,62.4,30.05,SE,124,0.0,0.0,99,0.00,,,0.00,VWS V14.01,2013-10-04 05:46:00,
2013-10-04 01:47:00,62.7,62.4,30.05,SE,124,0.0,0.0,99,0.00,,,0.00,VWS V14.01,2013-10-04 05:47:00,
2013-10-04 01:48:00,62.8,62.5,30.05,SE,124,0.0,0.0,99,0.00,,,0.00,VWS V14.01,2013-10-04 05:48:00,
2013-10-04 01:49:00,62.8,62.5,30.05,SE,124,0.0,0.0,99,0.00,,,0.00,VWS V14.01,2013-10-04 05:49:00,
2013-10-04 01:50:00,62.9,62.6,30.06,SE,124,0.0,0.0,99,0.00,,,0.00,VWS V14.01,2013-10-04 05:50:00,
2013-10-04 01:51:00,63.1,62.8,30.05,SSW,203,1.0,1.0,99,0.00,,,0.00,VWS V14.01,2013-10-04 05:51:00,
2013-10-04 01:52:00,63.1,62.8,30.05,SE,124,0.0,1.0,99,0.00,,,0.00,VWS V14.01,2013-10-04 05:52:00,
2013-10-04 01:53:00,63.3,63.0,30.05,SSW,197,0.0,1.0,99,0.00,,,0.00,VWS V14.01,2013-10-04 05:53:00,
2013-10-04 01:54:00,63.5,63.2,30.05,SSW,205,0.0,0.0,99,0.00,,,0.00,VWS V14.01,2013-10-04 05:54:00,
2013-10-04 01:55:00,63.7,63.4,30.05,SW,221,0.0,2.0,99,0.00,,,0.00,VWS V14.01,2013-10-04 05:55:00,
2013-10-04 01:56:00,63.9,63.6,30.05,SSE,150,0.0,0.0,99,0.00,,,0.00,VWS V14.01,2013-10-04 05:56:00,
2013-10-04 01:57:00,63.9,63.6,30.05,SSE,150,0.0,0.0,99,0.00,,,0.00,VWS V14.01,2013-10-04 05:57:00,
2013-10-04 01:58:00,64.0,63.7,30.06,SSE,161,0.0,0.0,99,0.00,,,0.00,VWS V14.01,2013-10-04 05:58:00,
2013-10-04 01:59:00,63.9,63.6,30.06,SSE,160,0.0,0.0,99,0.00,,,0.00,VWS V14.01,2013-10-04 05:59:00,
2013-10-04 02:00:00,63.9,63.6,30.06,South,186,0.0,0.0,99,0.00,,,0.00,VWS V14.01,2013-10-04 06:00:00,
2013-10-04 02:01:00,63.9,63.6,30.05,SSW,200,0.0,0.0,99,0.00,,,0.00,VWS V14.01,2013-10-04 06:01:00,
2013-10-04 02:02:00,63.9,63.6,30.05,SSW,207,1.0,1.0,99,0.00,,,0.00,VWS V14.01,2013-10-04 06:02:00,
2013-10-04 02:03:00,64.0,63.7,30.05,SSW,194,0.0,1.0,99,0.00,,,0.00,VWS V14.01,2013-10-04 06:03:00,
2013-10-04 02:04:00,64.0,63.7,30.05,SSE,153,0.0,1.0,99,0.00,,,0.00,VWS V14.01,2013-10-04 06:04:00,
2013-10-04 02:05:00,64.0,63.7,30.05,South,177,0.0,0.0,99,0.00,,,0.00,VWS V14.01,2013-10-04 06:05:00,
2013-10-04 02:06:00,64.0,63.7,30.05,SSE,162,0.0,0.0,99,0.00,,,0.00,VWS V14.01,2013-10-04 06:06:00,
2013-10-04 02:07:00,64.0,63.7,30.05,SSE,160,0.0,0.0,99,0.00,,,0.00,VWS V14.01,2013-10-04 06:07:00,
2013-10-04 02:08:00,64.0,63.7,30.05,South,191,0.0,0.0,99,0.00,,,0.00,VWS V14.01,2013-10-04 06:08:00,
2013-10-04 02:09:00,64.0,63.7,30.05,SSE,162,0.0,0.0,99,0.00,,,0.00,VWS V14.01,2013-10-04 06:09:00,
2013-10-04 02:10:00,64.0,63.7,30.05,South,169,0.0,0.0,99,0.00,,,0.00,VWS V14.01,2013-10-04 06:10:00,
2013-10-04 02:11:00,64.0,63.7,30.05,South,169,0.0,0.0,99,0.00,,,0.00,VWS V14.01,2013-10-04 06:11:00,
2013-10-04 02:12:00,64.0,63.7,30.05,South,169,0.0,0.0,99,0.00,,,0.00,VWS V14.01,2013-10-04 06:12:00,
2013-10-04 02:13:00,64.0,63.7,30.05,South,169,0.0,0.0,99,0.00,,,0.00,VWS V14.01,2013-10-04 06:13:00,
2013-10-04 02:14:00,64.0,63.7,30.05,South,169,0.0,0.0,99,0.00,,,0.00,VWS V14.01,2013-10-04 06:14:00,
2013-10-04 02:15:00,63.9,63.6,30.05,South,169,0.0,0.0,99,0.00,,,0.00,VWS V14.01,2013-10-04 06:15:00,
2013-10-04 02:16:00,63.9,63.6,30.05,South,169,0.0,0.0,99,0.00,,,0.00,VWS V14.01,2013-10-04 06:16:00,
2013-10-04 02:17:00,63.9,63.6,30.05,South,169,0.0,0.0,99,0.00,,,0.00,VWS V14.01,2013-10-04 06:17:00,
2013-10-04 02:18:00,63.9,63.6,30.05,SSE,165,0.0,0.0,99,0.00,,,0.00,VWS V14.01,2013-10-04 06:18:00,
2013-10-04 02:19:00,63.8,63.5,30.05,SSE,165,0.0,0.0,99,0.00,,,0.00,VWS V14.01,2013-10-04 06:19:00,
2013-10-04 02:20:00,63.8,63.5,30.05,SSE,165,0.0,0.0,99,0.00,,,0.00,VWS V14.01,2013-10-04 06:20:00,
2013-10-04 02:21:00,63.8,63.5,30.06,SE,146,0.0,0.0,99,0.00,,,0.00,VWS V14.01,2013-10-04 06:21:00,
2013-10-04 02:22:00,63.9,63.6,30.06,SE,146,0.0,0.0,99,0.00,,,0.00,VWS V14.01,2013-10-04 06:22:00,
2013-10-04 02:23:00,63.9,63.6,30.05,SE,146,0.0,0.0,99,0.00,,,0.00,VWS V14.01,2013-10-04 06:23:00,
2013-10-04 02:24:00,63.9,63.6,30.06,South,173,0.0,0.0,99,0.00,,,0.00,VWS V14.01,2013-10-04 06:24:00,
2013-10-04 02:25:00,63.9,63.6,30.05,SSW,200,0.0,0.0,99,0.00,,,0.00,VWS V14.01,2013-10-04 06:25:00,
2013-10-04 02:26:00,63.9,63.6,30.05,SSW,194,0.0,0.0,99,0.00,,,0.00,VWS V14.01,2013-10-04 06:26:00,
2013-10-04 02:27:00,63.9,63.6,30.05,SSW,194,0.0,0.0,99,0.00,,,0.00,VWS V14.01,2013-10-04 06:27:00,
2013-10-04 02:28:00,63.9,63.6,30.05,South,191,0.0,0.0,99,0.00,,,0.00,VWS V14.01,2013-10-04 06:28:00,
2013-10-04 02:29:00,64.0,63.7,30.05,South,191,0.0,0.0,99,0.00,,,0.00,VWS V14.01,2013-10-04 06:29:00,
2013-10-04 02:30:00,64.0,63.7,30.05,South,191,0.0,0.0,99,0.00,,,0.00,VWS V14.01,2013-10-04 06:30:00,
2013-10-04 02:31:00,64.0,63.7,30.05,SE,143,0.0,0.0,99,0.00,,,0.00,VWS V14.01,2013-10-04 06:31:00,
2013-10-04 02:32:00,64.0,63.7,30.05,SE,144,0.0,0.0,99,0.00,,,0.00,VWS V14.01,2013-10-04 06:32:00,
2013-10-04 02:33:00,64.0,63.7,30.05,SE,143,0.0,1.0,99,0.00,,,0.00,VWS V14.01,2013-10-04 06:33:00,
2013-10-04 02:34:00,64.0,63.7,30.05,SE,143,0.0,0.0,99,0.00,,,0.00,VWS V14.01,2013-10-04 06:34:00,
2013-10-04 02:35:00,64.0,63.7,30.05,SE,143,0.0,0.0,99,0.00,,,0.00,VWS V14.01,2013-10-04 06:35:00,
2013-10-04 02:36:00,63.9,63.6,30.05,SE,143,0.0,0.0,99,0.00,,,0.00,VWS V14.01,2013-10-04 06:36:00,
2013-10-04 02:37:00,63.9,63.6,30.05,SE,143,0.0,0.0,99,0.00,,,0.00,VWS V14.01,2013-10-04 06:37:00,
2013-10-04 02:38:00,63.9,63.6,30.05,SE,146,0.0,0.0,99,0.00,,,0.00,VWS V14.01,2013-10-04 06:38:00,
2013-10-04 02:39:00,63.9,63.6,30.05,SSW,201,1.0,2.0,99,0.00,,,0.00,VWS V14.01,2013-10-04 06:39:00,
2013-10-04 02:40:00,63.9,63.6,30.05,SSW,193,0.0,1.0,99,0.00,,,0.00,VWS V14.01,2013-10-04 06:40:00,
2013-10-04 02:41:00,64.0,63.7,30.05,SSW,208,0.0,0.0,99,0.00,,,0.00,VWS V14.01,2013-10-04 06:41:00,
2013-10-04 02:42:00,64.0,63.7,30.05,SSW,208,0.0,0.0,99,0.00,,,0.00,VWS V14.01,2013-10-04 06:42:00,
2013-10-04 02:43:00,64.1,63.8,30.05,SSW,210,0.0,0.0,99,0.00,,,0.00,VWS V14.01,2013-10-04 06:43:00,
2013-10-04 02:44:00,64.1,63.8,30.05,South,170,1.0,1.0,99,0.00,,,0.00,VWS V14.01,2013-10-04 06:44:00,
2013-10-04 02:45:00,64.1,63.8,30.05,South,173,0.0,1.0,99,0.00,,,0.00,VWS V14.01,2013-10-04 06:45:00,
2013-10-04 02:46:00,64.2,63.9,30.05,South,188,1.0,1.0,99,0.00,,,0.00,VWS V14.01,2013-10-04 06:46:00,
2013-10-04 02:47:00,64.2,63.9,30.05,SSE,163,0.0,1.0,99,0.00,,,0.00,VWS V14.01,2013-10-04 06:47:00,
2013-10-04 02:48:00,64.3,64.0,30.05,SW,229,1.0,1.0,99,0.00,,,0.00,VWS V14.01,2013-10-04 06:48:00,
2013-10-04 02:49:00,64.3,64.0,30.05,SSW,210,0.0,2.0,99,0.00,,,0.00,VWS V14.01,2013-10-04 06:49:00,
2013-10-04 02:50:00,64.4,64.1,30.05,SSW,203,1.0,1.0,99,0.00,,,0.00,VWS V14.01,2013-10-04 06:50:00,
2013-10-04 02:51:00,64.5,64.2,30.05,SSE,160,1.0,1.0,99,0.00,,,0.00,VWS V14.01,2013-10-04 06:51:00,
2013-10-04 02:52:00,64.5,64.2,30.05,SSW,193,0.0,1.0,99,0.00,,,0.00,VWS V14.01,2013-10-04 06:52:00,
2013-10-04 02:53:00,64.6,64.3,30.05,South,174,0.0,0.0,99,0.00,,,0.00,VWS V14.01,2013-10-04 06:53:00,
2013-10-04 02:54:00,64.6,64.3,30.05,SSW,205,0.0,1.0,99,0.00,,,0.00,VWS V14.01,2013-10-04 06:54:00,
2013-10-04 02:55:00,64.6,64.3,30.05,SSE,150,0.0,1.0,99,0.00,,,0.00,VWS V14.01,2013-10-04 06:55:00,
2013-10-04 02:56:00,64.6,64.3,30.05,South,172,0.0,1.0,99,0.00,,,0.00,VWS V14.01,2013-10-04 06:56:00,
2013-10-04 02:57:00,64.6,64.3,30.05,SE,146,0.0,1.0,99,0.00,,,0.00,VWS V14.01,2013-10-04 06:57:00,
2013-10-04 02:58:00,64.6,64.3,30.05,South,187,0.0,1.0,99,0.00,,,0.00,VWS V14.01,2013-10-04 06:58:00,
2013-10-04 02:59:00,64.6,64.3,30.05,SSE,165,0.0,1.0,99,0.00,,,0.00,VWS V14.01,2013-10-04 06:59:00,
2013-10-04 03:00:00,64.6,64.3,30.05,South,183,1.0,1.0,99,0.00,,,0.00,VWS V14.01,2013-10-04 07:00:00,
2013-10-04 03:01:00,64.6,64.3,30.05,SSE,158,0.0,0.0,99,0.00,,,0.00,VWS V14.01,2013-10-04 07:01:00,
2013-10-04 03:02:00,64.6,64.3,30.05,SSE,150,0.0,0.0,99,0.00,,,0.00,VWS V14.01,2013-10-04 07:02:00,
2013-10-04 03:03:00,64.6,64.3,30.05,SSE,153,0.0,0.0,99,0.00,,,0.00,VWS V14.01,2013-10-04 07:03:00,
2013-10-04 03:04:00,64.5,64.2,30.05,SSE,167,0.0,0.0,99,0.00,,,0.00,VWS V14.01,2013-10-04 07:04:00,
2013-10-04 03:05:00,64.5,64.2,30.05,SSE,166,0.0,0.0,99,0.00,,,0.00,VWS V14.01,2013-10-04 07:05:00,
2013-10-04 03:06:00,64.4,64.1,30.05,SE,142,0.0,0.0,99,0.00,,,0.00,VWS V14.01,2013-10-04 07:06:00,
2013-10-04 03:07:00,64.4,64.1,30.05,SE,142,0.0,0.0,99,0.00,,,0.00,VWS V14.01,2013-10-04 07:07:00,
2013-10-04 03:08:00,64.3,64.0,30.05,SE,141,0.0,0.0,99,0.00,,,0.00,VWS V14.01,2013-10-04 07:08:00,
2013-10-04 03:09:00,64.3,64.0,30.04,SE,146,0.0,0.0,99,0.00,,,0.00,VWS V14.01,2013-10-04 07:09:00,
2013-10-04 03:10:00,64.3,64.0,30.05,SSE,147,0.0,0.0,99,0.00,,,0.00,VWS V14.01,2013-10-04 07:10:00,
2013-10-04 03:11:00,64.3,64.0,30.04,SSE,159,0.0,0.0,99,0.00,,,0.00,VWS V14.01,2013-10-04 07:11:00,
2013-10-04 03:12:00,64.3,64.0,30.04,SSE,159,0.0,0.0,99,0.00,,,0.00,VWS V14.01,2013-10-04 07:12:00,
2013-10-04 03:13:00,64.3,64.0,30.04,SSE,152,0.0,0.0,99,0.00,,,0.00,VWS V14.01,2013-10-04 07:13:00,
2013-10-04 03:14:00,64.3,64.0,30.04,SE,131,1.0,1.0,99,0.00,,,0.00,VWS V14.01,2013-10-04 07:14:00,
2013-10-04 03:15:00,64.3,64.0,30.04,SSE,167,0.0,1.0,99,0.00,,,0.00,VWS V14.01,2013-10-04 07:15:00,
2013-10-04 03:16:00,64.3,64.0,30.04,SSE,159,0.0,0.0,99,0.00,,,0.00,VWS V14.01,2013-10-04 07:16:00,
2013-10-04 03:17:00,64.3,64.0,30.04,SSE,159,0.0,0.0,99,0.00,,,0.00,VWS V14.01,2013-10-04 07:17:00,
2013-10-04 03:18:00,64.2,63.9,30.04,SSE,160,0.0,0.0,99,0.00,,,0.00,VWS V14.01,2013-10-04 07:18:00,
2013-10-04 03:19:00,64.2,63.9,30.04,South,181,0.0,0.0,99,0.00,,,0.00,VWS V14.01,2013-10-04 07:19:00,
2013-10-04 03:20:00,64.2,63.9,30.04,SE,136,0.0,1.0,99,0.00,,,0.00,VWS V14.01,2013-10-04 07:20:00,
2013-10-04 03:21:00,64.3,64.0,30.04,SSE,165,0.0,1.0,99,0.00,,,0.00,VWS V14.01,2013-10-04 07:21:00,
2013-10-04 03:22:00,64.3,64.0,30.04,SSE,165,0.0,1.0,99,0.00,,,0.00,VWS V14.01,2013-10-04 07:22:00,
2013-10-04 03:23:00,64.3,64.0,30.04,SSE,153,0.0,0.0,99,0.00,,,0.00,VWS V14.01,2013-10-04 07:23:00,
2013-10-04 03:24:00,64.3,64.0,30.04,SSW,210,1.0,2.0,99,0.00,,,0.00,VWS V14.01,2013-10-04 07:24:00,
2013-10-04 03:25:00,64.3,64.0,30.04,South,186,0.0,1.0,99,0.00,,,0.00,VWS V14.01,2013-10-04 07:25:00,
2013-10-04 03:26:00,64.3,64.0,30.04,SSW,211,1.0,1.0,99,0.00,,,0.00,VWS V14.01,2013-10-04 07:26:00,
2013-10-04 03:27:00,64.4,64.1,30.04,SSE,156,0.0,1.0,99,0.00,,,0.00,VWS V14.01,2013-10-04 07:27:00,
2013-10-04 03:28:00,64.4,64.1,30.04,SSW,195,0.0,1.0,99,0.00,,,0.00,VWS V14.01,2013-10-04 07:28:00,
2013-10-04 03:29:00,64.4,64.1,30.04,SSE,166,0.0,1.0,99,0.00,,,0.00,VWS V14.01,2013-10-04 07:29:00,
2013-10-04 03:30:00,64.4,64.1,30.04,SW,226,0.0,0.0,99,0.00,,,0.00,VWS V14.01,2013-10-04 07:30:00,
2013-10-04 03:31:00,64.4,64.1,30.04,SSE,149,0.0,0.0,99,0.00,,,0.00,VWS V14.01,2013-10-04 07:31:00,
2013-10-04 03:32:00,64.4,64.1,30.04,South,191,0.0,0.0,99,0.00,,,0.00,VWS V14.01,2013-10-04 07:32:00,
2013-10-04 03:33:00,64.4,64.1,30.04,SSE,153,1.0,1.0,99,0.00,,,0.00,VWS V14.01,2013-10-04 07:33:00,
2013-10-04 03:34:00,64.4,64.1,30.04,SSE,153,0.0,1.0,99,0.00,,,0.00,VWS V14.01,2013-10-04 07:34:00,
2013-10-04 03:35:00,64.4,64.1,30.04,SSE,152,0.0,1.0,99,0.00,,,0.00,VWS V14.01,2013-10-04 07:35:00,
2013-10-04 03:36:00,64.4,64.1,30.04,SSE,154,0.0,0.0,99,0.00,,,0.00,VWS V14.01,2013-10-04 07:36:00,
2013-10-04 03:37:00,64.4,64.1,30.04,SSE,153,0.0,0.0,99,0.00,,,0.00,VWS V14.01,2013-10-04 07:37:00,
2013-10-04 03:38:00,64.4,64.1,30.04,South,182,1.0,1.0,99,0.00,,,0.00,VWS V14.01,2013-10-04 07:38:00,
2013-10-04 03:39:00,64.3,64.0,30.04,SSE,162,1.0,1.0,99,0.00,,,0.00,VWS V14.01,2013-10-04 07:39:00,
2013-10-04 03:40:00,64.3,64.0,30.04,SE,143,0.0,1.0,99,0.00,,,0.00,VWS V14.01,2013-10-04 07:40:00,
2013-10-04 03:41:00,64.3,64.0,30.04,SSW,195,1.0,1.0,99,0.00,,,0.00,VWS V14.01,2013-10-04 07:41:00,
2013-10-04 03:42:00,64.3,64.0,30.04,SSW,195,0.0,1.0,99,0.00,,,0.00,VWS V14.01,2013-10-04 07:42:00,
2013-10-04 03:43:00,64.3,64.0,30.04,South,170,0.0,0.0,99,0.00,,,0.00,VWS V14.01,2013-10-04 07:43:00,
2013-10-04 03:44:00,64.3,64.0,30.04,SSE,161,0.0,1.0,99,0.00,,,0.00,VWS V14.01,2013-10-04 07:44:00,
2013-10-04 03:45:00,64.3,64.0,30.04,SE,139,0.0,1.0,99,0.00,,,0.00,VWS V14.01,2013-10-04 07:45:00,
2013-10-04 03:46:00,64.3,64.0,30.04,SE,141,0.0,0.0,99,0.00,,,0.00,VWS V14.01,2013-10-04 07:46:00,
2013-10-04 03:47:00,64.3,64.0,30.04,SE,132,1.0,1.0,99,0.01,,,0.01,VWS V14.01,2013-10-04 07:47:00,
2013-10-04 03:48:00,64.3,64.0,30.04,SSE,156,0.0,1.0,99,0.01,,,0.01,VWS V14.01,2013-10-04 07:48:00,
2013-10-04 03:49:00,64.2,63.9,30.04,SSE,158,0.0,1.0,99,0.01,,,0.01,VWS V14.01,2013-10-04 07:49:00,
2013-10-04 03:50:00,64.2,63.9,30.04,SE,146,0.0,0.0,99,0.01,,,0.01,VWS V14.01,2013-10-04 07:50:00,
2013-10-04 03:51:00,64.1,63.8,30.04,SSW,198,0.0,0.0,99,0.01,,,0.01,VWS V14.01,2013-10-04 07:51:00,
2013-10-04 03:52:00,64.1,63.8,30.04,SSE,162,0.0,0.0,99,0.01,,,0.01,VWS V14.01,2013-10-04 07:52:00,
2013-10-04 03:53:00,64.1,63.8,30.04,SSE,162,0.0,0.0,99,0.01,,,0.01,VWS V14.01,2013-10-04 07:53:00,
2013-10-04 03:54:00,64.1,63.8,30.04,SSE,159,0.0,0.0,99,0.01,,,0.01,VWS V14.01,2013-10-04 07:54:00,
2013-10-04 03:55:00,64.0,63.7,30.04,SSE,147,0.0,0.0,99,0.01,,,0.01,VWS V14.01,2013-10-04 07:55:00,
2013-10-04 03:56:00,64.0,63.7,30.04,SE,135,0.0,0.0,99,0.01,,,0.01,VWS V14.01,2013-10-04 07:56:00,
2013-10-04 03:57:00,64.0,63.7,30.04,SE,139,0.0,0.0,99,0.01,,,0.01,VWS V14.01,2013-10-04 07:57:00,
2013-10-04 03:58:00,63.9,63.6,30.04,SSE,153,0.0,1.0,99,0.01,,,0.01,VWS V14.01,2013-10-04 07:58:00,
2013-10-04 03:59:00,63.9,63.6,30.04,SSE,153,0.0,0.0,99,0.01,,,0.01,VWS V14.01,2013-10-04 07:59:00,
2013-10-04 04:00:00,63.9,63.6,30.04,SSE,166,0.0,0.0,99,0.01,,,0.01,VWS V14.01,2013-10-04 08:00:00,
2013-10-04 04:01:00,63.9,63.6,30.04,SSW,195,0.0,0.0,99,0.01,,,0.01,VWS V14.01,2013-10-04 08:01:00,
2013-10-04 04:02:00,63.9,63.6,30.04,SSW,195,0.0,0.0,99,0.01,,,0.01,VWS V14.01,2013-10-04 08:02:00,
2013-10-04 04:03:00,63.9,63.6,30.04,SSW,198,0.0,1.0,99,0.01,,,0.01,VWS V14.01,2013-10-04 08:03:00,
2013-10-04 04:04:00,63.9,63.6,30.04,SW,220,0.0,0.0,99,0.01,,,0.01,VWS V14.01,2013-10-04 08:04:00,
2013-10-04 04:05:00,63.9,63.6,30.04,South,172,0.0,1.0,99,0.01,,,0.01,VWS V14.01,2013-10-04 08:05:00,
2013-10-04 04:06:00,64.0,63.7,30.04,South,174,0.0,1.0,99,0.01,,,0.01,VWS V14.01,2013-10-04 08:06:00,
2013-10-04 04:07:00,64.0,63.7,30.04,SSW,204,1.0,2.0,99,0.01,,,0.01,VWS V14.01,2013-10-04 08:07:00,
2013-10-04 04:08:00,64.1,63.8,30.04,South,184,1.0,1.0,99,0.01,,,0.01,VWS V14.01,2013-10-04 08:08:00,
2013-10-04 04:09:00,64.1,63.8,30.04,SSE,167,0.0,2.0,99,0.01,,,0.01,VWS V14.01,2013-10-04 08:09:00,
2013-10-04 04:10:00,64.1,63.8,30.04,SSE,167,0.0,2.0,99,0.01,,,0.01,VWS V14.01,2013-10-04 08:10:00,
2013-10-04 04:11:00,64.1,63.8,30.04,SSE,166,1.0,2.0,99,0.01,,,0.01,VWS V14.01,2013-10-04 08:11:00,
2013-10-04 04:12:00,64.1,63.8,30.04,SSW,200,0.0,2.0,99,0.01,,,0.01,VWS V14.01,2013-10-04 08:12:00,
2013-10-04 04:13:00,64.2,63.9,30.04,SW,221,0.0,3.0,99,0.01,,,0.01,VWS V14.01,2013-10-04 08:13:00,
2013-10-04 04:14:00,64.2,63.9,30.04,SSW,210,0.0,1.0,99,0.01,,,0.01,VWS V14.01,2013-10-04 08:14:00,
2013-10-04 04:15:00,64.2,63.9,30.04,SSW,204,2.0,2.0,99,0.01,,,0.01,VWS V14.01,2013-10-04 08:15:00,
2013-10-04 04:16:00,64.2,63.9,30.04,SSW,195,0.0,1.0,99,0.01,,,0.01,VWS V14.01,2013-10-04 08:16:00,
2013-10-04 04:17:00,64.2,63.9,30.04,SSW,197,2.0,2.0,99,0.01,,,0.01,VWS V14.01,2013-10-04 08:17:00,
2013-10-04 04:18:00,64.2,63.9,30.04,SE,145,0.0,2.0,99,0.01,,,0.01,VWS V14.01,2013-10-04 08:18:00,
2013-10-04 04:19:00,64.2,63.9,30.04,SSW,198,1.0,2.0,99,0.01,,,0.01,VWS V14.01,2013-10-04 08:19:00,
2013-10-04 04:20:00,64.2,63.9,30.04,South,169,0.0,1.0,99,0.01,,,0.01,VWS V14.01,2013-10-04 08:20:00,
2013-10-04 04:21:00,64.1,63.8,30.04,SSW,201,0.0,1.0,99,0.01,,,0.01,VWS V14.01,2013-10-04 08:21:00,
2013-10-04 04:22:00,64.1,63.8,30.04,SSW,200,0.0,1.0,99,0.01,,,0.01,VWS V14.01,2013-10-04 08:22:00,
2013-10-04 04:23:00,64.1,63.8,30.05,SSW,211,1.0,1.0,99,0.01,,,0.01,VWS V14.01,2013-10-04 08:23:00,
2013-10-04 04:24:00,64.1,63.8,30.05,SSW,195,0.0,1.0,99,0.01,,,0.01,VWS V14.01,2013-10-04 08:24:00,
2013-10-04 04:25:00,64.1,63.8,30.05,SSW,194,0.0,0.0,99,0.01,,,0.01,VWS V14.01,2013-10-04 08:25:00,
2013-10-04 04:26:00,64.1,63.8,30.05,South,173,1.0,2.0,99,0.01,,,0.01,VWS V14.01,2013-10-04 08:26:00,
2013-10-04 04:27:00,64.1,63.8,30.05,South,177,0.0,2.0,99,0.01,,,0.01,VWS V14.01,2013-10-04 08:27:00,
2013-10-04 04:28:00,64.1,63.8,30.05,SSW,195,0.0,0.0,99,0.01,,,0.01,VWS V14.01,2013-10-04 08:28:00,
2013-10-04 04:29:00,64.1,63.8,30.05,SW,215,0.0,0.0,99,0.01,,,0.01,VWS V14.01,2013-10-04 08:29:00,
2013-10-04 04:30:00,64.1,63.8,30.05,SW,215,0.0,0.0,99,0.01,,,0.01,VWS V14.01,2013-10-04 08:30:00,
2013-10-04 04:31:00,64.1,63.8,30.05,SW,218,0.0,0.0,99,0.01,,,0.01,VWS V14.01,2013-10-04 08:31:00,
2013-10-04 04:32:00,64.1,63.8,30.05,SW,218,0.0,0.0,99,0.01,,,0.01,VWS V14.01,2013-10-04 08:32:00,
2013-10-04 04:33:00,64.1,63.8,30.05,SW,217,0.0,0.0,99,0.01,,,0.01,VWS V14.01,2013-10-04 08:33:00,
2013-10-04 04:34:00,64.1,63.8,30.05,SW,218,0.0,0.0,99,0.01,,,0.01,VWS V14.01,2013-10-04 08:34:00,
2013-10-04 04:36:00,64.0,63.7,30.05,SW,218,0.0,0.0,99,0.01,,,0.01,VWS V14.01,2013-10-04 08:36:00,
2013-10-04 04:37:00,64.0,63.7,30.05,SW,218,0.0,0.0,99,0.01,,,0.01,VWS V14.01,2013-10-04 08:37:00,
2013-10-04 04:38:00,64.0,63.7,30.05,SSE,158,0.0,0.0,99,0.01,,,0.01,VWS V14.01,2013-10-04 08:38:00,
2013-10-04 04:39:00,63.9,63.6,30.05,SSE,158,0.0,0.0,99,0.01,,,0.01,VWS V14.01,2013-10-04 08:39:00,
2013-10-04 04:40:00,63.9,63.6,30.05,SW,214,1.0,2.0,99,0.01,,,0.01,VWS V14.01,2013-10-04 08:40:00,
2013-10-04 04:41:00,63.9,63.6,30.05,SW,225,0.0,0.0,99,0.01,,,0.01,VWS V14.01,2013-10-04 08:41:00,
2013-10-04 04:42:00,64.0,63.7,30.05,SW,224,0.0,0.0,99,0.01,,,0.01,VWS V14.01,2013-10-04 08:42:00,
2013-10-04 04:43:00,63.9,63.6,30.05,SW,224,0.0,0.0,99,0.01,,,0.01,VWS V14.01,2013-10-04 08:43:00,
2013-10-04 04:44:00,63.9,63.6,30.05,SW,224,0.0,0.0,99,0.01,,,0.01,VWS V14.01,2013-10-04 08:44:00,
2013-10-04 04:45:00,63.9,63.6,30.05,SW,224,0.0,0.0,99,0.01,,,0.01,VWS V14.01,2013-10-04 08:45:00,
2013-10-04 04:46:00,63.9,63.6,30.05,SW,224,0.0,0.0,99,0.01,,,0.01,VWS V14.01,2013-10-04 08:46:00,
2013-10-04 04:47:00,63.9,63.6,30.05,SW,224,0.0,0.0,99,0.01,,,0.01,VWS V14.01,2013-10-04 08:47:00,
2013-10-04 04:48:00,63.9,63.6,30.05,SW,224,0.0,0.0,99,0.00,,,0.01,VWS V14.01,2013-10-04 08:48:00,
2013-10-04 04:49:00,63.8,63.5,30.05,WNW,284,0.0,0.0,99,0.00,,,0.01,VWS V14.01,2013-10-04 08:49:00,
2013-10-04 04:50:00,63.8,63.5,30.05,WNW,284,0.0,0.0,99,0.00,,,0.01,VWS V14.01,2013-10-04 08:50:00,
2013-10-04 04:51:00,63.8,63.5,30.05,WNW,283,0.0,0.0,99,0.00,,,0.01,VWS V14.01,2013-10-04 08:51:00,
2013-10-04 04:52:00,63.8,63.5,30.05,WNW,284,0.0,0.0,99,0.00,,,0.01,VWS V14.01,2013-10-04 08:52:00,
2013-10-04 04:53:00,63.8,63.5,30.05,SSW,211,0.0,0.0,99,0.00,,,0.01,VWS V14.01,2013-10-04 08:53:00,
2013-10-04 04:54:00,63.8,63.5,30.05,SW,221,2.0,2.0,99,0.00,,,0.01,VWS V14.01,2013-10-04 08:54:00,
2013-10-04 04:55:00,63.8,63.5,30.05,SSW,193,0.0,2.0,99,0.00,,,0.01,VWS V14.01,2013-10-04 08:55:00,
2013-10-04 04:56:00,63.9,63.6,30.05,SW,226,0.0,2.0,99,0.00,,,0.01,VWS V14.01,2013-10-04 08:56:00,
2013-10-04 04:57:00,63.9,63.6,30.05,SW,226,0.0,2.0,99,0.00,,,0.01,VWS V14.01,2013-10-04 08:57:00,
2013-10-04 04:58:00,63.9,63.6,30.06,SW,226,0.0,0.0,99,0.00,,,0.01,VWS V14.01,2013-10-04 08:58:00,
2013-10-04 04:59:00,64.0,63.7,30.06,WSW,238,0.0,0.0,99,0.00,,,0.01,VWS V14.01,2013-10-04 08:59:00,
2013-10-04 05:00:00,63.9,63.6,30.05,WSW,238,0.0,0.0,99,0.00,,,0.01,VWS V14.01,2013-10-04 09:00:00,
2013-10-04 05:01:00,63.9,63.6,30.05,WSW,239,0.0,0.0,99,0.00,,,0.01,VWS V14.01,2013-10-04 09:01:00,
2013-10-04 05:02:00,63.9,63.6,30.05,WSW,239,0.0,0.0,99,0.00,,,0.01,VWS V14.01,2013-10-04 09:02:00,
2013-10-04 05:03:00,63.9,63.6,30.05,SW,217,0.0,0.0,99,0.00,,,0.01,VWS V14.01,2013-10-04 09:03:00,
2013-10-04 05:04:00,64.0,63.7,30.05,SW,217,0.0,0.0,99,0.00,,,0.01,VWS V14.01,2013-10-04 09:04:00,
2013-10-04 05:05:00,64.0,63.7,30.05,SW,217,0.0,0.0,99,0.00,,,0.01,VWS V14.01,2013-10-04 09:05:00,
2013-10-04 05:06:00,64.0,63.7,30.05,South,189,0.0,0.0,99,0.00,,,0.01,VWS V14.01,2013-10-04 09:06:00,
2013-10-04 05:07:00,64.0,63.7,30.05,South,189,0.0,0.0,99,0.00,,,0.01,VWS V14.01,2013-10-04 09:07:00,
2013-10-04 05:08:00,63.9,63.6,30.05,South,189,0.0,0.0,99,0.00,,,0.01,VWS V14.01,2013-10-04 09:08:00,
2013-10-04 05:09:00,63.9,63.6,30.05,South,188,0.0,0.0,99,0.00,,,0.01,VWS V14.01,2013-10-04 09:09:00,
2013-10-04 05:10:00,63.9,63.6,30.05,South,188,0.0,0.0,99,0.00,,,0.01,VWS V14.01,2013-10-04 09:10:00,
2013-10-04 05:11:00,63.8,63.5,30.05,SSW,197,0.0,0.0,99,0.00,,,0.01,VWS V14.01,2013-10-04 09:11:00,
2013-10-04 05:12:00,63.8,63.5,30.05,SSW,198,0.0,0.0,99,0.00,,,0.01,VWS V14.01,2013-10-04 09:12:00,
2013-10-04 05:13:00,63.8,63.5,30.06,SSW,197,0.0,0.0,99,0.00,,,0.01,VWS V14.01,2013-10-04 09:13:00,
2013-10-04 05:14:00,63.8,63.5,30.06,SSW,197,0.0,0.0,99,0.00,,,0.01,VWS V14.01,2013-10-04 09:14:00,
2013-10-04 05:15:00,63.7,63.4,30.06,SSW,197,0.0,0.0,99,0.00,,,0.01,VWS V14.01,2013-10-04 09:15:00,
2013-10-04 05:16:00,63.7,63.4,30.06,SSW,197,0.0,0.0,99,0.00,,,0.01,VWS V14.01,2013-10-04 09:16:00,
2013-10-04 05:17:00,63.7,63.4,30.06,SW,236,0.0,0.0,99,0.00,,,0.01,VWS V14.01,2013-10-04 09:17:00,
2013-10-04 05:18:00,63.7,63.4,30.06,SW,236,0.0,0.0,99,0.00,,,0.01,VWS V14.01,2013-10-04 09:18:00,
2013-10-04 05:19:00,63.7,63.4,30.06,SE,142,0.0,0.0,99,0.00,,,0.01,VWS V14.01,2013-10-04 09:19:00,
2013-10-04 05:20:00,63.7,63.4,30.06,SE,142,0.0,0.0,99,0.00,,,0.01,VWS V14.01,2013-10-04 09:20:00,
2013-10-04 05:21:00,63.7,63.4,30.06,SE,142,0.0,0.0,99,0.00,,,0.01,VWS V14.01,2013-10-04 09:21:00,
2013-10-04 05:22:00,63.7,63.4,30.06,SE,142,0.0,0.0,99,0.00,,,0.01,VWS V14.01,2013-10-04 09:22:00,
2013-10-04 05:23:00,63.7,63.4,30.06,SE,143,0.0,0.0,99,0.00,,,0.01,VWS V14.01,2013-10-04 09:23:00,
2013-10-04 05:24:00,63.7,63.4,30.06,SE,142,0.0,0.0,99,0.00,,,0.01,VWS V14.01,2013-10-04 09:24:00,
2013-10-04 05:25:00,63.6,63.3,30.06,SSW,204,0.0,0.0,99,0.00,,,0.01,VWS V14.01,2013-10-04 09:25:00,
2013-10-04 05:26:00,63.7,63.4,30.06,WSW,240,0.0,0.0,99,0.00,,,0.01,VWS V14.01,2013-10-04 09:26:00,
2013-10-04 05:27:00,63.7,63.4,30.06,WSW,240,0.0,0.0,99,0.00,,,0.01,VWS V14.01,2013-10-04 09:27:00,
2013-10-04 05:28:00,63.7,63.4,30.06,WSW,240,0.0,0.0,99,0.00,,,0.01,VWS V14.01,2013-10-04 09:28:00,
2013-10-04 05:29:00,63.7,63.4,30.06,SSW,201,0.0,0.0,99,0.00,,,0.01,VWS V14.01,2013-10-04 09:29:00,
2013-10-04 05:30:00,63.7,63.4,30.06,SSW,201,0.0,0.0,99,0.00,,,0.01,VWS V14.01,2013-10-04 09:30:00,
2013-10-04 05:31:00,63.7,63.4,30.06,WSW,243,0.0,0.0,99,0.00,,,0.01,VWS V14.01,2013-10-04 09:31:00,
2013-10-04 05:32:00,63.8,63.5,30.06,WSW,243,0.0,0.0,99,0.00,,,0.01,VWS V14.01,2013-10-04 09:32:00,
2013-10-04 05:33:00,63.7,63.4,30.06,WSW,243,0.0,1.0,99,0.00,,,0.01,VWS V14.01,2013-10-04 09:33:00,
2013-10-04 05:34:00,63.8,63.5,30.06,WSW,243,0.0,0.0,99,0.00,,,0.01,VWS V14.01,2013-10-04 09:34:00,
2013-10-04 05:35:00,63.8,63.5,30.06,WSW,243,0.0,0.0,99,0.00,,,0.01,VWS V14.01,2013-10-04 09:35:00,
2013-10-04 05:36:00,63.8,63.5,30.06,SW,221,0.0,1.0,99,0.00,,,0.01,VWS V14.01,2013-10-04 09:36:00,
2013-10-04 05:37:00,63.8,63.5,30.06,SW,221,0.0,1.0,99,0.00,,,0.01,VWS V14.01,2013-10-04 09:37:00,
2013-10-04 05:38:00,63.7,63.4,30.06,SSW,208,0.0,1.0,99,0.00,,,0.01,VWS V14.01,2013-10-04 09:38:00,
2013-10-04 05:39:00,63.7,63.4,30.06,SSW,208,0.0,0.0,99,0.00,,,0.01,VWS V14.01,2013-10-04 09:39:00,
2013-10-04 05:40:00,63.7,63.4,30.06,SSW,208,0.0,0.0,99,0.00,,,0.01,VWS V14.01,2013-10-04 09:40:00,
2013-10-04 05:41:00,63.7,63.4,30.06,SSW,208,0.0,0.0,99,0.00,,,0.01,VWS V14.01,2013-10-04 09:41:00,
2013-10-04 05:42:00,63.7,63.4,30.06,SSW,208,0.0,0.0,99,0.00,,,0.01,VWS V14.01,2013-10-04 09:42:00,
2013-10-04 05:43:00,63.7,63.4,30.06,SSW,208,0.0,0.0,99,0.00,,,0.01,VWS V14.01,2013-10-04 09:43:00,
2013-10-04 05:44:00,63.7,63.4,30.06,SW,217,0.0,1.0,99,0.00,,,0.01,VWS V14.01,2013-10-04 09:44:00,
2013-10-04 05:45:00,63.7,63.4,30.06,SW,217,0.0,0.0,99,0.00,,,0.01,VWS V14.01,2013-10-04 09:45:00,
2013-10-04 05:46:00,63.7,63.4,30.06,SW,217,0.0,0.0,99,0.00,,,0.01,VWS V14.01,2013-10-04 09:46:00,
2013-10-04 05:47:00,63.7,63.4,30.06,SW,217,0.0,0.0,99,0.00,,,0.01,VWS V14.01,2013-10-04 09:47:00,
2013-10-04 05:48:00,63.8,63.5,30.06,SSW,194,0.0,0.0,99,0.00,,,0.01,VWS V14.01,2013-10-04 09:48:00,
2013-10-04 05:49:00,63.8,63.5,30.06,SSW,193,0.0,0.0,99,0.00,,,0.01,VWS V14.01,2013-10-04 09:49:00,
2013-10-04 05:50:00,63.8,63.5,30.06,SSW,208,0.0,0.0,99,0.00,,,0.01,VWS V14.01,2013-10-04 09:50:00,
2013-10-04 05:51:00,63.8,63.5,30.06,SSW,208,0.0,0.0,99,0.00,,,0.01,VWS V14.01,2013-10-04 09:51:00,
2013-10-04 05:52:00,63.8,63.5,30.06,SSW,208,0.0,0.0,99,0.00,,,0.01,VWS V14.01,2013-10-04 09:52:00,
2013-10-04 05:53:00,63.8,63.5,30.06,SSW,209,0.0,0.0,99,0.00,,,0.01,VWS V14.01,2013-10-04 09:53:00,
2013-10-04 05:54:00,63.8,63.5,30.06,SSW,204,0.0,0.0,99,0.00,,,0.01,VWS V14.01,2013-10-04 09:54:00,
2013-10-04 05:55:00,63.8,63.5,30.06,South,190,0.0,0.0,99,0.00,,,0.01,VWS V14.01,2013-10-04 09:55:00,
2013-10-04 05:56:00,63.8,63.5,30.06,WSW,252,0.0,0.0,99,0.00,,,0.01,VWS V14.01,2013-10-04 09:56:00,
2013-10-04 05:57:00,63.8,63.5,30.06,WSW,252,0.0,0.0,99,0.00,,,0.01,VWS V14.01,2013-10-04 09:57:00,
2013-10-04 05:58:00,63.8,63.5,30.06,WSW,252,0.0,0.0,99,0.00,,,0.01,VWS V14.01,2013-10-04 09:58:00,
2013-10-04 05:59:00,63.8,63.5,30.07,WSW,252,0.0,0.0,99,0.00,,,0.01,VWS V14.01,2013-10-04 09:59:00,
2013-10-04 06:00:00,63.8,63.5,30.06,WSW,251,0.0,0.0,99,0.00,,,0.01,VWS V14.01,2013-10-04 10:00:00,
2013-10-04 06:01:00,63.7,63.4,30.07,SSW,205,0.0,0.0,99,0.00,,,0.01,VWS V14.01,2013-10-04 10:01:00,
2013-10-04 06:03:00,63.8,63.5,30.07,SSW,197,0.0,1.0,99,0.00,,,0.01,VWS V14.01,2013-10-04 10:03:00,
2013-10-04 06:04:00,63.8,63.5,30.06,SSW,198,0.0,0.0,99,0.00,,,0.01,VWS V14.01,2013-10-04 10:04:00,
2013-10-04 06:05:00,63.8,63.5,30.07,SW,217,0.0,1.0,99,0.00,,,0.01,VWS V14.01,2013-10-04 10:05:00,
2013-10-04 06:06:00,63.8,63.5,30.06,SW,215,0.0,0.0,99,0.00,,,0.01,VWS V14.01,2013-10-04 10:06:00,
2013-10-04 06:07:00,63.8,63.5,30.07,South,173,0.0,1.0,99,0.00,,,0.01,VWS V14.01,2013-10-04 10:07:00,
2013-10-04 06:08:00,63.9,63.6,30.06,SSE,147,0.0,1.0,99,0.00,,,0.01,VWS V14.01,2013-10-04 10:08:00,
2013-10-04 06:09:00,63.8,63.5,30.06,SW,234,0.0,1.0,99,0.00,,,0.01,VWS V14.01,2013-10-04 10:09:00,
2013-10-04 06:10:00,63.9,63.6,30.06,SSW,194,0.0,0.0,99,0.00,,,0.01,VWS V14.01,2013-10-04 10:10:00,
2013-10-04 06:11:00,63.9,63.6,30.07,SE,139,0.0,1.0,99,0.00,,,0.01,VWS V14.01,2013-10-04 10:11:00,
2013-10-04 06:12:00,63.9,63.6,30.07,SE,127,0.0,1.0,99,0.00,,,0.01,VWS V14.01,2013-10-04 10:12:00,
2013-10-04 06:13:00,63.9,63.6,30.06,SW,222,0.0,0.0,99,0.00,,,0.01,VWS V14.01,2013-10-04 10:13:00,
2013-10-04 06:14:00,63.9,63.6,30.06,SSW,203,0.0,1.0,99,0.00,,,0.01,VWS V14.01,2013-10-04 10:14:00,
2013-10-04 06:15:00,63.9,63.6,30.06,SSW,204,0.0,0.0,99,0.00,,,0.01,VWS V14.01,2013-10-04 10:15:00,
2013-10-04 06:16:00,63.9,63.6,30.06,South,183,0.0,0.0,99,0.00,,,0.01,VWS V14.01,2013-10-04 10:16:00,
2013-10-04 06:17:00,63.9,63.6,30.06,South,184,0.0,0.0,99,0.00,,,0.01,VWS V14.01,2013-10-04 10:17:00,
2013-10-04 06:18:00,63.8,63.5,30.07,South,184,0.0,0.0,99,0.00,,,0.01,VWS V14.01,2013-10-04 10:18:00,
2013-10-04 06:19:00,63.8,63.5,30.06,South,183,0.0,0.0,99,0.00,,,0.01,VWS V14.01,2013-10-04 10:19:00,
2013-10-04 06:20:00,63.8,63.5,30.06,South,183,0.0,0.0,99,0.00,,,0.01,VWS V14.01,2013-10-04 10:20:00,
2013-10-04 06:21:00,63.7,63.4,30.06,South,180,0.0,0.0,99,0.00,,,0.01,VWS V14.01,2013-10-04 10:21:00,
2013-10-04 06:22:00,63.7,63.4,30.06,SSW,198,0.0,0.0,99,0.00,,,0.01,VWS V14.01,2013-10-04 10:22:00,
2013-10-04 06:23:00,63.7,63.4,30.06,SW,236,0.0,2.0,99,0.00,,,0.01,VWS V14.01,2013-10-04 10:23:00,
2013-10-04 06:24:00,63.7,63.4,30.06,SSW,197,0.0,0.0,99,0.00,,,0.01,VWS V14.01,2013-10-04 10:24:00,
2013-10-04 06:25:00,63.7,63.4,30.06,SW,219,0.0,0.0,99,0.00,,,0.01,VWS V14.01,2013-10-04 10:25:00,
2013-10-04 06:26:00,63.8,63.5,30.07,South,173,0.0,0.0,99,0.00,,,0.01,VWS V14.01,2013-10-04 10:26:00,
2013-10-04 06:27:00,63.8,63.5,30.07,South,173,0.0,0.0,99,0.00,,,0.01,VWS V14.01,2013-10-04 10:27:00,
2013-10-04 06:28:00,63.8,63.5,30.07,SSW,201,0.0,0.0,99,0.00,,,0.01,VWS V14.01,2013-10-04 10:28:00,
2013-10-04 06:29:00,63.7,63.4,30.07,SSW,201,0.0,0.0,99,0.00,,,0.01,VWS V14.01,2013-10-04 10:29:00,
2013-10-04 06:30:00,63.7,63.4,30.07,SE,139,0.0,0.0,99,0.00,,,0.01,VWS V14.01,2013-10-04 10:30:00,
2013-10-04 06:31:00,63.7,63.4,30.07,SE,145,0.0,0.0,99,0.00,,,0.01,VWS V14.01,2013-10-04 10:31:00,
2013-10-04 06:32:00,63.7,63.4,30.07,SE,145,0.0,0.0,99,0.00,,,0.01,VWS V14.01,2013-10-04 10:32:00,
2013-10-04 06:33:00,63.7,63.4,30.07,SSW,211,0.0,0.0,99,0.00,,,0.01,VWS V14.01,2013-10-04 10:33:00,
2013-10-04 06:34:00,63.6,63.3,30.07,SSW,200,0.0,1.0,99,0.00,,,0.01,VWS V14.01,2013-10-04 10:34:00,
2013-10-04 06:35:00,63.6,63.3,30.07,SSW,207,0.0,0.0,99,0.00,,,0.01,VWS V14.01,2013-10-04 10:35:00,
2013-10-04 06:36:00,63.6,63.3,30.07,SSW,203,0.0,0.0,99,0.00,,,0.01,VWS V14.01,2013-10-04 10:36:00,
2013-10-04 06:37:00,63.6,63.3,30.07,SSW,203,0.0,0.0,99,0.00,,,0.01,VWS V14.01,2013-10-04 10:37:00,
2013-10-04 06:38:00,63.5,63.2,30.07,SSW,203,0.0,0.0,99,0.00,,,0.01,VWS V14.01,2013-10-04 10:38:00,
2013-10-04 06:39:00,63.5,63.2,30.07,SSW,203,0.0,0.0,99,0.00,,,0.01,VWS V14.01,2013-10-04 10:39:00,
2013-10-04 06:40:00,63.5,63.2,30.07,SSW,203,0.0,0.0,99,0.00,,,0.01,VWS V14.01,2013-10-04 10:40:00,
2013-10-04 06:41:00,63.5,63.2,30.07,SSW,203,0.0,0.0,99,0.00,,,0.01,VWS V14.01,2013-10-04 10:41:00,
2013-10-04 06:42:00,63.5,63.2,30.07,SSW,203,0.0,0.0,99,0.00,,,0.01,VWS V14.01,2013-10-04 10:42:00,
2013-10-04 06:43:00,63.5,63.2,30.07,SSW,203,0.0,0.0,99,0.00,,,0.01,VWS V14.01,2013-10-04 10:43:00,
2013-10-04 06:44:00,63.5,63.2,30.07,SSW,203,0.0,0.0,99,0.00,,,0.01,VWS V14.01,2013-10-04 10:44:00,
2013-10-04 06:45:00,63.5,63.2,30.07,SSW,203,0.0,0.0,99,0.00,,,0.01,VWS V14.01,2013-10-04 10:45:00,
2013-10-04 06:46:00,63.5,63.2,30.07,SW,215,0.0,1.0,99,0.00,,,0.01,VWS V14.01,2013-10-04 10:46:00,
2013-10-04 06:47:00,63.5,63.2,30.07,WSW,239,0.0,1.0,99,0.00,,,0.01,VWS V14.01,2013-10-04 10:47:00,
2013-10-04 06:48:00,63.5,63.2,30.07,WSW,239,0.0,0.0,99,0.00,,,0.01,VWS V14.01,2013-10-04 10:48:00,
2013-10-04 06:49:00,63.5,63.2,30.07,SSE,158,0.0,1.0,99,0.00,,,0.01,VWS V14.01,2013-10-04 10:49:00,
2013-10-04 06:50:00,63.5,63.2,30.07,SSE,158,0.0,0.0,99,0.00,,,0.01,VWS V14.01,2013-10-04 10:50:00,
2013-10-04 06:51:00,63.5,63.2,30.07,SSE,158,0.0,0.0,99,0.00,,,0.01,VWS V14.01,2013-10-04 10:51:00,
2013-10-04 06:52:00,63.5,63.2,30.07,SW,221,1.0,1.0,99,0.00,,,0.01,VWS V14.01,2013-10-04 10:52:00,
2013-10-04 06:53:00,63.5,63.2,30.07,SW,220,0.0,1.0,99,0.00,,,0.01,VWS V14.01,2013-10-04 10:53:00,
2013-10-04 06:54:00,63.5,63.2,30.07,SW,221,0.0,0.0,99,0.00,,,0.01,VWS V14.01,2013-10-04 10:54:00,
2013-10-04 06:55:00,63.5,63.2,30.07,SW,220,0.0,0.0,99,0.00,,,0.01,VWS V14.01,2013-10-04 10:55:00,
2013-10-04 06:56:00,63.4,63.1,30.07,SW,217,0.0,0.0,99,0.00,,,0.01,VWS V14.01,2013-10-04 10:56:00,
2013-10-04 06:57:00,63.4,63.1,30.07,SW,218,0.0,0.0,99,0.00,,,0.01,VWS V14.01,2013-10-04 10:57:00,
2013-10-04 06:58:00,63.4,63.1,30.07,SW,231,0.0,0.0,99,0.00,,,0.01,VWS V14.01,2013-10-04 10:58:00,
2013-10-04 06:59:00,63.4,63.1,30.07,SW,231,0.0,0.0,99,0.00,,,0.01,VWS V14.01,2013-10-04 10:59:00,
2013-10-04 07:00:00,63.4,63.1,30.07,SW,221,0.0,0.0,99,0.00,,,0.01,VWS V14.01,2013-10-04 11:00:00,
2013-10-04 07:01:00,63.4,63.1,30.07,South,175,0.0,0.0,99,0.00,,,0.01,VWS V14.01,2013-10-04 11:01:00,
2013-10-04 07:02:00,63.4,63.1,30.07,SSE,155,0.0,0.0,99,0.00,,,0.01,VWS V14.01,2013-10-04 11:02:00,
2013-10-04 07:03:00,63.5,63.2,30.07,South,173,1.0,1.0,99,0.00,,,0.01,VWS V14.01,2013-10-04 11:03:00,
2013-10-04 07:04:00,63.5,63.2,30.07,South,190,0.0,1.0,99,0.00,,,0.01,VWS V14.01,2013-10-04 11:04:00,
2013-10-04 07:05:00,63.5,63.2,30.07,South,190,0.0,0.0,99,0.00,,,0.01,VWS V14.01,2013-10-04 11:05:00,
2013-10-04 07:06:00,63.5,63.2,30.08,South,190,0.0,0.0,99,0.00,,,0.01,VWS V14.01,2013-10-04 11:06:00,
2013-10-04 07:07:00,63.5,63.2,30.08,South,172,1.0,1.0,99,0.00,,,0.01,VWS V14.01,2013-10-04 11:07:00,
2013-10-04 07:08:00,63.5,63.2,30.08,SSW,200,0.0,1.0,99,0.00,,,0.01,VWS V14.01,2013-10-04 11:08:00,
2013-10-04 07:09:00,63.5,63.2,30.08,SSW,204,0.0,2.0,99,0.00,,,0.01,VWS V14.01,2013-10-04 11:09:00,
2013-10-04 07:10:00,63.5,63.2,30.08,SSW,195,0.0,1.0,99,0.00,,,0.01,VWS V14.01,2013-10-04 11:10:00,
2013-10-04 07:11:00,63.5,63.2,30.08,SSW,198,0.0,0.0,99,0.00,,,0.01,VWS V14.01,2013-10-04 11:11:00,
2013-10-04 07:12:00,63.5,63.2,30.08,South,190,0.0,0.0,99,0.00,,,0.01,VWS V14.01,2013-10-04 11:12:00,
2013-10-04 07:13:00,63.5,63.2,30.08,SSW,205,0.0,0.0,99,0.00,,,0.01,VWS V14.01,2013-10-04 11:13:00,
2013-10-04 07:14:00,63.5,63.2,30.08,SSW,206,0.0,0.0,99,0.00,,,0.01,VWS V14.01,2013-10-04 11:14:00,
2013-10-04 07:15:00,63.5,63.2,30.08,SSW,207,0.0,0.0,99,0.00,,,0.01,VWS V14.01,2013-10-04 11:15:00,
2013-10-04 07:16:00,63.5,63.2,30.08,WSW,250,0.0,2.0,99,0.00,,,0.01,VWS V14.01,2013-10-04 11:16:00,
2013-10-04 07:17:00,63.5,63.2,30.08,WSW,250,0.0,2.0,99,0.00,,,0.01,VWS V14.01,2013-10-04 11:17:00,
2013-10-04 07:18:00,63.5,63.2,30.08,SSW,200,0.0,1.0,99,0.00,,,0.01,VWS V14.01,2013-10-04 11:18:00,
2013-10-04 07:19:00,63.5,63.2,30.08,SSW,207,0.0,0.0,99,0.00,,,0.01,VWS V14.01,2013-10-04 11:19:00,
2013-10-04 07:20:00,63.5,63.2,30.08,SSW,197,0.0,0.0,99,0.00,,,0.01,VWS V14.01,2013-10-04 11:20:00,
2013-10-04 07:21:00,63.5,63.2,30.08,SSW,197,0.0,0.0,99,0.00,,,0.01,VWS V14.01,2013-10-04 11:21:00,
2013-10-04 07:22:00,63.5,63.2,30.08,SSW,208,1.0,1.0,99,0.00,,,0.01,VWS V14.01,2013-10-04 11:22:00,
2013-10-04 07:23:00,63.5,63.2,30.08,SE,142,0.0,1.0,99,0.00,,,0.01,VWS V14.01,2013-10-04 11:23:00,
2013-10-04 07:24:00,63.5,63.2,30.08,SSW,205,0.0,0.0,99,0.00,,,0.01,VWS V14.01,2013-10-04 11:24:00,
2013-10-04 07:25:00,63.5,63.2,30.08,WSW,248,0.0,0.0,99,0.00,,,0.01,VWS V14.01,2013-10-04 11:25:00,
2013-10-04 07:26:00,63.5,63.2,30.08,WSW,249,0.0,0.0,99,0.00,,,0.01,VWS V14.01,2013-10-04 11:26:00,
2013-10-04 07:27:00,63.5,63.2,30.08,WSW,249,0.0,1.0,99,0.00,,,0.01,VWS V14.01,2013-10-04 11:27:00,
2013-10-04 07:28:00,63.5,63.2,30.08,SSW,201,0.0,0.0,99,0.00,,,0.01,VWS V14.01,2013-10-04 11:28:00,
2013-10-04 07:29:00,63.5,63.2,30.09,SSW,201,0.0,0.0,99,0.00,,,0.01,VWS V14.01,2013-10-04 11:29:00,
2013-10-04 07:30:00,63.5,63.2,30.09,SSW,200,0.0,0.0,99,0.00,,,0.01,VWS V14.01,2013-10-04 11:30:00,
2013-10-04 07:31:00,63.5,63.2,30.09,SSW,198,0.0,0.0,99,0.00,,,0.01,VWS V14.01,2013-10-04 11:31:00,
2013-10-04 07:32:00,63.5,63.2,30.09,SSW,198,0.0,0.0,99,0.00,,,0.01,VWS V14.01,2013-10-04 11:32:00,
2013-10-04 07:34:00,63.4,63.1,30.09,SSW,198,0.0,0.0,99,0.00,,,0.01,VWS V14.01,2013-10-04 11:34:00,
2013-10-04 07:35:00,63.4,63.1,30.09,SSW,198,0.0,0.0,99,0.00,,,0.01,VWS V14.01,2013-10-04 11:35:00,
2013-10-04 07:36:00,63.4,63.1,30.09,SSW,203,0.0,0.0,99,0.00,,,0.01,VWS V14.01,2013-10-04 11:36:00,
2013-10-04 07:37:00,63.4,63.1,30.09,SSW,203,0.0,0.0,99,0.00,,,0.01,VWS V14.01,2013-10-04 11:37:00,
2013-10-04 07:38:00,63.4,63.1,30.09,SSE,159,2.0,3.0,99,0.00,,,0.01,VWS V14.01,2013-10-04 11:38:00,
2013-10-04 07:39:00,63.5,63.2,30.09,SSW,211,0.0,3.0,99,0.00,,,0.01,VWS V14.01,2013-10-04 11:39:00,
2013-10-04 07:40:00,63.5,63.2,30.09,SW,217,0.0,0.0,99,0.00,,,0.01,VWS V14.01,2013-10-04 11:40:00,
2013-10-04 07:41:00,63.5,63.2,30.09,SSW,195,0.0,0.0,99,0.00,,,0.01,VWS V14.01,2013-10-04 11:41:00,
2013-10-04 07:42:00,63.5,63.2,30.09,SSW,195,0.0,0.0,99,0.00,,,0.01,VWS V14.01,2013-10-04 11:42:00,
2013-10-04 07:43:00,63.5,63.2,30.09,West,268,0.0,0.0,99,0.00,,,0.01,VWS V14.01,2013-10-04 11:43:00,
2013-10-04 07:44:00,63.5,63.2,30.09,SSE,161,0.0,0.0,99,0.00,,,0.01,VWS V14.01,2013-10-04 11:44:00,
2013-10-04 07:45:00,63.5,63.2,30.09,SSE,162,0.0,0.0,99,0.00,,,0.01,VWS V14.01,2013-10-04 11:45:00,
2013-10-04 07:46:00,63.5,63.2,30.09,SSE,167,0.0,0.0,99,0.00,,,0.01,VWS V14.01,2013-10-04 11:46:00,
2013-10-04 07:47:00,63.5,63.2,30.09,South,186,0.0,0.0,99,0.00,,,0.01,VWS V14.01,2013-10-04 11:47:00,
2013-10-04 07:48:00,63.5,63.2,30.09,WSW,238,1.0,1.0,99,0.00,,,0.01,VWS V14.01,2013-10-04 11:48:00,
2013-10-04 07:49:00,63.5,63.2,30.09,South,184,0.0,1.0,99,0.00,,,0.01,VWS V14.01,2013-10-04 11:49:00,
2013-10-04 07:50:00,63.5,63.2,30.09,South,183,0.0,0.0,99,0.00,,,0.01,VWS V14.01,2013-10-04 11:50:00,
2013-10-04 07:51:00,63.5,63.2,30.09,SSE,166,0.0,1.0,99,0.00,,,0.01,VWS V14.01,2013-10-04 11:51:00,
2013-10-04 07:52:00,63.6,63.3,30.09,SSE,167,0.0,1.0,99,0.00,,,0.01,VWS V14.01,2013-10-04 11:52:00,
2013-10-04 07:53:00,63.6,63.3,30.09,SSE,167,0.0,0.0,99,0.00,,,0.01,VWS V14.01,2013-10-04 11:53:00,
2013-10-04 07:54:00,63.6,63.3,30.09,South,172,0.0,0.0,99,0.00,,,0.01,VWS V14.01,2013-10-04 11:54:00,
2013-10-04 07:55:00,63.6,63.3,30.09,South,172,0.0,0.0,99,0.00,,,0.01,VWS V14.01,2013-10-04 11:55:00,
2013-10-04 07:56:00,63.6,63.3,30.09,South,172,0.0,0.0,99,0.00,,,0.01,VWS V14.01,2013-10-04 11:56:00,
2013-10-04 07:57:00,63.6,63.3,30.09,SW,215,0.0,1.0,99,0.00,,,0.01,VWS V14.01,2013-10-04 11:57:00,
2013-10-04 07:58:00,63.6,63.3,30.09,SW,215,0.0,0.0,99,0.00,,,0.01,VWS V14.01,2013-10-04 11:58:00,
2013-10-04 07:59:00,63.6,63.3,30.09,SSW,207,0.0,0.0,99,0.00,,,0.01,VWS V14.01,2013-10-04 11:59:00,
2013-10-04 08:00:00,63.6,63.3,30.09,SW,222,2.0,2.0,99,0.00,,,0.01,VWS V14.01,2013-10-04 12:00:00,
2013-10-04 08:01:00,63.7,63.4,30.09,SW,231,0.0,0.0,99,0.00,,,0.01,VWS V14.01,2013-10-04 12:01:00,
2013-10-04 08:02:00,63.7,63.4,30.09,SW,231,0.0,0.0,99,0.00,,,0.01,VWS V14.01,2013-10-04 12:02:00,
2013-10-04 08:03:00,63.7,63.4,30.09,SW,231,0.0,0.0,99,0.00,,,0.01,VWS V14.01,2013-10-04 12:03:00,
2013-10-04 08:04:00,63.7,63.4,30.09,SW,231,0.0,0.0,99,0.00,,,0.01,VWS V14.01,2013-10-04 12:04:00,
2013-10-04 08:05:00,63.7,63.4,30.09,SSW,207,0.0,2.0,99,0.00,,,0.01,VWS V14.01,2013-10-04 12:05:00,
2013-10-04 08:06:00,63.7,63.4,30.09,SSW,207,0.0,0.0,99,0.00,,,0.01,VWS V14.01,2013-10-04 12:06:00,
2013-10-04 08:07:00,63.7,63.4,30.09,SSW,207,0.0,0.0,99,0.00,,,0.01,VWS V14.01,2013-10-04 12:07:00,
2013-10-04 08:08:00,63.7,63.4,30.09,SE,128,0.0,0.0,99,0.00,,,0.01,VWS V14.01,2013-10-04 12:08:00,
2013-10-04 08:09:00,63.8,63.5,30.09,South,188,0.0,0.0,99,0.00,,,0.01,VWS V14.01,2013-10-04 12:09:00,
2013-10-04 08:10:00,63.8,63.5,30.10,South,188,0.0,0.0,99,0.00,,,0.01,VWS V14.01,2013-10-04 12:10:00,
2013-10-04 08:11:00,63.8,63.5,30.10,South,170,0.0,1.0,99,0.00,,,0.01,VWS V14.01,2013-10-04 12:11:00,
2013-10-04 08:12:00,63.8,63.5,30.10,South,170,0.0,1.0,99,0.00,,,0.01,VWS V14.01,2013-10-04 12:12:00,
2013-10-04 08:13:00,63.9,63.6,30.10,South,188,0.0,0.0,99,0.00,,,0.01,VWS V14.01,2013-10-04 12:13:00,
2013-10-04 08:15:00,63.9,63.6,30.10,SW,228,0.0,1.0,99,0.00,,,0.01,VWS V14.01,2013-10-04 12:15:00,
2013-10-04 08:16:00,64.0,63.7,30.10,WSW,248,0.0,2.0,99,0.00,,,0.01,VWS V14.01,2013-10-04 12:16:00,
2013-10-04 08:18:00,64.0,63.7,30.10,SSW,211,0.0,0.0,99,0.00,,,0.01,VWS V14.01,2013-10-04 12:18:00,
2013-10-04 08:19:00,64.0,63.7,30.10,ESE,113,0.0,0.0,99,0.00,,,0.01,VWS V14.01,2013-10-04 12:19:00,
2013-10-04 08:20:00,64.0,63.7,30.10,ESE,113,0.0,0.0,99,0.00,,,0.01,VWS V14.01,2013-10-04 12:20:00,
2013-10-04 08:21:00,64.1,63.8,30.10,WSW,238,0.0,0.0,99,0.00,,,0.01,VWS V14.01,2013-10-04 12:21:00,
2013-10-04 08:22:00,64.1,63.8,30.10,SSW,207,0.0,0.0,99,0.00,,,0.01,VWS V14.01,2013-10-04 12:22:00,
2013-10-04 08:23:00,64.0,63.7,30.10,WNW,284,0.0,0.0,99,0.00,,,0.01,VWS V14.01,2013-10-04 12:23:00,
2013-10-04 08:24:00,64.1,63.8,30.10,WNW,284,0.0,0.0,99,0.00,,,0.01,VWS V14.01,2013-10-04 12:24:00,
2013-10-04 08:25:00,64.1,63.8,30.10,WNW,284,0.0,0.0,99,0.00,,,0.01,VWS V14.01,2013-10-04 12:25:00,
2013-10-04 08:26:00,64.1,63.8,30.10,WNW,283,0.0,0.0,99,0.00,,,0.01,VWS V14.01,2013-10-04 12:26:00,
2013-10-04 08:27:00,64.1,63.8,30.10,WNW,284,0.0,0.0,99,0.00,,,0.01,VWS V14.01,2013-10-04 12:27:00,
2013-10-04 08:28:00,64.1,63.8,30.10,WNW,284,0.0,0.0,99,0.00,,,0.01,VWS V14.01,2013-10-04 12:28:00,
2013-10-04 08:29:00,64.1,63.8,30.10,West,274,0.0,0.0,99,0.00,,,0.01,VWS V14.01,2013-10-04 12:29:00,
2013-10-04 08:30:00,64.2,63.9,30.10,SSW,205,0.0,3.0,99,0.00,,,0.01,VWS V14.01,2013-10-04 12:30:00,
2013-10-04 08:31:00,64.3,64.0,30.10,SW,218,0.0,0.0,99,0.00,,,0.01,VWS V14.01,2013-10-04 12:31:00,
2013-10-04 08:32:00,64.3,64.0,30.10,SW,218,0.0,0.0,99,0.00,,,0.01,VWS V14.01,2013-10-04 12:32:00,
2013-10-04 08:33:00,64.4,64.1,30.10,SW,218,0.0,0.0,99,0.00,,,0.01,VWS V14.01,2013-10-04 12:33:00,
2013-10-04 08:34:00,64.4,64.1,30.10,WSW,248,0.0,0.0,99,0.00,,,0.01,VWS V14.01,2013-10-04 12:34:00,
2013-10-04 08:35:00,64.4,64.1,30.10,WSW,248,0.0,0.0,99,0.00,,,0.01,VWS V14.01,2013-10-04 12:35:00,
2013-10-04 08:36:00,64.5,64.2,30.10,WSW,248,0.0,0.0,99,0.00,,,0.01,VWS V14.01,2013-10-04 12:36:00,
2013-10-04 08:37:00,64.5,64.2,30.10,WSW,248,0.0,0.0,99,0.00,,,0.01,VWS V14.01,2013-10-04 12:37:00,
2013-10-04 08:38:00,64.6,64.3,30.10,WSW,248,0.0,0.0,99,0.00,,,0.01,VWS V14.01,2013-10-04 12:38:00,
2013-10-04 08:39:00,64.7,64.4,30.10,WSW,248,0.0,0.0,99,0.00,,,0.01,VWS V14.01,2013-10-04 12:39:00,
2013-10-04 08:40:00,64.8,64.5,30.10,WSW,250,0.0,0.0,99,0.00,,,0.01,VWS V14.01,2013-10-04 12:40:00,
2013-10-04 08:41:00,64.9,64.6,30.10,WSW,250,0.0,0.0,99,0.00,,,0.01,VWS V14.01,2013-10-04 12:41:00,
2013-10-04 08:42:00,64.9,64.6,30.10,WSW,250,0.0,0.0,99,0.00,,,0.01,VWS V14.01,2013-10-04 12:42:00,
2013-10-04 08:43:00,65.0,64.7,30.11,WSW,248,1.0,1.0,99,0.00,,,0.01,VWS V14.01,2013-10-04 12:43:00,
2013-10-04 08:44:00,65.0,64.7,30.11,WSW,246,0.0,1.0,99,0.00,,,0.01,VWS V14.01,2013-10-04 12:44:00,
2013-10-04 08:45:00,65.0,64.7,30.10,WSW,246,0.0,0.0,99,0.00,,,0.01,VWS V14.01,2013-10-04 12:45:00,
2013-10-04 08:46:00,65.1,64.8,30.11,South,184,0.0,0.0,99,0.00,,,0.01,VWS V14.01,2013-10-04 12:46:00,
2013-10-04 08:47:00,65.1,64.8,30.11,South,184,0.0,0.0,99,0.00,,,0.01,VWS V14.01,2013-10-04 12:47:00,
2013-10-04 08:48:00,65.2,64.9,30.11,SW,236,0.0,0.0,99,0.00,,,0.01,VWS V14.01,2013-10-04 12:48:00,
2013-10-04 08:49:00,65.2,64.9,30.11,WSW,243,0.0,2.0,99,0.00,,,0.01,VWS V14.01,2013-10-04 12:49:00,
2013-10-04 08:50:00,65.2,64.9,30.11,WSW,243,0.0,0.0,99,0.00,,,0.01,VWS V14.01,2013-10-04 12:50:00,
2013-10-04 08:51:00,65.2,64.9,30.11,WSW,243,0.0,0.0,99,0.00,,,0.01,VWS V14.01,2013-10-04 12:51:00,
2013-10-04 08:52:00,65.3,65.0,30.11,WSW,243,0.0,0.0,99,0.00,,,0.01,VWS V14.01,2013-10-04 12:52:00,
2013-10-04 08:53:00,65.2,64.9,30.11,West,269,0.0,2.0,99,0.00,,,0.01,VWS V14.01,2013-10-04 12:53:00,
2013-10-04 08:54:00,65.3,65.0,30.11,West,262,0.0,0.0,99,0.00,,,0.01,VWS V14.01,2013-10-04 12:54:00,
2013-10-04 08:55:00,65.4,65.1,30.11,WSW,246,0.0,1.0,99,0.00,,,0.01,VWS V14.01,2013-10-04 12:55:00,
2013-10-04 08:56:00,65.5,65.2,30.11,SW,217,0.0,1.0,99,0.00,,,0.01,VWS V14.01,2013-10-04 12:56:00,
2013-10-04 08:57:00,65.5,65.2,30.11,SSE,152,0.0,1.0,99,0.00,,,0.01,VWS V14.01,2013-10-04 12:57:00,
2013-10-04 08:58:00,65.7,65.4,30.11,WSW,248,0.0,0.0,99,0.00,,,0.01,VWS V14.01,2013-10-04 12:58:00,
2013-10-04 08:59:00,65.7,65.4,30.11,WSW,248,0.0,1.0,99,0.00,,,0.01,VWS V14.01,2013-10-04 12:59:00,
2013-10-04 09:00:00,65.8,65.2,30.11,SW,219,0.0,0.0,98,0.00,,,0.01,VWS V14.01,2013-10-04 13:00:00,
2013-10-04 09:01:00,66.0,65.4,30.11,WNW,287,0.0,0.0,98,0.00,,,0.01,VWS V14.01,2013-10-04 13:01:00,
2013-10-04 09:02:00,66.0,65.4,30.11,WSW,245,0.0,1.0,98,0.00,,,0.01,VWS V14.01,2013-10-04 13:02:00,
2013-10-04 09:03:00,66.1,65.5,30.11,WSW,248,0.0,1.0,98,0.00,,,0.01,VWS V14.01,2013-10-04 13:03:00,
2013-10-04 09:04:00,66.1,65.5,30.11,SSW,201,0.0,1.0,98,0.00,,,0.01,VWS V14.01,2013-10-04 13:04:00,
2013-10-04 09:05:00,66.3,65.7,30.11,SW,232,0.0,2.0,98,0.00,,,0.01,VWS V14.01,2013-10-04 13:05:00,
2013-10-04 09:06:00,66.4,65.8,30.12,SW,224,0.0,0.0,98,0.00,,,0.01,VWS V14.01,2013-10-04 13:06:00,
2013-10-04 09:07:00,66.4,65.8,30.12,SW,224,0.0,0.0,98,0.00,,,0.01,VWS V14.01,2013-10-04 13:07:00,
2013-10-04 09:08:00,66.6,66.0,30.11,SSE,166,0.0,0.0,98,0.00,,,0.01,VWS V14.01,2013-10-04 13:08:00,
2013-10-04 09:09:00,66.7,66.1,30.11,SSW,204,0.0,2.0,98,0.00,,,0.01,VWS V14.01,2013-10-04 13:09:00,
2013-10-04 09:10:00,66.8,65.9,30.11,SSW,205,0.0,1.0,97,0.00,,,0.01,VWS V14.01,2013-10-04 13:10:00,
2013-10-04 09:11:00,67.0,66.1,30.11,SW,232,1.0,1.0,97,0.00,,,0.01,VWS V14.01,2013-10-04 13:11:00,
2013-10-04 09:12:00,67.0,66.1,30.11,WSW,253,0.0,1.0,97,0.00,,,0.01,VWS V14.01,2013-10-04 13:12:00,
2013-10-04 09:13:00,67.2,66.0,30.11,WSW,240,0.0,1.0,96,0.00,,,0.01,VWS V14.01,2013-10-04 13:13:00,
2013-10-04 09:14:00,67.3,66.1,30.11,SSW,208,0.0,2.0,96,0.00,,,0.01,VWS V14.01,2013-10-04 13:14:00,
2013-10-04 09:15:00,67.4,66.2,30.11,SSW,198,0.0,1.0,96,0.00,,,0.01,VWS V14.01,2013-10-04 13:15:00,
2013-10-04 09:16:00,67.6,66.4,30.11,South,190,1.0,2.0,96,0.00,,,0.01,VWS V14.01,2013-10-04 13:16:00,
2013-10-04 09:17:00,67.6,66.4,30.12,WSW,255,0.0,2.0,96,0.00,,,0.01,VWS V14.01,2013-10-04 13:17:00,
2013-10-04 09:18:00,67.8,66.3,30.12,SW,218,0.0,0.0,95,0.00,,,0.01,VWS V14.01,2013-10-04 13:18:00,
2013-10-04 09:19:00,67.9,66.4,30.11,South,186,0.0,0.0,95,0.00,,,0.01,VWS V14.01,2013-10-04 13:19:00,
2013-10-04 09:20:00,68.1,66.6,30.11,SW,236,0.0,1.0,95,0.00,,,0.01,VWS V14.01,2013-10-04 13:20:00,
2013-10-04 09:21:00,68.3,66.5,30.11,SSW,194,0.0,1.0,94,0.00,,,0.01,VWS V14.01,2013-10-04 13:21:00,
2013-10-04 09:22:00,68.3,66.5,30.11,SSW,195,0.0,1.0,94,0.00,,,0.01,VWS V14.01,2013-10-04 13:22:00,
2013-10-04 09:23:00,68.4,66.6,30.12,SSE,159,0.0,2.0,94,0.00,,,0.01,VWS V14.01,2013-10-04 13:23:00,
2013-10-04 09:24:00,68.6,66.8,30.11,SSW,210,0.0,1.0,94,0.00,,,0.01,VWS V14.01,2013-10-04 13:24:00,
2013-10-04 09:25:00,68.7,66.9,30.11,SSW,197,1.0,1.0,94,0.00,,,0.01,VWS V14.01,2013-10-04 13:25:00,
2013-10-04 09:26:00,68.9,66.8,30.12,WSW,253,2.0,3.0,93,0.00,,,0.01,VWS V14.01,2013-10-04 13:26:00,
2013-10-04 09:27:00,69.0,66.9,30.11,SW,229,0.0,3.0,93,0.00,,,0.01,VWS V14.01,2013-10-04 13:27:00,
2013-10-04 09:28:00,69.1,66.7,30.11,South,179,0.0,0.0,92,0.00,,,0.01,VWS V14.01,2013-10-04 13:28:00,
2013-10-04 09:29:00,69.2,66.8,30.11,WSW,250,1.0,3.0,92,0.00,,,0.01,VWS V14.01,2013-10-04 13:29:00,
2013-10-04 09:30:00,69.3,66.9,30.11,SW,222,0.0,1.0,92,0.00,,,0.01,VWS V14.01,2013-10-04 13:30:00,
2013-10-04 09:31:00,69.5,67.1,30.11,SSE,154,0.0,2.0,92,0.00,,,0.01,VWS V14.01,2013-10-04 13:31:00,
2013-10-04 09:32:00,69.5,66.8,30.11,SSE,154,0.0,2.0,91,0.00,,,0.01,VWS V14.01,2013-10-04 13:32:00,
2013-10-04 09:33:00,69.6,66.9,30.11,South,190,1.0,2.0,91,0.00,,,0.01,VWS V14.01,2013-10-04 13:33:00,
2013-10-04 09:34:00,69.7,67.0,30.11,WSW,238,2.0,2.0,91,0.00,,,0.01,VWS V14.01,2013-10-04 13:34:00,
2013-10-04 09:35:00,69.8,67.1,30.11,SW,222,0.0,2.0,91,0.00,,,0.01,VWS V14.01,2013-10-04 13:35:00,
2013-10-04 09:36:00,69.9,66.8,30.11,SW,232,1.0,3.0,90,0.00,,,0.01,VWS V14.01,2013-10-04 13:36:00,
2013-10-04 09:37:00,69.9,66.8,30.11,SSE,158,2.0,3.0,90,0.00,,,0.01,VWS V14.01,2013-10-04 13:37:00,
2013-10-04 09:38:00,69.9,66.8,30.11,West,267,0.0,2.0,90,0.00,,,0.01,VWS V14.01,2013-10-04 13:38:00,
2013-10-04 09:39:00,70.0,66.9,30.11,South,169,2.0,4.0,90,0.00,,,0.01,VWS V14.01,2013-10-04 13:39:00,
2013-10-04 09:40:00,70.1,67.0,30.11,South,191,0.0,3.0,90,0.00,,,0.01,VWS V14.01,2013-10-04 13:40:00,
2013-10-04 09:41:00,70.4,67.7,30.12,SE,128,1.0,2.0,91,0.00,,,0.01,VWS V14.01,2013-10-04 13:41:00,
2013-10-04 09:42:00,70.5,67.8,30.12,SSE,149,0.0,2.0,91,0.00,,,0.01,VWS V14.01,2013-10-04 13:42:00,
2013-10-04 09:43:00,70.6,67.2,30.12,West,264,0.0,2.0,89,0.00,,,0.01,VWS V14.01,2013-10-04 13:43:00,
2013-10-04 09:44:00,70.7,67.3,30.12,SW,234,0.0,1.0,89,0.00,,,0.01,VWS V14.01,2013-10-04 13:44:00,
2013-10-04 09:45:00,70.8,67.4,30.12,SE,132,0.0,0.0,89,0.00,,,0.01,VWS V14.01,2013-10-04 13:45:00,
2013-10-04 09:46:00,71.1,67.4,30.12,SE,133,2.0,3.0,88,0.00,,,0.01,VWS V14.01,2013-10-04 13:46:00,
2013-10-04 09:47:00,71.1,67.4,30.12,SW,234,2.0,3.0,88,0.00,,,0.01,VWS V14.01,2013-10-04 13:47:00,
2013-10-04 09:48:00,71.2,67.5,30.11,SW,224,1.0,5.0,88,0.00,,,0.01,VWS V14.01,2013-10-04 13:48:00,
2013-10-04 09:49:00,71.3,67.6,30.11,South,188,1.0,1.0,88,0.00,,,0.01,VWS V14.01,2013-10-04 13:49:00,
2013-10-04 09:50:00,71.4,67.3,30.12,South,174,3.0,3.0,87,0.00,,,0.01,VWS V14.01,2013-10-04 13:50:00,
2013-10-04 09:51:00,71.5,67.4,30.12,SW,223,0.0,3.0,87,0.00,,,0.01,VWS V14.01,2013-10-04 13:51:00,
2013-10-04 09:52:00,71.6,67.5,30.12,SW,223,0.0,3.0,87,0.00,,,0.01,VWS V14.01,2013-10-04 13:52:00,
2013-10-04 09:53:00,71.7,68.0,30.11,SSW,198,0.0,0.0,88,0.00,,,0.01,VWS V14.01,2013-10-04 13:53:00,
2013-10-04 09:54:00,71.7,68.0,30.12,West,259,0.0,1.0,88,0.00,,,0.01,VWS V14.01,2013-10-04 13:54:00,
2013-10-04 09:55:00,71.8,67.7,30.12,SSW,201,0.0,3.0,87,0.00,,,0.01,VWS V14.01,2013-10-04 13:55:00,
2013-10-04 09:56:00,71.9,67.8,30.12,WSW,243,1.0,2.0,87,0.00,,,0.01,VWS V14.01,2013-10-04 13:56:00,
2013-10-04 09:57:00,71.9,67.8,30.12,West,268,1.0,2.0,87,0.00,,,0.01,VWS V14.01,2013-10-04 13:57:00,
2013-10-04 09:58:00,71.9,67.5,30.12,WSW,251,0.0,2.0,86,0.00,,,0.01,VWS V14.01,2013-10-04 13:58:00,
2013-10-04 09:59:00,71.9,67.5,30.12,SSW,206,0.0,3.0,86,0.00,,,0.01,VWS V14.01,2013-10-04 13:59:00,
2013-10-04 10:00:00,71.9,67.5,30.12,ESE,117,0.0,4.0,86,0.00,,,0.01,VWS V14.01,2013-10-04 14:00:00,
2013-10-04 10:01:00,72.0,67.6,30.12,South,179,2.0,2.0,86,0.00,,,0.01,VWS V14.01,2013-10-04 14:01:00,
2013-10-04 10:02:00,72.0,67.6,30.12,SW,229,3.0,3.0,86,0.00,,,0.01,VWS V14.01,2013-10-04 14:02:00,
2013-10-04 10:03:00,72.1,67.7,30.12,SSE,155,2.0,6.0,86,0.00,,,0.01,VWS V14.01,2013-10-04 14:03:00,
2013-10-04 10:04:00,72.2,67.8,30.12,SW,223,1.0,3.0,86,0.00,,,0.01,VWS V14.01,2013-10-04 14:04:00,
2013-10-04 10:05:00,72.2,67.8,30.12,SSE,165,0.0,2.0,86,0.00,,,0.01,VWS V14.01,2013-10-04 14:05:00,
2013-10-04 10:06:00,72.4,68.0,30.12,WSW,238,1.0,1.0,86,0.00,,,0.01,VWS V14.01,2013-10-04 14:06:00,
2013-10-04 10:07:00,72.4,68.0,30.12,West,262,0.0,1.0,86,0.00,,,0.01,VWS V14.01,2013-10-04 14:07:00,
2013-10-04 10:08:00,72.4,68.0,30.12,South,169,0.0,2.0,86,0.00,,,0.01,VWS V14.01,2013-10-04 14:08:00,
2013-10-04 10:09:00,72.5,67.7,30.12,SSW,198,2.0,3.0,85,0.00,,,0.01,VWS V14.01,2013-10-04 14:09:00,
2013-10-04 10:10:00,72.6,67.8,30.12,SE,139,1.0,3.0,85,0.00,,,0.01,VWS V14.01,2013-10-04 14:10:00,
2013-10-04 10:11:00,72.7,68.3,30.12,SW,236,0.0,1.0,86,0.00,,,0.01,VWS V14.01,2013-10-04 14:11:00,
2013-10-04 10:12:00,72.7,68.3,30.12,SW,236,1.0,1.0,86,0.00,,,0.01,VWS V14.01,2013-10-04 14:12:00,
2013-10-04 10:13:00,72.7,68.3,30.12,WSW,252,0.0,1.0,86,0.00,,,0.01,VWS V14.01,2013-10-04 14:13:00,
2013-10-04 10:14:00,72.8,68.4,30.12,SW,221,0.0,1.0,86,0.00,,,0.01,VWS V14.01,2013-10-04 14:14:00,
2013-10-04 10:15:00,72.8,68.0,30.12,ESE,122,0.0,2.0,85,0.00,,,0.01,VWS V14.01,2013-10-04 14:15:00,
2013-10-04 10:16:00,72.9,68.1,30.12,SW,228,0.0,1.0,85,0.00,,,0.01,VWS V14.01,2013-10-04 14:16:00,
2013-10-04 10:17:00,72.9,68.1,30.12,SW,228,0.0,1.0,85,0.00,,,0.01,VWS V14.01,2013-10-04 14:17:00,
2013-10-04 10:18:00,73.0,68.2,30.12,WSW,238,0.0,0.0,85,0.00,,,0.01,VWS V14.01,2013-10-04 14:18:00,
2013-10-04 10:19:00,73.0,67.9,30.12,WSW,249,0.0,3.0,84,0.00,,,0.01,VWS V14.01,2013-10-04 14:19:00,
2013-10-04 10:20:00,73.0,68.2,30.12,WSW,246,2.0,2.0,85,0.00,,,0.01,VWS V14.01,2013-10-04 14:20:00,
2013-10-04 10:21:00,73.1,68.3,30.12,ESE,120,0.0,1.0,85,0.00,,,0.01,VWS V14.01,2013-10-04 14:21:00,
2013-10-04 10:22:00,73.2,68.4,30.12,SE,138,0.0,1.0,85,0.00,,,0.01,VWS V14.01,2013-10-04 14:22:00,
2013-10-04 10:23:00,73.2,68.4,30.12,SSW,207,1.0,2.0,85,0.00,,,0.01,VWS V14.01,2013-10-04 14:23:00,
2013-10-04 10:24:00,73.3,68.5,30.12,SW,222,0.0,1.0,85,0.00,,,0.01,VWS V14.01,2013-10-04 14:24:00,
2013-10-04 10:25:00,73.5,68.7,30.12,South,187,1.0,1.0,85,0.00,,,0.01,VWS V14.01,2013-10-04 14:25:00,
2013-10-04 10:26:00,73.7,68.9,30.12,SW,236,0.0,0.0,85,0.00,,,0.01,VWS V14.01,2013-10-04 14:26:00,
2013-10-04 10:27:00,73.7,68.9,30.12,SSW,194,0.0,0.0,85,0.00,,,0.01,VWS V14.01,2013-10-04 14:27:00,
2013-10-04 10:28:00,73.9,69.1,30.12,SSE,160,1.0,2.0,85,0.00,,,0.01,VWS V14.01,2013-10-04 14:28:00,
2013-10-04 10:29:00,74.0,68.9,30.12,West,270,0.0,1.0,84,0.00,,,0.01,VWS V14.01,2013-10-04 14:29:00,
2013-10-04 10:30:00,74.1,68.6,30.12,SW,229,0.0,1.0,83,0.00,,,0.01,VWS V14.01,2013-10-04 14:30:00,
2013-10-04 10:31:00,74.2,68.7,30.12,South,173,0.0,1.0,83,0.00,,,0.01,VWS V14.01,2013-10-04 14:31:00,
2013-10-04 10:32:00,74.2,68.7,30.12,South,173,0.0,1.0,83,0.00,,,0.01,VWS V14.01,2013-10-04 14:32:00,
2013-10-04 10:33:00,74.2,69.1,30.12,SW,221,0.0,4.0,84,0.00,,,0.01,VWS V14.01,2013-10-04 14:33:00,
2013-10-04 10:34:00,74.3,68.8,30.12,SSW,207,0.0,1.0,83,0.00,,,0.01,VWS V14.01,2013-10-04 14:34:00,
2013-10-04 10:35:00,74.4,68.9,30.12,WSW,257,0.0,0.0,83,0.00,,,0.01,VWS V14.01,2013-10-04 14:35:00,
2013-10-04 10:36:00,74.5,69.0,30.12,SW,226,0.0,1.0,83,0.00,,,0.01,VWS V14.01,2013-10-04 14:36:00,
2013-10-04 10:37:00,74.6,69.1,30.12,South,172,1.0,1.0,83,0.00,,,0.01,VWS V14.01,2013-10-04 14:37:00,
2013-10-04 10:38:00,74.6,68.4,30.12,WSW,252,2.0,3.0,81,0.00,,,0.01,VWS V14.01,2013-10-04 14:38:00,
2013-10-04 10:39:00,74.6,68.4,30.12,SSW,194,0.0,2.0,81,0.00,,,0.01,VWS V14.01,2013-10-04 14:39:00,
2013-10-04 10:40:00,74.7,69.2,30.12,SSE,158,4.0,5.0,83,0.00,,,0.01,VWS V14.01,2013-10-04 14:40:00,
2013-10-04 10:41:00,74.7,68.8,30.12,SW,218,3.0,3.0,82,0.00,,,0.01,VWS V14.01,2013-10-04 14:41:00,
2013-10-04 10:42:00,74.7,68.8,30.12,West,269,1.0,3.0,82,0.00,,,0.01,VWS V14.01,2013-10-04 14:42:00,
2013-10-04 10:43:00,74.8,68.9,30.12,SW,228,2.0,2.0,82,0.00,,,0.01,VWS V14.01,2013-10-04 14:43:00,
2013-10-04 10:44:00,74.8,68.9,30.12,SSW,206,4.0,7.0,82,0.00,,,0.01,VWS V14.01,2013-10-04 14:44:00,
2013-10-04 10:45:00,74.7,68.1,30.12,West,277,1.0,5.0,80,0.00,,,0.01,VWS V14.01,2013-10-04 14:45:00,
2013-10-04 10:46:00,74.6,68.4,30.12,South,184,4.0,4.0,81,0.00,,,0.01,VWS V14.01,2013-10-04 14:46:00,
2013-10-04 10:47:00,74.6,68.4,30.12,South,184,4.0,4.0,81,0.00,,,0.01,VWS V14.01,2013-10-04 14:47:00,
2013-10-04 10:48:00,74.7,68.5,30.12,South,191,5.0,5.0,81,0.00,,,0.01,VWS V14.01,2013-10-04 14:48:00,
2013-10-04 10:49:00,74.7,68.5,30.12,SW,215,2.0,5.0,81,0.00,,,0.01,VWS V14.01,2013-10-04 14:49:00,
2013-10-04 10:50:00,74.8,68.6,30.12,SW,229,0.0,4.0,81,0.00,,,0.01,VWS V14.01,2013-10-04 14:50:00,
2013-10-04 10:51:00,74.8,68.6,30.12,South,170,2.0,2.0,81,0.00,,,0.01,VWS V14.01,2013-10-04 14:51:00,
2013-10-04 10:52:00,74.8,68.6,30.12,SW,215,2.0,2.0,81,0.00,,,0.01,VWS V14.01,2013-10-04 14:52:00,
2013-10-04 10:53:00,74.9,68.7,30.11,WSW,245,0.0,2.0,81,0.00,,,0.01,VWS V14.01,2013-10-04 14:53:00,
2013-10-04 10:54:00,74.9,68.7,30.11,SSW,212,1.0,1.0,81,0.00,,,0.01,VWS V14.01,2013-10-04 14:54:00,
2013-10-04 10:55:00,74.9,68.7,30.11,SW,226,2.0,4.0,81,0.00,,,0.01,VWS V14.01,2013-10-04 14:55:00,
2013-10-04 10:56:00,75.2,69.0,30.11,WSW,253,2.0,5.0,81,0.00,,,0.01,VWS V14.01,2013-10-04 14:56:00,
2013-10-04 10:57:00,75.2,69.0,30.11,SW,214,2.0,5.0,81,0.00,,,0.01,VWS V14.01,2013-10-04 14:57:00,
2013-10-04 10:58:00,75.2,69.0,30.11,SW,218,2.0,3.0,81,0.00,,,0.01,VWS V14.01,2013-10-04 14:58:00,
2013-10-04 10:59:00,75.3,68.7,30.11,South,172,0.0,2.0,80,0.00,,,0.01,VWS V14.01,2013-10-04 14:59:00,
2013-10-04 11:00:00,75.4,68.8,30.11,SSW,212,2.0,4.0,80,0.00,,,0.01,VWS V14.01,2013-10-04 15:00:00,
2013-10-04 11:01:00,75.7,69.5,30.11,SSW,194,5.0,5.0,81,0.00,,,0.01,VWS V14.01,2013-10-04 15:01:00,
2013-10-04 11:02:00,75.7,69.5,30.11,South,189,3.0,5.0,81,0.00,,,0.01,VWS V14.01,2013-10-04 15:02:00,
2013-10-04 11:03:00,75.7,68.7,30.11,West,270,1.0,4.0,79,0.00,,,0.01,VWS V14.01,2013-10-04 15:03:00,
2013-10-04 11:04:00,75.7,68.7,30.11,SSE,150,0.0,1.0,79,0.00,,,0.01,VWS V14.01,2013-10-04 15:04:00,
2013-10-04 11:05:00,75.8,68.8,30.11,SE,139,1.0,3.0,79,0.00,,,0.01,VWS V14.01,2013-10-04 15:05:00,
2013-10-04 11:06:00,75.9,69.3,30.11,SW,217,1.0,3.0,80,0.00,,,0.01,VWS V14.01,2013-10-04 15:06:00,
2013-10-04 11:07:00,75.9,69.3,30.11,SW,217,1.0,3.0,80,0.00,,,0.01,VWS V14.01,2013-10-04 15:07:00,
2013-10-04 11:08:00,75.9,68.9,30.11,South,190,2.0,4.0,79,0.00,,,0.01,VWS V14.01,2013-10-04 15:08:00,
2013-10-04 11:09:00,76.0,69.0,30.11,South,172,2.0,3.0,79,0.00,,,0.01,VWS V14.01,2013-10-04 15:09:00,
2013-10-04 11:10:00,76.1,69.1,30.11,SW,224,1.0,4.0,79,0.00,,,0.01,VWS V14.01,2013-10-04 15:10:00,
2013-10-04 11:11:00,76.2,69.2,30.11,SW,224,0.0,2.0,79,0.00,,,0.01,VWS V14.01,2013-10-04 15:11:00,
2013-10-04 11:12:00,76.2,69.2,30.11,SW,224,0.0,2.0,79,0.00,,,0.01,VWS V14.01,2013-10-04 15:12:00,
2013-10-04 11:13:00,76.3,69.3,30.11,SSW,200,0.0,2.0,79,0.00,,,0.01,VWS V14.01,2013-10-04 15:13:00,
2013-10-04 11:14:00,76.3,68.6,30.11,SSW,204,0.0,3.0,77,0.00,,,0.01,VWS V14.01,2013-10-04 15:14:00,
2013-10-04 11:15:00,76.3,68.9,30.11,WSW,255,0.0,0.0,78,0.00,,,0.01,VWS V14.01,2013-10-04 15:15:00,
2013-10-04 11:16:00,76.4,69.0,30.11,SSW,208,0.0,1.0,78,0.00,,,0.01,VWS V14.01,2013-10-04 15:16:00,
2013-10-04 11:17:00,76.4,69.0,30.11,South,177,2.0,2.0,78,0.00,,,0.01,VWS V14.01,2013-10-04 15:17:00,
2013-10-04 11:18:00,76.5,69.1,30.11,WSW,248,0.0,2.0,78,0.00,,,0.01,VWS V14.01,2013-10-04 15:18:00,
2013-10-04 11:19:00,76.6,70.0,30.11,SW,231,0.0,1.0,80,0.00,,,0.01,VWS V14.01,2013-10-04 15:19:00,
2013-10-04 11:20:00,76.7,69.3,30.11,SSE,152,2.0,4.0,78,0.00,,,0.01,VWS V14.01,2013-10-04 15:20:00,
2013-10-04 11:21:00,76.7,68.6,30.11,SSE,166,2.0,4.0,76,0.00,,,0.01,VWS V14.01,2013-10-04 15:21:00,
2013-10-04 11:22:00,76.7,68.6,30.11,SW,214,0.0,0.0,76,0.00,,,0.01,VWS V14.01,2013-10-04 15:22:00,
2013-10-04 11:23:00,76.8,69.1,30.11,SW,218,0.0,0.0,77,0.00,,,0.01,VWS V14.01,2013-10-04 15:23:00,
2013-10-04 11:24:00,76.9,69.2,30.11,ESE,123,1.0,3.0,77,0.00,,,0.01,VWS V14.01,2013-10-04 15:24:00,
2013-10-04 11:25:00,77.0,70.0,30.11,SSW,207,1.0,2.0,79,0.00,,,0.01,VWS V14.01,2013-10-04 15:25:00,
2013-10-04 11:26:00,77.1,69.3,30.11,West,260,0.0,2.0,77,0.00,,,0.01,VWS V14.01,2013-10-04 15:26:00,
2013-10-04 11:27:00,77.3,69.9,30.11,South,173,4.0,4.0,78,0.00,,,0.01,VWS V14.01,2013-10-04 15:27:00,
2013-10-04 11:28:00,77.3,69.2,30.11,SW,219,5.0,6.0,76,0.00,,,0.01,VWS V14.01,2013-10-04 15:28:00,
2013-10-04 11:29:00,77.4,69.2,30.10,SE,135,0.0,5.0,76,0.00,,,0.01,VWS V14.01,2013-10-04 15:29:00,
2013-10-04 11:30:00,77.5,69.3,30.10,SSW,204,0.0,3.0,76,0.00,,,0.01,VWS V14.01,2013-10-04 15:30:00,
2013-10-04 11:31:00,77.5,69.3,30.10,SSW,205,3.0,3.0,76,0.00,,,0.01,VWS V14.01,2013-10-04 15:31:00,
2013-10-04 11:32:00,77.6,69.1,30.10,SE,138,0.0,4.0,75,0.00,,,0.01,VWS V14.01,2013-10-04 15:32:00,
2013-10-04 11:33:00,77.7,69.2,30.10,WSW,242,0.0,4.0,75,0.00,,,0.01,VWS V14.01,2013-10-04 15:33:00,
2013-10-04 11:34:00,77.7,69.2,30.10,SW,236,1.0,3.0,75,0.00,,,0.01,VWS V14.01,2013-10-04 15:34:00,
2013-10-04 11:35:00,77.8,69.2,30.10,SSE,149,4.0,5.0,75,0.00,,,0.01,VWS V14.01,2013-10-04 15:35:00,
2013-10-04 11:36:00,77.8,68.9,30.10,SSE,148,1.0,5.0,74,0.00,,,0.01,VWS V14.01,2013-10-04 15:36:00,
2013-10-04 11:37:00,77.9,69.3,30.10,SW,218,4.0,4.0,75,0.00,,,0.01,VWS V14.01,2013-10-04 15:37:00,
2013-10-04 11:38:00,77.9,69.3,30.10,South,191,3.0,4.0,75,0.00,,,0.01,VWS V14.01,2013-10-04 15:38:00,
2013-10-04 11:39:00,77.9,69.7,30.10,West,262,2.0,3.0,76,0.00,,,0.01,VWS V14.01,2013-10-04 15:39:00,
2013-10-04 11:40:00,77.9,69.3,30.10,SW,215,2.0,3.0,75,0.00,,,0.01,VWS V14.01,2013-10-04 15:40:00,
2013-10-04 11:41:00,77.9,69.3,30.10,SW,232,1.0,2.0,75,0.00,,,0.01,VWS V14.01,2013-10-04 15:41:00,
2013-10-04 11:42:00,77.9,69.3,30.10,WSW,246,2.0,3.0,75,0.00,,,0.01,VWS V14.01,2013-10-04 15:42:00,
2013-10-04 11:43:00,78.0,69.8,30.10,West,274,1.0,3.0,76,0.00,,,0.01,VWS V14.01,2013-10-04 15:43:00,
2013-10-04 11:44:00,78.0,69.4,30.10,SW,218,3.0,4.0,75,0.00,,,0.01,VWS V14.01,2013-10-04 15:44:00,
2013-10-04 11:45:00,78.0,69.1,30.10,WSW,252,0.0,3.0,74,0.00,,,0.01,VWS V14.01,2013-10-04 15:45:00,
2013-10-04 11:46:00,78.1,69.1,30.10,SSW,212,4.0,5.0,74,0.00,,,0.01,VWS V14.01,2013-10-04 15:46:00,
2013-10-04 11:47:00,78.1,69.5,30.10,SSE,149,2.0,6.0,75,0.00,,,0.01,VWS V14.01,2013-10-04 15:47:00,
2013-10-04 11:48:00,78.1,69.1,30.10,South,184,0.0,6.0,74,0.00,,,0.01,VWS V14.01,2013-10-04 15:48:00,
2013-10-04 11:49:00,78.2,69.2,30.10,West,281,6.0,7.0,74,0.00,,,0.01,VWS V14.01,2013-10-04 15:49:00,
2013-10-04 11:50:00,78.1,68.8,30.10,WSW,252,1.0,6.0,73,0.00,,,0.01,VWS V14.01,2013-10-04 15:50:00,
2013-10-04 11:51:00,78.1,68.8,30.10,ESE,117,2.0,3.0,73,0.00,,,0.01,VWS V14.01,2013-10-04 15:51:00,
2013-10-04 11:52:00,78.1,69.1,30.10,SW,222,2.0,2.0,74,0.00,,,0.01,VWS V14.01,2013-10-04 15:52:00,
2013-10-04 11:53:00,78.2,68.8,30.10,SSW,193,1.0,3.0,73,0.00,,,0.01,VWS V14.01,2013-10-04 15:53:00,
2013-10-04 11:54:00,78.3,68.9,30.10,SW,214,5.0,6.0,73,0.00,,,0.01,VWS V14.01,2013-10-04 15:54:00,
2013-10-04 11:55:00,78.4,69.4,30.10,SSE,162,1.0,5.0,74,0.00,,,0.01,VWS V14.01,2013-10-04 15:55:00,
2013-10-04 11:56:00,78.6,70.0,30.10,SW,228,4.0,4.0,75,0.00,,,0.01,VWS V14.01,2013-10-04 15:56:00,
2013-10-04 11:57:00,78.7,69.3,30.10,West,269,2.0,6.0,73,0.00,,,0.01,VWS V14.01,2013-10-04 15:57:00,
2013-10-04 11:58:00,78.7,69.3,30.10,SW,228,0.0,6.0,73,0.00,,,0.01,VWS V14.01,2013-10-04 15:58:00,
2013-10-04 11:59:00,78.7,68.9,30.10,WSW,250,2.0,3.0,72,0.00,,,0.01,VWS V14.01,2013-10-04 15:59:00,
2013-10-04 12:00:00,78.7,69.3,30.10,WNW,288,1.0,3.0,73,0.00,,,0.01,VWS V14.01,2013-10-04 16:00:00,
2013-10-04 12:01:00,78.7,69.3,30.10,WSW,257,1.0,3.0,73,0.00,,,0.01,VWS V14.01,2013-10-04 16:01:00,
2013-10-04 12:02:00,78.6,69.2,30.11,SSW,211,0.0,1.0,73,0.00,,,0.01,VWS V14.01,2013-10-04 16:02:00,
2013-10-04 12:03:00,78.6,69.2,30.11,SSW,212,0.0,1.0,73,0.00,,,0.01,VWS V14.01,2013-10-04 16:03:00,
2013-10-04 12:04:00,78.6,69.2,30.10,WSW,248,0.0,2.0,73,0.00,,,0.01,VWS V14.01,2013-10-04 16:04:00,
2013-10-04 12:05:00,78.6,69.6,30.11,West,262,0.0,0.0,74,0.00,,,0.01,VWS V14.01,2013-10-04 16:05:00,
2013-10-04 12:06:00,78.7,69.7,30.10,West,281,0.0,1.0,74,0.00,,,0.01,VWS V14.01,2013-10-04 16:06:00,
2013-10-04 12:07:00,78.8,69.4,30.10,WSW,248,1.0,1.0,73,0.00,,,0.01,VWS V14.01,2013-10-04 16:07:00,
2013-10-04 12:08:00,78.9,69.5,30.10,WSW,240,0.0,2.0,73,0.00,,,0.01,VWS V14.01,2013-10-04 16:08:00,
2013-10-04 12:09:00,79.0,69.6,30.10,WSW,247,0.0,4.0,73,0.00,,,0.01,VWS V14.01,2013-10-04 16:09:00,
2013-10-04 12:10:00,79.0,69.2,30.10,SSW,207,0.0,2.0,72,0.00,,,0.01,VWS V14.01,2013-10-04 16:10:00,
2013-10-04 12:11:00,79.0,69.2,30.10,WSW,246,1.0,4.0,72,0.00,,,0.01,VWS V14.01,2013-10-04 16:11:00,
2013-10-04 12:12:00,79.0,69.2,30.10,SW,231,4.0,5.0,72,0.00,,,0.01,VWS V14.01,2013-10-04 16:12:00,
2013-10-04 12:13:00,79.0,68.8,30.10,West,260,2.0,6.0,71,0.00,,,0.01,VWS V14.01,2013-10-04 16:13:00,
2013-10-04 12:14:00,78.8,68.6,30.10,WNW,289,1.0,5.0,71,0.00,,,0.01,VWS V14.01,2013-10-04 16:14:00,
2013-10-04 12:15:00,78.7,68.5,30.10,WSW,252,2.0,3.0,71,0.00,,,0.01,VWS V14.01,2013-10-04 16:15:00,
2013-10-04 12:16:00,78.6,68.8,30.10,South,186,3.0,3.0,72,0.00,,,0.01,VWS V14.01,2013-10-04 16:16:00,
2013-10-04 12:17:00,78.6,69.2,30.10,SSW,200,3.0,3.0,73,0.00,,,0.01,VWS V14.01,2013-10-04 16:17:00,
2013-10-04 12:18:00,78.6,69.2,30.10,West,268,5.0,6.0,73,0.00,,,0.01,VWS V14.01,2013-10-04 16:18:00,
2013-10-04 12:19:00,78.7,69.3,30.10,WSW,243,1.0,5.0,73,0.00,,,0.01,VWS V14.01,2013-10-04 16:19:00,
2013-10-04 12:20:00,78.8,69.8,30.10,SW,218,3.0,3.0,74,0.00,,,0.01,VWS V14.01,2013-10-04 16:20:00,
2013-10-04 12:21:00,78.9,70.3,30.10,SSW,208,0.0,3.0,75,0.00,,,0.01,VWS V14.01,2013-10-04 16:21:00,
2013-10-04 12:22:00,79.1,69.7,30.10,WSW,245,1.0,4.0,73,0.00,,,0.01,VWS V14.01,2013-10-04 16:22:00,
2013-10-04 12:23:00,79.1,69.3,30.10,West,260,2.0,4.0,72,0.00,,,0.01,VWS V14.01,2013-10-04 16:23:00,
2013-10-04 12:24:00,79.2,69.8,30.10,WNW,288,1.0,4.0,73,0.00,,,0.01,VWS V14.01,2013-10-04 16:24:00,
2013-10-04 12:25:00,79.2,69.0,30.10,WSW,239,3.0,3.0,71,0.00,,,0.01,VWS V14.01,2013-10-04 16:25:00,
2013-10-04 12:26:00,79.2,69.4,30.10,West,280,2.0,5.0,72,0.00,,,0.01,VWS V14.01,2013-10-04 16:26:00,
2013-10-04 12:27:00,79.2,68.6,30.10,South,170,0.0,1.0,70,0.00,,,0.01,VWS V14.01,2013-10-04 16:27:00,
2013-10-04 12:28:00,79.2,69.4,30.10,SW,226,4.0,4.0,72,0.00,,,0.01,VWS V14.01,2013-10-04 16:28:00,
2013-10-04 12:29:00,79.3,69.1,30.10,West,278,3.0,4.0,71,0.00,,,0.01,VWS V14.01,2013-10-04 16:29:00,
2013-10-04 12:30:00,79.3,69.1,30.10,SW,232,2.0,3.0,71,0.00,,,0.01,VWS V14.01,2013-10-04 16:30:00,
2013-10-04 12:31:00,79.3,68.7,30.10,West,281,6.0,6.0,70,0.00,,,0.01,VWS V14.01,2013-10-04 16:31:00,
2013-10-04 12:32:00,79.1,68.5,30.10,West,272,2.0,2.0,70,0.00,,,0.01,VWS V14.01,2013-10-04 16:32:00,
2013-10-04 12:33:00,79.1,68.5,30.10,WSW,248,3.0,3.0,70,0.00,,,0.01,VWS V14.01,2013-10-04 16:33:00,
2013-10-04 12:34:00,79.1,69.3,30.10,WSW,249,3.0,4.0,72,0.00,,,0.01,VWS V14.01,2013-10-04 16:34:00,
2013-10-04 12:35:00,79.0,68.4,30.10,WSW,245,2.0,7.0,70,0.00,,,0.01,VWS V14.01,2013-10-04 16:35:00,
2013-10-04 12:36:00,79.0,68.8,30.10,SSW,210,4.0,8.0,71,0.00,,,0.01,VWS V14.01,2013-10-04 16:36:00,
2013-10-04 12:37:00,79.0,68.4,30.10,WSW,245,7.0,7.0,70,0.00,,,0.01,VWS V14.01,2013-10-04 16:37:00,
2013-10-04 12:38:00,79.0,68.4,30.10,East,96,2.0,7.0,70,0.00,,,0.01,VWS V14.01,2013-10-04 16:38:00,
2013-10-04 12:39:00,79.0,69.2,30.10,WSW,245,4.0,4.0,72,0.00,,,0.01,VWS V14.01,2013-10-04 16:39:00,
2013-10-04 12:40:00,79.0,69.2,30.10,West,262,6.0,6.0,72,0.00,,,0.01,VWS V14.01,2013-10-04 16:40:00,
2013-10-04 12:41:00,79.0,68.4,30.10,West,267,5.0,6.0,70,0.00,,,0.01,VWS V14.01,2013-10-04 16:41:00,
2013-10-04 12:42:00,79.0,68.8,30.10,East,87,0.0,2.0,71,0.00,,,0.01,VWS V14.01,2013-10-04 16:42:00,
2013-10-04 12:43:00,79.0,68.8,30.10,SSW,197,3.0,3.0,71,0.00,,,0.01,VWS V14.01,2013-10-04 16:43:00,
2013-10-04 12:44:00,79.1,68.9,30.10,West,272,2.0,4.0,71,0.00,,,0.01,VWS V14.01,2013-10-04 16:44:00,
2013-10-04 12:45:00,79.2,69.4,30.10,WSW,255,3.0,3.0,72,0.00,,,0.01,VWS V14.01,2013-10-04 16:45:00,
2013-10-04 12:46:00,79.3,69.1,30.10,WSW,240,8.0,8.0,71,0.00,,,0.01,VWS V14.01,2013-10-04 16:46:00,
2013-10-04 12:47:00,79.4,68.8,30.10,East,81,4.0,4.0,70,0.00,,,0.01,VWS V14.01,2013-10-04 16:47:00,
2013-10-04 12:48:00,79.5,69.3,30.10,SE,145,4.0,4.0,71,0.00,,,0.01,VWS V14.01,2013-10-04 16:48:00,
2013-10-04 12:49:00,79.6,69.0,30.10,SSW,195,2.0,6.0,70,0.00,,,0.01,VWS V14.01,2013-10-04 16:49:00,
2013-10-04 12:51:00,79.9,69.2,30.10,SSE,149,4.0,7.0,70,0.00,,,0.01,VWS V14.01,2013-10-04 16:51:00,
2013-10-04 12:52:00,80.0,68.9,30.10,West,266,2.0,4.0,69,0.00,,,0.01,VWS V14.01,2013-10-04 16:52:00,
2013-10-04 12:53:00,80.1,69.0,30.10,SSW,207,2.0,4.0,69,0.00,,,0.01,VWS V14.01,2013-10-04 16:53:00,
2013-10-04 12:54:00,80.2,69.1,30.10,SSE,158,4.0,5.0,69,0.00,,,0.01,VWS V14.01,2013-10-04 16:54:00,
2013-10-04 12:55:00,80.3,69.6,30.10,SSW,210,4.0,6.0,70,0.00,,,0.01,VWS V14.01,2013-10-04 16:55:00,
2013-10-04 12:56:00,80.4,68.9,30.10,WSW,256,2.0,4.0,68,0.00,,,0.01,VWS V14.01,2013-10-04 16:56:00,
2013-10-04 12:57:00,80.6,69.1,30.10,WSW,252,3.0,3.0,68,0.00,,,0.01,VWS V14.01,2013-10-04 16:57:00,
2013-10-04 12:58:00,80.7,69.2,30.10,SW,217,2.0,3.0,68,0.00,,,0.01,VWS V14.01,2013-10-04 16:58:00,
2013-10-04 12:59:00,80.7,68.7,30.10,SE,131,2.0,9.0,67,0.00,,,0.01,VWS V14.01,2013-10-04 16:59:00,
2013-10-04 13:00:00,80.7,68.7,30.10,South,179,3.0,4.0,67,0.00,,,0.01,VWS V14.01,2013-10-04 17:00:00,
2013-10-04 13:01:00,80.7,69.2,30.09,SW,224,3.0,4.0,68,0.00,,,0.01,VWS V14.01,2013-10-04 17:01:00,
2013-10-04 13:02:00,80.9,69.4,30.09,SSE,167,2.0,4.0,68,0.00,,,0.01,VWS V14.01,2013-10-04 17:02:00,
2013-10-04 13:03:00,81.0,69.4,30.09,SW,215,0.0,4.0,68,0.00,,,0.01,VWS V14.01,2013-10-04 17:03:00,
2013-10-04 13:04:00,81.2,69.6,30.09,SSW,201,3.0,3.0,68,0.00,,,0.01,VWS V14.01,2013-10-04 17:04:00,
2013-10-04 13:05:00,81.3,68.9,30.09,SSE,160,2.0,5.0,66,0.00,,,0.01,VWS V14.01,2013-10-04 17:05:00,
2013-10-04 13:06:00,81.3,68.9,30.09,SW,229,2.0,2.0,66,0.00,,,0.01,VWS V14.01,2013-10-04 17:06:00,
2013-10-04 13:07:00,81.1,69.1,30.09,SW,232,0.0,1.0,67,0.00,,,0.01,VWS V14.01,2013-10-04 17:07:00,
2013-10-04 13:08:00,81.1,68.7,30.09,South,184,1.0,1.0,66,0.00,,,0.01,VWS V14.01,2013-10-04 17:08:00,
2013-10-04 13:09:00,81.1,68.7,30.09,SSW,201,2.0,3.0,66,0.00,,,0.01,VWS V14.01,2013-10-04 17:09:00,
2013-10-04 13:10:00,81.0,69.0,30.09,WNW,288,0.0,2.0,67,0.00,,,0.01,VWS V14.01,2013-10-04 17:10:00,
2013-10-04 13:11:00,81.0,69.4,30.09,South,173,4.0,4.0,68,0.00,,,0.01,VWS V14.01,2013-10-04 17:11:00,
2013-10-04 13:12:00,81.0,68.6,30.09,South,177,3.0,4.0,66,0.00,,,0.01,VWS V14.01,2013-10-04 17:12:00,
2013-10-04 13:13:00,81.1,68.7,30.09,SSW,197,3.0,5.0,66,0.00,,,0.01,VWS V14.01,2013-10-04 17:13:00,
2013-10-04 13:14:00,81.1,69.6,30.09,SSW,198,4.0,4.0,68,0.00,,,0.01,VWS V14.01,2013-10-04 17:14:00,
2013-10-04 13:15:00,81.2,69.6,30.09,South,177,3.0,4.0,68,0.00,,,0.01,VWS V14.01,2013-10-04 17:15:00,
2013-10-04 13:16:00,81.3,69.7,30.09,SSE,167,1.0,3.0,68,0.00,,,0.01,VWS V14.01,2013-10-04 17:16:00,
2013-10-04 13:17:00,81.5,69.5,30.09,WSW,243,1.0,2.0,67,0.00,,,0.01,VWS V14.01,2013-10-04 17:17:00,
2013-10-04 13:18:00,81.5,69.5,30.09,SSW,200,1.0,2.0,67,0.00,,,0.01,VWS V14.01,2013-10-04 17:18:00,
2013-10-04 13:19:00,81.6,69.6,30.09,SSW,212,3.0,3.0,67,0.00,,,0.01,VWS V14.01,2013-10-04 17:19:00,
2013-10-04 13:20:00,81.7,68.8,30.09,SSW,198,3.0,5.0,65,0.00,,,0.01,VWS V14.01,2013-10-04 17:20:00,
2013-10-04 13:21:00,81.9,69.0,30.09,SW,224,1.0,3.0,65,0.00,,,0.01,VWS V14.01,2013-10-04 17:21:00,
2013-10-04 13:22:00,82.0,69.1,30.09,South,179,5.0,6.0,65,0.00,,,0.01,VWS V14.01,2013-10-04 17:22:00,
2013-10-04 13:23:00,82.0,69.1,30.09,SSE,160,8.0,9.0,65,0.00,,,0.01,VWS V14.01,2013-10-04 17:23:00,
2013-10-04 13:24:00,82.0,68.2,30.09,South,174,3.0,8.0,63,0.00,,,0.01,VWS V14.01,2013-10-04 17:24:00,
2013-10-04 13:25:00,82.0,68.2,30.09,South,181,5.0,6.0,63,0.00,,,0.01,VWS V14.01,2013-10-04 17:25:00,
2013-10-04 13:26:00,82.1,68.3,30.09,SE,124,2.0,5.0,63,0.00,,,0.01,VWS V14.01,2013-10-04 17:26:00,
2013-10-04 13:27:00,82.1,68.3,30.09,SSW,212,0.0,4.0,63,0.00,,,0.01,VWS V14.01,2013-10-04 17:27:00,
2013-10-04 13:28:00,82.1,68.7,30.09,East,86,0.0,4.0,64,0.00,,,0.01,VWS V14.01,2013-10-04 17:28:00,
2013-10-04 13:29:00,82.1,68.7,30.09,SSE,158,5.0,6.0,64,0.00,,,0.01,VWS V14.01,2013-10-04 17:29:00,
2013-10-04 13:30:00,82.2,67.9,30.08,SSE,158,3.0,5.0,62,0.00,,,0.01,VWS V14.01,2013-10-04 17:30:00,
2013-10-04 13:31:00,82.2,68.8,30.08,SE,128,4.0,7.0,64,0.00,,,0.01,VWS V14.01,2013-10-04 17:31:00,
2013-10-04 13:32:00,82.2,68.8,30.08,SE,143,6.0,6.0,64,0.00,,,0.01,VWS V14.01,2013-10-04 17:32:00,
2013-10-04 13:33:00,82.3,69.4,30.08,WSW,252,4.0,6.0,65,0.00,,,0.01,VWS V14.01,2013-10-04 17:33:00,
2013-10-04 13:34:00,82.4,69.0,30.08,SW,223,3.0,5.0,64,0.00,,,0.01,VWS V14.01,2013-10-04 17:34:00,
2013-10-04 13:35:00,82.5,69.6,30.08,SE,145,2.0,3.0,65,0.00,,,0.01,VWS V14.01,2013-10-04 17:35:00,
2013-10-04 13:36:00,82.7,70.2,30.08,WSW,245,1.0,5.0,66,0.00,,,0.01,VWS V14.01,2013-10-04 17:36:00,
2013-10-04 13:37:00,82.8,69.4,30.08,SSW,200,3.0,4.0,64,0.00,,,0.01,VWS V14.01,2013-10-04 17:37:00,
2013-10-04 13:38:00,82.9,69.5,30.08,WSW,243,1.0,4.0,64,0.00,,,0.01,VWS V14.01,2013-10-04 17:38:00,
2013-10-04 13:39:00,83.0,69.6,30.08,WSW,257,1.0,3.0,64,0.00,,,0.01,VWS V14.01,2013-10-04 17:39:00,
2013-10-04 13:40:00,83.0,69.1,30.08,WSW,255,3.0,5.0,63,0.00,,,0.01,VWS V14.01,2013-10-04 17:40:00,
2013-10-04 13:41:00,83.0,68.7,30.08,WSW,249,1.0,6.0,62,0.00,,,0.01,VWS V14.01,2013-10-04 17:41:00,
2013-10-04 13:42:00,82.8,69.4,30.08,South,170,2.0,4.0,64,0.00,,,0.01,VWS V14.01,2013-10-04 17:42:00,
2013-10-04 13:43:00,82.8,68.5,30.08,SE,125,2.0,3.0,62,0.00,,,0.01,VWS V14.01,2013-10-04 17:43:00,
2013-10-04 13:44:00,82.7,68.8,30.08,SSE,148,2.0,3.0,63,0.00,,,0.01,VWS V14.01,2013-10-04 17:44:00,
2013-10-04 13:45:00,82.6,68.3,30.08,SSW,195,0.0,5.0,62,0.00,,,0.01,VWS V14.01,2013-10-04 17:45:00,
2013-10-04 13:46:00,82.6,68.7,30.08,WSW,255,0.0,2.0,63,0.00,,,0.01,VWS V14.01,2013-10-04 17:46:00,
2013-10-04 13:47:00,82.6,70.1,30.08,SSW,208,1.0,4.0,66,0.00,,,0.01,VWS V14.01,2013-10-04 17:47:00,
2013-10-04 13:48:00,82.7,68.8,30.08,South,181,3.0,6.0,63,0.00,,,0.01,VWS V14.01,2013-10-04 17:48:00,
2013-10-04 13:49:00,82.7,69.8,30.08,SE,143,2.0,5.0,65,0.00,,,0.01,VWS V14.01,2013-10-04 17:49:00,
2013-10-04 13:50:00,82.8,69.4,30.08,SSW,211,5.0,6.0,64,0.00,,,0.01,VWS V14.01,2013-10-04 17:50:00,
2013-10-04 13:51:00,82.9,69.0,30.08,WSW,239,3.0,7.0,63,0.00,,,0.01,VWS V14.01,2013-10-04 17:51:00,
2013-10-04 13:52:00,82.9,69.0,30.08,SSW,208,3.0,6.0,63,0.00,,,0.01,VWS V14.01,2013-10-04 17:52:00,
2013-10-04 13:53:00,83.0,68.7,30.08,SSE,160,6.0,6.0,62,0.00,,,0.01,VWS V14.01,2013-10-04 17:53:00,
2013-10-04 13:54:00,83.0,69.1,30.08,SSW,204,2.0,6.0,63,0.00,,,0.01,VWS V14.01,2013-10-04 17:54:00,
2013-10-04 13:55:00,83.0,68.7,30.08,SSW,205,2.0,4.0,62,0.00,,,0.01,VWS V14.01,2013-10-04 17:55:00,
2013-10-04 13:56:00,83.0,68.7,30.08,WNW,284,2.0,3.0,62,0.00,,,0.01,VWS V14.01,2013-10-04 17:56:00,
2013-10-04 13:57:00,83.0,68.2,30.08,West,269,4.0,7.0,61,0.00,,,0.01,VWS V14.01,2013-10-04 17:57:00,
2013-10-04 13:58:00,82.8,68.0,30.08,WSW,257,5.0,5.0,61,0.00,,,0.01,VWS V14.01,2013-10-04 17:58:00,
2013-10-04 13:59:00,82.6,68.3,30.08,WSW,238,1.0,5.0,62,0.00,,,0.01,VWS V14.01,2013-10-04 17:59:00,
2013-10-04 14:00:00,82.5,68.2,30.08,WSW,245,3.0,5.0,62,0.00,,,0.01,VWS V14.01,2013-10-04 18:00:00,
2013-10-04 14:01:00,82.4,68.1,30.08,West,277,4.0,5.0,62,0.00,,,0.01,VWS V14.01,2013-10-04 18:01:00,
2013-10-04 14:02:00,82.2,68.4,30.08,SW,218,3.0,4.0,63,0.00,,,0.01,VWS V14.01,2013-10-04 18:02:00,
2013-10-04 14:03:00,82.1,68.3,30.08,WSW,243,0.0,4.0,63,0.00,,,0.01,VWS V14.01,2013-10-04 18:03:00,
2013-10-04 14:04:00,82.1,67.8,30.07,WSW,239,0.0,1.0,62,0.00,,,0.01,VWS V14.01,2013-10-04 18:04:00,
2013-10-04 14:05:00,82.1,68.7,30.08,West,270,3.0,4.0,64,0.00,,,0.01,VWS V14.01,2013-10-04 18:05:00,
2013-10-04 14:06:00,82.1,68.3,30.07,West,278,0.0,3.0,63,0.00,,,0.01,VWS V14.01,2013-10-04 18:06:00,
2013-10-04 14:07:00,82.1,68.3,30.07,WNW,285,3.0,3.0,63,0.00,,,0.01,VWS V14.01,2013-10-04 18:07:00,
2013-10-04 14:08:00,82.1,67.8,30.07,WSW,255,2.0,3.0,62,0.00,,,0.01,VWS V14.01,2013-10-04 18:08:00,
2013-10-04 14:09:00,82.1,67.8,30.07,WNW,293,4.0,4.0,62,0.00,,,0.01,VWS V14.01,2013-10-04 18:09:00,
2013-10-04 14:10:00,82.1,68.3,30.07,WSW,242,0.0,5.0,63,0.00,,,0.01,VWS V14.01,2013-10-04 18:10:00,
2013-10-04 14:11:00,82.2,69.7,30.07,SSW,207,1.0,1.0,66,0.00,,,0.01,VWS V14.01,2013-10-04 18:11:00,
2013-10-04 14:12:00,82.5,68.6,30.07,WSW,250,2.0,6.0,63,0.00,,,0.01,VWS V14.01,2013-10-04 18:12:00,
2013-10-04 14:13:00,82.7,68.8,30.07,SW,217,1.0,3.0,63,0.00,,,0.01,VWS V14.01,2013-10-04 18:13:00,
2013-10-04 14:14:00,82.9,68.1,30.07,SSE,156,2.0,7.0,61,0.00,,,0.01,VWS V14.01,2013-10-04 18:14:00,
2013-10-04 14:15:00,83.0,68.2,30.07,SE,129,5.0,5.0,61,0.00,,,0.01,VWS V14.01,2013-10-04 18:15:00,
2013-10-04 14:16:00,83.2,68.8,30.07,SSE,162,1.0,5.0,62,0.00,,,0.01,VWS V14.01,2013-10-04 18:16:00,
2013-10-04 14:17:00,83.4,68.6,30.07,SSW,205,0.0,3.0,61,0.00,,,0.01,VWS V14.01,2013-10-04 18:17:00,
2013-10-04 14:18:00,83.5,69.1,30.07,SSW,198,2.0,3.0,62,0.00,,,0.01,VWS V14.01,2013-10-04 18:18:00,
2013-10-04 14:19:00,83.8,69.9,30.07,WSW,256,0.0,3.0,63,0.00,,,0.01,VWS V14.01,2013-10-04 18:19:00,
2013-10-04 14:20:00,84.0,70.1,30.07,West,274,1.0,1.0,63,0.00,,,0.01,VWS V14.01,2013-10-04 18:20:00,
2013-10-04 14:21:00,84.1,69.7,30.07,SSW,208,2.0,2.0,62,0.00,,,0.01,VWS V14.01,2013-10-04 18:21:00,
2013-10-04 14:22:00,84.3,68.9,30.07,West,281,1.0,1.0,60,0.00,,,0.01,VWS V14.01,2013-10-04 18:22:00,
2013-10-04 14:23:00,84.2,68.8,30.07,West,259,1.0,1.0,60,0.00,,,0.01,VWS V14.01,2013-10-04 18:23:00,
2013-10-04 14:24:00,84.2,68.3,30.07,West,259,2.0,3.0,59,0.00,,,0.01,VWS V14.01,2013-10-04 18:24:00,
2013-10-04 14:25:00,84.0,68.6,30.07,WSW,240,0.0,3.0,60,0.00,,,0.01,VWS V14.01,2013-10-04 18:25:00,
2013-10-04 14:26:00,83.8,68.4,30.07,WSW,255,0.0,1.0,60,0.00,,,0.01,VWS V14.01,2013-10-04 18:26:00,
2013-10-04 14:27:00,83.8,69.4,30.07,ENE,78,0.0,0.0,62,0.00,,,0.01,VWS V14.01,2013-10-04 18:27:00,
2013-10-04 14:28:00,83.8,69.4,30.07,South,181,0.0,0.0,62,0.00,,,0.01,VWS V14.01,2013-10-04 18:28:00,
2013-10-04 14:29:00,83.9,69.5,30.07,SSE,152,0.0,2.0,62,0.00,,,0.01,VWS V14.01,2013-10-04 18:29:00,
2013-10-04 14:30:00,84.0,69.6,30.06,SE,134,2.0,7.0,62,0.00,,,0.01,VWS V14.01,2013-10-04 18:30:00,
2013-10-04 14:31:00,84.2,68.8,30.06,SSW,204,2.0,6.0,60,0.00,,,0.01,VWS V14.01,2013-10-04 18:31:00,
2013-10-04 14:32:00,84.3,68.4,30.06,SSE,162,2.0,4.0,59,0.00,,,0.01,VWS V14.01,2013-10-04 18:32:00,
2013-10-04 14:33:00,84.3,68.4,30.06,SE,133,0.0,4.0,59,0.00,,,0.01,VWS V14.01,2013-10-04 18:33:00,
2013-10-04 14:34:00,84.4,69.5,30.06,SE,142,3.0,5.0,61,0.00,,,0.01,VWS V14.01,2013-10-04 18:34:00,
2013-10-04 14:35:00,84.4,69.5,30.06,South,176,1.0,4.0,61,0.00,,,0.01,VWS V14.01,2013-10-04 18:35:00,
2013-10-04 14:36:00,84.3,68.9,30.06,SSW,212,2.0,4.0,60,0.00,,,0.01,VWS V14.01,2013-10-04 18:36:00,
2013-10-04 14:37:00,84.4,68.5,30.06,South,178,5.0,7.0,59,0.00,,,0.01,VWS V14.01,2013-10-04 18:37:00,
2013-10-04 14:38:00,84.4,68.0,30.06,SSW,208,0.0,7.0,58,0.00,,,0.01,VWS V14.01,2013-10-04 18:38:00,
2013-10-04 14:39:00,84.4,68.5,30.06,SSE,155,2.0,3.0,59,0.00,,,0.01,VWS V14.01,2013-10-04 18:39:00,
2013-10-04 14:40:00,84.4,68.0,30.06,South,184,4.0,4.0,58,0.00,,,0.01,VWS V14.01,2013-10-04 18:40:00,
2013-10-04 14:41:00,84.4,68.0,30.06,SSW,197,2.0,4.0,58,0.00,,,0.01,VWS V14.01,2013-10-04 18:41:00,
2013-10-04 14:42:00,84.2,67.8,30.06,SSE,156,2.0,3.0,58,0.00,,,0.01,VWS V14.01,2013-10-04 18:42:00,
2013-10-04 14:43:00,84.1,67.7,30.06,SSW,198,1.0,3.0,58,0.00,,,0.01,VWS V14.01,2013-10-04 18:43:00,
2013-10-04 14:44:00,83.9,67.6,30.06,SW,214,0.0,3.0,58,0.00,,,0.01,VWS V14.01,2013-10-04 18:44:00,
2013-10-04 14:45:00,83.8,67.5,30.06,WSW,253,0.0,3.0,58,0.00,,,0.01,VWS V14.01,2013-10-04 18:45:00,
2013-10-04 14:46:00,83.6,67.3,30.06,West,267,0.0,2.0,58,0.00,,,0.01,VWS V14.01,2013-10-04 18:46:00,
2013-10-04 14:47:00,83.4,68.1,30.06,West,266,2.0,2.0,60,0.00,,,0.01,VWS V14.01,2013-10-04 18:47:00,
2013-10-04 14:48:00,83.3,68.5,30.06,SW,226,3.0,4.0,61,0.00,,,0.01,VWS V14.01,2013-10-04 18:48:00,
2013-10-04 14:49:00,83.2,68.4,30.06,SW,219,2.0,3.0,61,0.00,,,0.01,VWS V14.01,2013-10-04 18:49:00,
2013-10-04 14:50:00,83.0,67.7,30.06,WNW,298,0.0,2.0,60,0.00,,,0.01,VWS V14.01,2013-10-04 18:50:00,
2013-10-04 14:51:00,82.8,67.5,30.06,WNW,297,1.0,3.0,60,0.00,,,0.01,VWS V14.01,2013-10-04 18:51:00,
2013-10-04 14:52:00,82.5,66.7,30.06,West,267,0.0,1.0,59,0.00,,,0.01,VWS V14.01,2013-10-04 18:52:00,
2013-10-04 14:53:00,82.4,67.1,30.06,West,277,0.0,1.0,60,0.00,,,0.01,VWS V14.01,2013-10-04 18:53:00,
2013-10-04 14:54:00,82.3,67.5,30.05,WSW,245,1.0,2.0,61,0.00,,,0.01,VWS V14.01,2013-10-04 18:54:00,
2013-10-04 14:55:00,82.3,67.5,30.06,South,176,0.0,1.0,61,0.00,,,0.01,VWS V14.01,2013-10-04 18:55:00,
2013-10-04 14:56:00,82.3,68.0,30.05,West,281,0.0,0.0,62,0.00,,,0.01,VWS V14.01,2013-10-04 18:56:00,
2013-10-04 14:57:00,82.4,67.6,30.05,SW,235,0.0,0.0,61,0.00,,,0.01,VWS V14.01,2013-10-04 18:57:00,
2013-10-04 14:58:00,82.5,67.7,30.05,SSW,208,0.0,3.0,61,0.00,,,0.01,VWS V14.01,2013-10-04 18:58:00,
2013-10-04 14:59:00,82.7,68.4,30.05,SE,146,0.0,2.0,62,0.00,,,0.01,VWS V14.01,2013-10-04 18:59:00,
2013-10-04 15:00:00,82.9,68.1,30.05,WSW,248,2.0,2.0,61,0.00,,,0.01,VWS V14.01,2013-10-04 19:00:00,
2013-10-04 15:01:00,83.2,67.4,30.05,SE,127,0.0,4.0,59,0.00,,,0.01,VWS V14.01,2013-10-04 19:01:00,
2013-10-04 15:02:00,83.5,67.7,30.05,West,272,1.0,1.0,59,0.00,,,0.01,VWS V14.01,2013-10-04 19:02:00,
2013-10-04 15:03:00,83.6,67.8,30.05,SSW,207,0.0,1.0,59,0.00,,,0.01,VWS V14.01,2013-10-04 19:03:00,
2013-10-04 15:04:00,83.7,68.3,30.05,SW,228,3.0,3.0,60,0.00,,,0.01,VWS V14.01,2013-10-04 19:04:00,
2013-10-04 15:05:00,83.9,67.6,30.05,SSE,156,1.0,3.0,58,0.00,,,0.01,VWS V14.01,2013-10-04 19:05:00,
2013-10-04 15:06:00,84.0,68.1,30.05,WSW,240,2.0,3.0,59,0.00,,,0.01,VWS V14.01,2013-10-04 19:06:00,
2013-10-04 15:07:00,84.0,67.7,30.05,West,259,1.0,4.0,58,0.00,,,0.01,VWS V14.01,2013-10-04 19:07:00,
2013-10-04 15:08:00,84.0,68.6,30.05,WSW,246,1.0,4.0,60,0.00,,,0.01,VWS V14.01,2013-10-04 19:08:00,
2013-10-04 15:09:00,84.1,68.7,30.05,SW,236,1.0,2.0,60,0.00,,,0.01,VWS V14.01,2013-10-04 19:09:00,
2013-10-04 15:10:00,84.1,68.2,30.05,SW,214,0.0,2.0,59,0.00,,,0.01,VWS V14.01,2013-10-04 19:10:00,
2013-10-04 15:11:00,84.2,67.8,30.05,West,270,1.0,2.0,58,0.00,,,0.01,VWS V14.01,2013-10-04 19:11:00,
2013-10-04 15:12:00,84.0,67.7,30.05,SSW,212,0.0,1.0,58,0.00,,,0.01,VWS V14.01,2013-10-04 19:12:00,
2013-10-04 15:13:00,84.0,67.1,30.05,SSW,212,0.0,1.0,57,0.00,,,0.01,VWS V14.01,2013-10-04 19:13:00,
2013-10-04 15:14:00,84.0,67.7,30.05,NNW,342,0.0,0.0,58,0.00,,,0.01,VWS V14.01,2013-10-04 19:14:00,
2013-10-04 15:15:00,84.1,68.2,30.05,SE,133,0.0,1.0,59,0.00,,,0.01,VWS V14.01,2013-10-04 19:15:00,
2013-10-04 15:16:00,84.2,67.8,30.05,SW,236,4.0,4.0,58,0.00,,,0.01,VWS V14.01,2013-10-04 19:16:00,
2013-10-04 15:17:00,84.2,66.8,30.05,West,273,1.0,4.0,56,0.00,,,0.01,VWS V14.01,2013-10-04 19:17:00,
2013-10-04 15:18:00,84.2,66.8,30.05,WSW,245,3.0,4.0,56,0.00,,,0.01,VWS V14.01,2013-10-04 19:18:00,
2013-10-04 15:19:00,84.2,67.3,30.05,SW,231,1.0,3.0,57,0.00,,,0.01,VWS V14.01,2013-10-04 19:19:00,
2013-10-04 15:20:00,84.2,66.8,30.05,West,271,3.0,4.0,56,0.00,,,0.01,VWS V14.01,2013-10-04 19:20:00,
2013-10-04 15:21:00,84.1,66.7,30.05,WSW,245,3.0,4.0,56,0.00,,,0.01,VWS V14.01,2013-10-04 19:21:00,
2013-10-04 15:22:00,84.0,67.7,30.05,SE,146,0.0,0.0,58,0.00,,,0.01,VWS V14.01,2013-10-04 19:22:00,
2013-10-04 15:23:00,84.0,67.7,30.05,South,173,1.0,2.0,58,0.00,,,0.01,VWS V14.01,2013-10-04 19:23:00,
2013-10-04 15:24:00,84.1,67.2,30.05,WSW,245,4.0,4.0,57,0.00,,,0.01,VWS V14.01,2013-10-04 19:24:00,
2013-10-04 15:25:00,84.1,67.2,30.05,WNW,293,3.0,5.0,57,0.00,,,0.01,VWS V14.01,2013-10-04 19:25:00,
2013-10-04 15:26:00,84.0,66.6,30.05,WSW,248,4.0,5.0,56,0.00,,,0.01,VWS V14.01,2013-10-04 19:26:00,
2013-10-04 15:27:00,84.0,67.1,30.05,SW,224,0.0,1.0,57,0.00,,,0.01,VWS V14.01,2013-10-04 19:27:00,
2013-10-04 15:28:00,84.0,67.1,30.05,SSW,197,3.0,3.0,57,0.00,,,0.01,VWS V14.01,2013-10-04 19:28:00,
2013-10-04 15:29:00,84.1,66.2,30.05,WSW,242,2.0,6.0,55,0.00,,,0.01,VWS V14.01,2013-10-04 19:29:00,
2013-10-04 15:30:00,84.1,66.2,30.05,SW,231,1.0,5.0,55,0.00,,,0.01,VWS V14.01,2013-10-04 19:30:00,
2013-10-04 15:31:00,84.2,66.8,30.05,SW,224,0.0,2.0,56,0.00,,,0.01,VWS V14.01,2013-10-04 19:31:00,
2013-10-04 15:32:00,84.3,66.4,30.05,SW,232,1.0,1.0,55,0.00,,,0.01,VWS V14.01,2013-10-04 19:32:00,
2013-10-04 15:33:00,84.3,66.4,30.05,WSW,252,0.0,1.0,55,0.00,,,0.01,VWS V14.01,2013-10-04 19:33:00,
2013-10-04 15:35:00,84.5,66.6,30.05,SSW,203,1.0,4.0,55,0.00,,,0.01,VWS V14.01,2013-10-04 19:35:00,
2013-10-04 15:37:00,84.8,66.8,30.05,South,174,3.0,5.0,55,0.00,,,0.01,VWS V14.01,2013-10-04 19:37:00,
2013-10-04 15:38:00,84.8,66.8,30.05,SSE,160,1.0,5.0,55,0.00,,,0.01,VWS V14.01,2013-10-04 19:38:00,
2013-10-04 15:39:00,84.9,66.4,30.05,SW,224,1.0,8.0,54,0.00,,,0.01,VWS V14.01,2013-10-04 19:39:00,
2013-10-04 15:40:00,85.0,67.6,30.05,South,191,0.0,1.0,56,0.00,,,0.01,VWS V14.01,2013-10-04 19:40:00,
2013-10-04 15:41:00,85.1,66.6,30.05,SSE,165,2.0,3.0,54,0.00,,,0.01,VWS V14.01,2013-10-04 19:41:00,
2013-10-04 15:42:00,85.1,67.1,30.05,SW,229,0.0,0.0,55,0.00,,,0.01,VWS V14.01,2013-10-04 19:42:00,
2013-10-04 15:43:00,85.0,66.5,30.05,SSE,153,1.0,4.0,54,0.00,,,0.01,VWS V14.01,2013-10-04 19:43:00,
2013-10-04 15:44:00,84.8,65.8,30.05,SSE,167,3.0,7.0,53,0.00,,,0.01,VWS V14.01,2013-10-04 19:44:00,
2013-10-04 15:45:00,84.7,66.2,30.05,SW,232,3.0,4.0,54,0.00,,,0.01,VWS V14.01,2013-10-04 19:45:00,
2013-10-04 15:46:00,84.7,67.3,30.05,West,269,0.0,3.0,56,0.00,,,0.01,VWS V14.01,2013-10-04 19:46:00,
2013-10-04 15:47:00,84.7,66.8,30.05,WSW,250,2.0,2.0,55,0.00,,,0.01,VWS V14.01,2013-10-04 19:47:00,
2013-10-04 15:48:00,84.7,67.3,30.05,South,178,2.0,6.0,56,0.00,,,0.01,VWS V14.01,2013-10-04 19:48:00,
2013-10-04 15:49:00,84.7,67.3,30.05,South,189,0.0,5.0,56,0.00,,,0.01,VWS V14.01,2013-10-04 19:49:00,
2013-10-04 15:50:00,84.7,66.8,30.05,SSW,197,3.0,4.0,55,0.00,,,0.01,VWS V14.01,2013-10-04 19:50:00,
2013-10-04 15:51:00,84.8,67.4,30.04,SSE,162,3.0,3.0,56,0.00,,,0.01,VWS V14.01,2013-10-04 19:51:00,
2013-10-04 15:52:00,84.9,67.5,30.04,SSE,161,0.0,3.0,56,0.00,,,0.01,VWS V14.01,2013-10-04 19:52:00,
2013-10-04 15:53:00,84.9,66.9,30.04,South,184,3.0,5.0,55,0.00,,,0.01,VWS V14.01,2013-10-04 19:53:00,
2013-10-04 15:54:00,85.0,67.0,30.05,SSW,208,4.0,7.0,55,0.00,,,0.01,VWS V14.01,2013-10-04 19:54:00,
2013-10-04 15:55:00,85.0,67.6,30.05,SSW,208,3.0,4.0,56,0.00,,,0.01,VWS V14.01,2013-10-04 19:55:00,
2013-10-04 15:56:00,85.0,66.5,30.05,SW,224,0.0,3.0,54,0.00,,,0.01,VWS V14.01,2013-10-04 19:56:00,
2013-10-04 15:57:00,85.0,67.0,30.04,WSW,249,6.0,6.0,55,0.00,,,0.01,VWS V14.01,2013-10-04 19:57:00,
2013-10-04 15:58:00,85.0,66.5,30.04,SE,139,3.0,7.0,54,0.00,,,0.01,VWS V14.01,2013-10-04 19:58:00,
2013-10-04 15:59:00,84.8,66.8,30.04,SSE,159,1.0,4.0,55,0.00,,,0.01,VWS V14.01,2013-10-04 19:59:00,
2013-10-04 16:00:00,84.8,66.8,30.05,SSE,161,5.0,6.0,55,0.00,,,0.01,VWS V14.01,2013-10-04 20:00:00,
2013-10-04 16:01:00,84.7,66.2,30.05,SSW,204,3.0,6.0,54,0.00,,,0.01,VWS V14.01,2013-10-04 20:01:00,
2013-10-04 16:02:00,84.7,67.3,30.05,WSW,250,3.0,5.0,56,0.00,,,0.01,VWS V14.01,2013-10-04 20:02:00,
2013-10-04 16:03:00,84.7,67.3,30.05,SSE,150,0.0,5.0,56,0.00,,,0.01,VWS V14.01,2013-10-04 20:03:00,
2013-10-04 16:04:00,84.7,67.8,30.05,West,267,0.0,2.0,57,0.00,,,0.01,VWS V14.01,2013-10-04 20:04:00,
2013-10-04 16:05:00,84.8,67.4,30.05,WSW,238,1.0,6.0,56,0.00,,,0.01,VWS V14.01,2013-10-04 20:05:00,
2013-10-04 16:06:00,84.8,67.9,30.05,WSW,249,0.0,1.0,57,0.00,,,0.01,VWS V14.01,2013-10-04 20:06:00,
2013-10-04 16:07:00,84.8,66.8,30.05,WSW,257,4.0,4.0,55,0.00,,,0.01,VWS V14.01,2013-10-04 20:07:00,
2013-10-04 16:08:00,84.8,66.8,30.05,South,191,5.0,6.0,55,0.00,,,0.01,VWS V14.01,2013-10-04 20:08:00,
2013-10-04 16:09:00,84.8,66.8,30.05,SSE,150,1.0,5.0,55,0.00,,,0.01,VWS V14.01,2013-10-04 20:09:00,
2013-10-04 16:10:00,84.7,66.8,30.04,SW,231,2.0,5.0,55,0.00,,,0.01,VWS V14.01,2013-10-04 20:10:00,
2013-10-04 16:11:00,84.6,66.7,30.04,SSE,148,2.0,4.0,55,0.00,,,0.01,VWS V14.01,2013-10-04 20:11:00,
2013-10-04 16:12:00,84.6,66.7,30.04,SE,143,1.0,1.0,55,0.00,,,0.01,VWS V14.01,2013-10-04 20:12:00,
2013-10-04 16:13:00,84.6,67.2,30.04,SW,225,1.0,2.0,56,0.00,,,0.01,VWS V14.01,2013-10-04 20:13:00,
2013-10-04 16:14:00,84.6,66.7,30.04,SSW,200,2.0,6.0,55,0.00,,,0.01,VWS V14.01,2013-10-04 20:14:00,
2013-10-04 16:15:00,84.6,67.2,30.04,SSW,197,2.0,4.0,56,0.00,,,0.01,VWS V14.01,2013-10-04 20:15:00,
2013-10-04 16:16:00,84.6,67.2,30.04,South,191,1.0,2.0,56,0.00,,,0.01,VWS V14.01,2013-10-04 20:16:00,
2013-10-04 16:17:00,84.7,67.3,30.04,SW,236,3.0,3.0,56,0.00,,,0.01,VWS V14.01,2013-10-04 20:17:00,
2013-10-04 16:18:00,84.7,66.8,30.04,SSE,167,2.0,3.0,55,0.00,,,0.01,VWS V14.01,2013-10-04 20:18:00,
2013-10-04 16:19:00,84.7,67.8,30.04,SSE,167,5.0,6.0,57,0.00,,,0.01,VWS V14.01,2013-10-04 20:19:00,
2013-10-04 16:20:00,84.8,66.8,30.04,SW,228,4.0,5.0,55,0.00,,,0.01,VWS V14.01,2013-10-04 20:20:00,
2013-10-04 16:21:00,84.8,67.4,30.04,SE,146,1.0,8.0,56,0.00,,,0.01,VWS V14.01,2013-10-04 20:21:00,
2013-10-04 16:22:00,84.8,66.8,30.04,SSW,208,0.0,1.0,55,0.00,,,0.01,VWS V14.01,2013-10-04 20:22:00,
2013-10-04 16:23:00,84.8,67.9,30.04,SE,139,3.0,5.0,57,0.00,,,0.01,VWS V14.01,2013-10-04 20:23:00,
2013-10-04 16:24:00,84.9,67.5,30.04,SSW,211,4.0,4.0,56,0.00,,,0.01,VWS V14.01,2013-10-04 20:24:00,
2013-10-04 16:25:00,85.0,67.6,30.04,SSE,156,1.0,4.0,56,0.00,,,0.01,VWS V14.01,2013-10-04 20:25:00,
2013-10-04 16:26:00,85.0,68.1,30.04,SSE,152,3.0,4.0,57,0.00,,,0.01,VWS V14.01,2013-10-04 20:26:00,
2013-10-04 16:27:00,85.1,67.7,30.04,South,172,2.0,5.0,56,0.00,,,0.01,VWS V14.01,2013-10-04 20:27:00,
2013-10-04 16:28:00,85.1,67.7,30.04,SSE,152,2.0,5.0,56,0.00,,,0.01,VWS V14.01,2013-10-04 20:28:00,
2013-10-04 16:29:00,85.0,67.6,30.04,SSW,194,1.0,3.0,56,0.00,,,0.01,VWS V14.01,2013-10-04 20:29:00,
2013-10-04 16:30:00,85.0,67.0,30.04,SSE,156,1.0,4.0,55,0.00,,,0.01,VWS V14.01,2013-10-04 20:30:00,
2013-10-04 16:31:00,85.0,67.6,30.04,South,176,0.0,4.0,56,0.00,,,0.01,VWS V14.01,2013-10-04 20:31:00,
2013-10-04 16:32:00,85.0,66.0,30.04,South,179,2.0,4.0,53,0.00,,,0.01,VWS V14.01,2013-10-04 20:32:00,
2013-10-04 16:33:00,85.0,66.5,30.04,SSW,200,1.0,4.0,54,0.00,,,0.01,VWS V14.01,2013-10-04 20:33:00,
2013-10-04 16:34:00,85.0,67.0,30.04,SW,224,2.0,2.0,55,0.00,,,0.01,VWS V14.01,2013-10-04 20:34:00,
2013-10-04 16:35:00,85.0,66.5,30.04,SW,224,4.0,8.0,54,0.00,,,0.01,VWS V14.01,2013-10-04 20:35:00,
2013-10-04 16:36:00,84.9,66.4,30.04,South,179,4.0,5.0,54,0.00,,,0.01,VWS V14.01,2013-10-04 20:36:00,
2013-10-04 16:37:00,84.8,66.3,30.04,SE,146,3.0,5.0,54,0.00,,,0.01,VWS V14.01,2013-10-04 20:37:00,
2013-10-04 16:38:00,84.8,66.3,30.04,SSW,194,1.0,5.0,54,0.00,,,0.01,VWS V14.01,2013-10-04 20:38:00,
2013-10-04 16:39:00,84.7,67.3,30.04,South,172,1.0,2.0,56,0.00,,,0.01,VWS V14.01,2013-10-04 20:39:00,
2013-10-04 16:40:00,84.8,67.4,30.04,SW,232,3.0,4.0,56,0.00,,,0.01,VWS V14.01,2013-10-04 20:40:00,
2013-10-04 16:41:00,84.8,66.8,30.04,SSE,156,4.0,6.0,55,0.00,,,0.01,VWS V14.01,2013-10-04 20:41:00,
2013-10-04 16:42:00,84.7,66.2,30.04,SSW,211,4.0,5.0,54,0.00,,,0.01,VWS V14.01,2013-10-04 20:42:00,
2013-10-04 16:43:00,84.7,66.2,30.04,South,184,3.0,6.0,54,0.00,,,0.01,VWS V14.01,2013-10-04 20:43:00,
2013-10-04 16:44:00,84.6,66.7,30.04,SE,143,4.0,4.0,55,0.00,,,0.01,VWS V14.01,2013-10-04 20:44:00,
2013-10-04 16:45:00,84.5,66.6,30.04,SSE,163,5.0,5.0,55,0.00,,,0.01,VWS V14.01,2013-10-04 20:45:00,
2013-10-04 16:46:00,84.4,66.5,30.04,SE,134,3.0,5.0,55,0.00,,,0.01,VWS V14.01,2013-10-04 20:46:00,
2013-10-04 16:47:00,84.3,66.9,30.04,SE,138,1.0,4.0,56,0.00,,,0.01,VWS V14.01,2013-10-04 20:47:00,
2013-10-04 16:48:00,84.3,66.9,30.04,WSW,242,2.0,4.0,56,0.00,,,0.01,VWS V14.01,2013-10-04 20:48:00,
2013-10-04 16:49:00,84.3,67.4,30.04,SSW,204,2.0,4.0,57,0.00,,,0.01,VWS V14.01,2013-10-04 20:49:00,
2013-10-04 16:50:00,84.3,66.9,30.04,SSW,210,5.0,5.0,56,0.00,,,0.01,VWS V14.01,2013-10-04 20:50:00,
2013-10-04 16:51:00,84.3,66.9,30.04,SSE,149,4.0,6.0,56,0.00,,,0.01,VWS V14.01,2013-10-04 20:51:00,
2013-10-04 16:52:00,84.3,67.4,30.04,SSE,149,0.0,0.0,57,0.00,,,0.01,VWS V14.01,2013-10-04 20:52:00,
2013-10-04 16:53:00,84.3,67.4,30.04,SE,145,0.0,2.0,57,0.00,,,0.01,VWS V14.01,2013-10-04 20:53:00,
2013-10-04 16:54:00,84.3,67.4,30.04,SSE,167,2.0,3.0,57,0.00,,,0.01,VWS V14.01,2013-10-04 20:54:00,
2013-10-04 16:55:00,84.3,66.9,30.04,SSE,155,1.0,2.0,56,0.00,,,0.01,VWS V14.01,2013-10-04 20:55:00,
2013-10-04 16:56:00,84.3,67.4,30.04,SE,132,1.0,2.0,57,0.00,,,0.01,VWS V14.01,2013-10-04 20:56:00,
2013-10-04 16:57:00,84.4,67.5,30.04,SSW,212,2.0,4.0,57,0.00,,,0.01,VWS V14.01,2013-10-04 20:57:00,
2013-10-04 16:58:00,84.4,67.0,30.04,SSW,198,1.0,4.0,56,0.00,,,0.01,VWS V14.01,2013-10-04 20:58:00,
2013-10-04 16:59:00,84.5,67.6,30.04,SSW,212,0.0,1.0,57,0.00,,,0.01,VWS V14.01,2013-10-04 20:59:00,
2013-10-04 17:00:00,84.5,67.1,30.04,ESE,123,2.0,3.0,56,0.00,,,0.01,VWS V14.01,2013-10-04 21:00:00,
2013-10-04 17:01:00,84.5,67.1,30.04,South,189,1.0,4.0,56,0.00,,,0.01,VWS V14.01,2013-10-04 21:01:00,
2013-10-04 17:02:00,84.6,66.7,30.04,SSW,194,2.0,2.0,55,0.00,,,0.01,VWS V14.01,2013-10-04 21:02:00,
2013-10-04 17:03:00,84.6,67.2,30.04,SSW,205,2.0,3.0,56,0.00,,,0.01,VWS V14.01,2013-10-04 21:03:00,
2013-10-04 17:04:00,84.6,67.2,30.04,SE,145,1.0,4.0,56,0.00,,,0.01,VWS V14.01,2013-10-04 21:04:00,
2013-10-04 17:05:00,84.6,67.2,30.04,SSW,203,3.0,6.0,56,0.00,,,0.01,VWS V14.01,2013-10-04 21:05:00,
2013-10-04 17:06:00,84.6,66.7,30.04,SSE,160,2.0,6.0,55,0.00,,,0.01,VWS V14.01,2013-10-04 21:06:00,
2013-10-04 17:07:00,84.6,66.7,30.04,WSW,256,2.0,2.0,55,0.00,,,0.01,VWS V14.01,2013-10-04 21:07:00,
2013-10-04 17:08:00,84.6,66.7,30.04,SSE,163,3.0,3.0,55,0.00,,,0.01,VWS V14.01,2013-10-04 21:08:00,
2013-10-04 17:09:00,84.5,66.1,30.04,South,170,1.0,6.0,54,0.00,,,0.01,VWS V14.01,2013-10-04 21:09:00,
2013-10-04 17:10:00,84.4,65.9,30.04,ESE,113,2.0,3.0,54,0.00,,,0.01,VWS V14.01,2013-10-04 21:10:00,
2013-10-04 17:11:00,84.3,66.4,30.04,SSE,162,1.0,2.0,55,0.00,,,0.01,VWS V14.01,2013-10-04 21:11:00,
2013-10-04 17:12:00,84.2,66.8,30.04,SSE,155,0.0,1.0,56,0.00,,,0.01,VWS V14.01,2013-10-04 21:12:00,
2013-10-04 17:13:00,84.1,66.7,30.04,SSE,158,3.0,4.0,56,0.00,,,0.01,VWS V14.01,2013-10-04 21:13:00,
2013-10-04 17:14:00,84.1,66.7,30.04,SSE,163,1.0,5.0,56,0.00,,,0.01,VWS V14.01,2013-10-04 21:14:00,
2013-10-04 17:15:00,84.0,67.1,30.04,SE,142,2.0,3.0,57,0.00,,,0.01,VWS V14.01,2013-10-04 21:15:00,
2013-10-04 17:16:00,84.0,67.1,30.04,SSE,150,3.0,3.0,57,0.00,,,0.01,VWS V14.01,2013-10-04 21:16:00,
2013-10-04 17:17:00,84.0,66.6,30.04,South,170,1.0,2.0,56,0.00,,,0.01,VWS V14.01,2013-10-04 21:17:00,
2013-10-04 17:18:00,84.0,66.6,30.04,South,191,1.0,3.0,56,0.00,,,0.01,VWS V14.01,2013-10-04 21:18:00,
2013-10-04 17:19:00,84.0,66.6,30.04,SSE,155,3.0,3.0,56,0.00,,,0.01,VWS V14.01,2013-10-04 21:19:00,
2013-10-04 17:20:00,84.0,67.1,30.04,South,180,4.0,4.0,57,0.00,,,0.01,VWS V14.01,2013-10-04 21:20:00,
2013-10-04 17:21:00,84.1,67.7,30.04,SSW,197,3.0,4.0,58,0.00,,,0.01,VWS V14.01,2013-10-04 21:21:00,
2013-10-04 17:22:00,84.1,67.2,30.04,SSE,153,1.0,1.0,57,0.00,,,0.01,VWS V14.01,2013-10-04 21:22:00,
2013-10-04 17:23:00,84.2,67.3,30.04,SW,215,0.0,1.0,57,0.00,,,0.01,VWS V14.01,2013-10-04 21:23:00,
2013-10-04 17:24:00,84.2,67.3,30.04,South,169,0.0,0.0,57,0.00,,,0.01,VWS V14.01,2013-10-04 21:24:00,
2013-10-04 17:25:00,84.3,67.4,30.04,South,179,2.0,2.0,57,0.00,,,0.01,VWS V14.01,2013-10-04 21:25:00,
2013-10-04 17:26:00,84.4,68.0,30.04,SSW,208,1.0,2.0,58,0.00,,,0.01,VWS V14.01,2013-10-04 21:26:00,
2013-10-04 17:27:00,84.6,67.2,30.04,WNW,283,2.0,2.0,56,0.00,,,0.01,VWS V14.01,2013-10-04 21:27:00,
2013-10-04 17:28:00,84.6,67.7,30.04,SE,146,0.0,2.0,57,0.00,,,0.01,VWS V14.01,2013-10-04 21:28:00,
2013-10-04 17:29:00,84.6,68.2,30.04,SSW,204,0.0,1.0,58,0.00,,,0.01,VWS V14.01,2013-10-04 21:29:00,
2013-10-04 17:30:00,84.7,67.8,30.04,SE,142,2.0,4.0,57,0.00,,,0.01,VWS V14.01,2013-10-04 21:30:00,
2013-10-04 17:31:00,84.7,67.3,30.04,SE,143,1.0,6.0,56,0.00,,,0.01,VWS V14.01,2013-10-04 21:31:00,
2013-10-04 17:32:00,84.6,66.7,30.04,SSE,159,2.0,3.0,55,0.00,,,0.01,VWS V14.01,2013-10-04 21:32:00,
2013-10-04 17:33:00,84.5,66.6,30.04,SSW,212,0.0,4.0,55,0.00,,,0.01,VWS V14.01,2013-10-04 21:33:00,
2013-10-04 17:34:00,84.5,66.6,30.04,SE,142,3.0,6.0,55,0.00,,,0.01,VWS V14.01,2013-10-04 21:34:00,
2013-10-04 17:35:00,84.4,66.5,30.04,SE,126,1.0,5.0,55,0.00,,,0.01,VWS V14.01,2013-10-04 21:35:00,
2013-10-04 17:36:00,84.3,66.4,30.04,South,173,2.0,4.0,55,0.00,,,0.01,VWS V14.01,2013-10-04 21:36:00,
2013-10-04 17:37:00,84.2,66.3,30.04,SSW,208,1.0,2.0,55,0.00,,,0.01,VWS V14.01,2013-10-04 21:37:00,
2013-10-04 17:38:00,84.2,66.3,30.04,SE,145,0.0,2.0,55,0.00,,,0.01,VWS V14.01,2013-10-04 21:38:00,
2013-10-04 17:39:00,84.2,66.8,30.04,South,187,0.0,1.0,56,0.00,,,0.01,VWS V14.01,2013-10-04 21:39:00,
2013-10-04 17:40:00,84.2,66.8,30.04,SSW,208,2.0,4.0,56,0.00,,,0.01,VWS V14.01,2013-10-04 21:40:00,
2013-10-04 17:41:00,84.2,66.8,30.04,West,264,2.0,2.0,56,0.00,,,0.01,VWS V14.01,2013-10-04 21:41:00,
2013-10-04 17:42:00,84.2,66.8,30.04,WSW,255,1.0,2.0,56,0.00,,,0.01,VWS V14.01,2013-10-04 21:42:00,
2013-10-04 17:43:00,84.2,66.8,30.04,SSW,204,1.0,4.0,56,0.00,,,0.01,VWS V14.01,2013-10-04 21:43:00,
2013-10-04 17:44:00,84.1,66.7,30.04,West,281,0.0,2.0,56,0.00,,,0.01,VWS V14.01,2013-10-04 21:44:00,
2013-10-04 17:45:00,84.1,67.2,30.04,WSW,243,2.0,2.0,57,0.00,,,0.01,VWS V14.01,2013-10-04 21:45:00,
2013-10-04 17:46:00,84.0,67.1,30.04,SW,214,0.0,0.0,57,0.00,,,0.01,VWS V14.01,2013-10-04 21:46:00,
2013-10-04 17:47:00,84.0,67.1,30.04,SW,214,0.0,0.0,57,0.00,,,0.01,VWS V14.01,2013-10-04 21:47:00,
2013-10-04 17:48:00,84.0,67.7,30.04,South,186,0.0,1.0,58,0.00,,,0.01,VWS V14.01,2013-10-04 21:48:00,
2013-10-04 17:49:00,84.0,67.1,30.04,SSW,207,1.0,3.0,57,0.00,,,0.01,VWS V14.01,2013-10-04 21:49:00,
2013-10-04 17:50:00,84.1,67.2,30.04,West,263,1.0,1.0,57,0.00,,,0.01,VWS V14.01,2013-10-04 21:50:00,
2013-10-04 17:51:00,84.1,67.2,30.04,South,170,1.0,1.0,57,0.00,,,0.01,VWS V14.01,2013-10-04 21:51:00,
2013-10-04 17:52:00,84.1,67.2,30.04,WSW,239,1.0,2.0,57,0.00,,,0.01,VWS V14.01,2013-10-04 21:52:00,
2013-10-04 17:53:00,84.0,67.1,30.04,SSE,150,1.0,1.0,57,0.00,,,0.01,VWS V14.01,2013-10-04 21:53:00,
2013-10-04 17:54:00,84.0,67.1,30.04,SSW,207,2.0,3.0,57,0.00,,,0.01,VWS V14.01,2013-10-04 21:54:00,
2013-10-04 17:55:00,83.8,67.0,30.04,SSW,203,0.0,2.0,57,0.00,,,0.01,VWS V14.01,2013-10-04 21:55:00,
2013-10-04 17:56:00,83.6,67.3,30.03,SSE,152,1.0,3.0,58,0.00,,,0.01,VWS V14.01,2013-10-04 21:56:00,
2013-10-04 17:57:00,83.6,67.3,30.04,South,179,3.0,3.0,58,0.00,,,0.01,VWS V14.01,2013-10-04 21:57:00,
2013-10-04 17:58:00,83.5,67.2,30.03,SSE,160,3.0,3.0,58,0.00,,,0.01,VWS V14.01,2013-10-04 21:58:00,
2013-10-04 17:59:00,83.3,66.5,30.03,WSW,257,0.0,4.0,57,0.00,,,0.01,VWS V14.01,2013-10-04 21:59:00,
2013-10-04 18:00:00,83.2,66.4,30.04,SSW,208,2.0,3.0,57,0.00,,,0.01,VWS V14.01,2013-10-04 22:00:00,
2013-10-04 18:01:00,82.9,66.6,30.04,SW,223,0.0,1.0,58,0.00,,,0.01,VWS V14.01,2013-10-04 22:01:00,
2013-10-04 18:02:00,82.9,66.6,30.04,South,191,1.0,2.0,58,0.00,,,0.01,VWS V14.01,2013-10-04 22:02:00,
2013-10-04 18:03:00,82.8,66.0,30.04,SSW,203,4.0,5.0,57,0.00,,,0.01,VWS V14.01,2013-10-04 22:03:00,
2013-10-04 18:04:00,82.7,65.9,30.04,SW,218,3.0,4.0,57,0.00,,,0.01,VWS V14.01,2013-10-04 22:04:00,
2013-10-04 18:05:00,82.6,65.8,30.04,SW,214,2.0,3.0,57,0.00,,,0.01,VWS V14.01,2013-10-04 22:05:00,
2013-10-04 18:06:00,82.4,66.7,30.04,South,187,2.0,2.0,59,0.00,,,0.01,VWS V14.01,2013-10-04 22:06:00,
2013-10-04 18:07:00,82.4,66.7,30.04,SSW,204,0.0,4.0,59,0.00,,,0.01,VWS V14.01,2013-10-04 22:07:00,
2013-10-04 18:08:00,82.3,66.1,30.04,South,180,1.0,3.0,58,0.00,,,0.01,VWS V14.01,2013-10-04 22:08:00,
2013-10-04 18:09:00,82.2,66.5,30.04,SW,217,3.0,3.0,59,0.00,,,0.01,VWS V14.01,2013-10-04 22:09:00,
2013-10-04 18:10:00,82.1,65.9,30.04,SSW,204,3.0,4.0,58,0.00,,,0.01,VWS V14.01,2013-10-04 22:10:00,
2013-10-04 18:11:00,81.9,66.7,30.04,SSW,197,1.0,1.0,60,0.00,,,0.01,VWS V14.01,2013-10-04 22:11:00,
2013-10-04 18:12:00,82.0,66.8,30.04,SSW,199,0.0,1.0,60,0.00,,,0.01,VWS V14.01,2013-10-04 22:12:00,
2013-10-04 18:13:00,81.9,66.7,30.04,South,187,0.0,1.0,60,0.00,,,0.01,VWS V14.01,2013-10-04 22:13:00,
2013-10-04 18:14:00,81.8,66.6,30.03,SW,228,1.0,2.0,60,0.00,,,0.01,VWS V14.01,2013-10-04 22:14:00,
2013-10-04 18:15:00,81.8,66.6,30.04,South,186,1.0,2.0,60,0.00,,,0.01,VWS V14.01,2013-10-04 22:15:00,
2013-10-04 18:16:00,81.6,66.4,30.03,South,186,0.0,0.0,60,0.00,,,0.01,VWS V14.01,2013-10-04 22:16:00,
2013-10-04 18:17:00,81.6,66.4,30.03,SW,214,0.0,0.0,60,0.00,,,0.01,VWS V14.01,2013-10-04 22:17:00,
2013-10-04 18:18:00,81.6,66.4,30.03,SSW,212,2.0,5.0,60,0.00,,,0.01,VWS V14.01,2013-10-04 22:18:00,
2013-10-04 18:19:00,81.5,66.3,30.04,SSE,156,0.0,2.0,60,0.00,,,0.01,VWS V14.01,2013-10-04 22:19:00,
2013-10-04 18:20:00,81.4,66.2,30.04,SSW,193,2.0,3.0,60,0.00,,,0.01,VWS V14.01,2013-10-04 22:20:00,
2013-10-04 18:21:00,81.3,66.6,30.04,South,174,0.0,1.0,61,0.00,,,0.01,VWS V14.01,2013-10-04 22:21:00,
2013-10-04 18:22:00,81.3,66.6,30.04,South,174,1.0,2.0,61,0.00,,,0.01,VWS V14.01,2013-10-04 22:22:00,
2013-10-04 18:23:00,81.2,66.5,30.04,SSW,205,2.0,2.0,61,0.00,,,0.01,VWS V14.01,2013-10-04 22:23:00,
2013-10-04 18:24:00,81.2,66.5,30.04,SSE,163,1.0,2.0,61,0.00,,,0.01,VWS V14.01,2013-10-04 22:24:00,
2013-10-04 18:25:00,81.1,66.4,30.04,ESE,118,0.0,2.0,61,0.00,,,0.01,VWS V14.01,2013-10-04 22:25:00,
2013-10-04 18:26:00,80.9,66.7,30.04,SSE,167,0.0,0.0,62,0.00,,,0.01,VWS V14.01,2013-10-04 22:26:00,
2013-10-04 18:27:00,80.9,66.7,30.04,South,170,0.0,1.0,62,0.00,,,0.01,VWS V14.01,2013-10-04 22:27:00,
2013-10-04 18:28:00,80.8,66.6,30.04,SW,217,1.0,1.0,62,0.00,,,0.01,VWS V14.01,2013-10-04 22:28:00,
2013-10-04 18:29:00,80.7,66.9,30.04,SSW,207,1.0,3.0,63,0.00,,,0.01,VWS V14.01,2013-10-04 22:29:00,
2013-10-04 18:30:00,80.7,66.5,30.04,SSE,165,1.0,1.0,62,0.00,,,0.01,VWS V14.01,2013-10-04 22:30:00,
2013-10-04 18:31:00,80.5,66.8,30.04,South,174,0.0,0.0,63,0.00,,,0.01,VWS V14.01,2013-10-04 22:31:00,
2013-10-04 18:32:00,80.5,66.8,30.04,South,179,0.0,0.0,63,0.00,,,0.01,VWS V14.01,2013-10-04 22:32:00,
2013-10-04 18:33:00,80.4,66.7,30.04,SSE,159,0.0,1.0,63,0.00,,,0.01,VWS V14.01,2013-10-04 22:33:00,
2013-10-04 18:34:00,80.3,66.6,30.04,SW,214,2.0,2.0,63,0.00,,,0.01,VWS V14.01,2013-10-04 22:34:00,
2013-10-04 18:35:00,80.2,66.5,30.04,South,177,0.0,2.0,63,0.00,,,0.01,VWS V14.01,2013-10-04 22:35:00,
2013-10-04 18:36:00,80.1,66.4,30.04,South,190,0.0,0.0,63,0.00,,,0.01,VWS V14.01,2013-10-04 22:36:00,
2013-10-04 18:37:00,80.1,66.4,30.04,South,190,0.0,1.0,63,0.00,,,0.01,VWS V14.01,2013-10-04 22:37:00,
2013-10-04 18:38:00,80.0,66.3,30.04,South,190,0.0,0.0,63,0.00,,,0.01,VWS V14.01,2013-10-04 22:38:00,
2013-10-04 18:39:00,79.9,66.6,30.04,South,190,0.0,0.0,64,0.00,,,0.01,VWS V14.01,2013-10-04 22:39:00,
2013-10-04 18:40:00,79.8,66.6,30.04,South,190,0.0,0.0,64,0.00,,,0.01,VWS V14.01,2013-10-04 22:40:00,
2013-10-04 18:41:00,79.6,66.8,30.04,South,190,0.0,0.0,65,0.00,,,0.01,VWS V14.01,2013-10-04 22:41:00,
2013-10-04 18:42:00,79.6,66.8,30.04,South,190,0.0,0.0,65,0.00,,,0.01,VWS V14.01,2013-10-04 22:42:00,
2013-10-04 18:43:00,79.5,66.7,30.04,South,191,0.0,0.0,65,0.00,,,0.01,VWS V14.01,2013-10-04 22:43:00,
2013-10-04 18:44:00,79.4,66.6,30.04,South,190,0.0,0.0,65,0.00,,,0.01,VWS V14.01,2013-10-04 22:44:00,
2013-10-04 18:45:00,79.2,66.4,30.04,South,190,0.0,0.0,65,0.00,,,0.01,VWS V14.01,2013-10-04 22:45:00,
2013-10-04 18:46:00,79.0,66.7,30.04,South,190,0.0,0.0,66,0.00,,,0.01,VWS V14.01,2013-10-04 22:46:00,
2013-10-04 18:47:00,79.0,66.7,30.04,South,190,0.0,0.0,66,0.00,,,0.01,VWS V14.01,2013-10-04 22:47:00,
2013-10-04 18:48:00,78.9,66.6,30.04,South,190,0.0,0.0,66,0.00,,,0.01,VWS V14.01,2013-10-04 22:48:00,
2013-10-04 18:49:00,78.7,66.4,30.04,South,190,0.0,0.0,66,0.00,,,0.01,VWS V14.01,2013-10-04 22:49:00,
2013-10-04 18:50:00,78.6,66.7,30.04,South,190,0.0,0.0,67,0.00,,,0.01,VWS V14.01,2013-10-04 22:50:00,
2013-10-04 18:51:00,78.4,67.0,30.04,South,190,0.0,0.0,68,0.00,,,0.01,VWS V14.01,2013-10-04 22:51:00,
2013-10-04 18:52:00,78.4,66.6,30.04,South,190,0.0,0.0,67,0.00,,,0.01,VWS V14.01,2013-10-04 22:52:00,
2013-10-04 18:53:00,78.3,66.9,30.04,South,190,0.0,0.0,68,0.00,,,0.01,VWS V14.01,2013-10-04 22:53:00,
2013-10-04 18:54:00,78.1,66.7,30.04,South,190,0.0,0.0,68,0.00,,,0.01,VWS V14.01,2013-10-04 22:54:00,
2013-10-04 18:55:00,78.0,66.6,30.04,South,190,0.0,0.0,68,0.00,,,0.01,VWS V14.01,2013-10-04 22:55:00,
2013-10-04 18:56:00,77.8,66.8,30.04,South,190,0.0,0.0,69,0.00,,,0.01,VWS V14.01,2013-10-04 22:56:00,
2013-10-04 18:57:00,77.8,66.8,30.04,South,190,0.0,0.0,69,0.00,,,0.01,VWS V14.01,2013-10-04 22:57:00,
2013-10-04 18:58:00,77.7,66.7,30.04,South,190,0.0,0.0,69,0.00,,,0.01,VWS V14.01,2013-10-04 22:58:00,
2013-10-04 18:59:00,77.6,66.6,30.04,South,190,0.0,0.0,69,0.00,,,0.01,VWS V14.01,2013-10-04 22:59:00,
2013-10-04 19:00:00,77.4,66.4,30.04,South,190,0.0,0.0,69,0.00,,,0.01,VWS V14.01,2013-10-04 23:00:00,
2013-10-04 19:01:00,77.2,66.2,30.04,South,190,0.0,0.0,69,0.00,,,0.01,VWS V14.01,2013-10-04 23:01:00,
2013-10-04 19:02:00,77.2,66.2,30.04,South,190,0.0,0.0,69,0.00,,,0.01,VWS V14.01,2013-10-04 23:02:00,
2013-10-04 19:03:00,77.1,66.6,30.04,South,190,0.0,0.0,70,0.00,,,0.01,VWS V14.01,2013-10-04 23:03:00,
2013-10-04 19:04:00,77.0,66.5,30.04,South,190,0.0,0.0,70,0.00,,,0.01,VWS V14.01,2013-10-04 23:04:00,
2013-10-04 19:05:00,76.8,66.3,30.04,South,190,0.0,0.0,70,0.00,,,0.01,VWS V14.01,2013-10-04 23:05:00,
2013-10-04 19:06:00,76.6,66.1,30.04,South,189,0.0,0.0,70,0.00,,,0.01,VWS V14.01,2013-10-04 23:06:00,
2013-10-04 19:07:00,76.6,66.1,30.04,South,190,0.0,0.0,70,0.00,,,0.01,VWS V14.01,2013-10-04 23:07:00,
2013-10-04 19:08:00,76.5,66.4,30.04,South,190,0.0,0.0,71,0.00,,,0.01,VWS V14.01,2013-10-04 23:08:00,
2013-10-04 19:09:00,76.4,66.3,30.04,South,190,0.0,0.0,71,0.00,,,0.01,VWS V14.01,2013-10-04 23:09:00,
2013-10-04 19:10:00,76.3,66.2,30.04,South,190,0.0,0.0,71,0.00,,,0.01,VWS V14.01,2013-10-04 23:10:00,
2013-10-04 19:11:00,76.1,66.4,30.04,South,190,0.0,0.0,72,0.00,,,0.01,VWS V14.01,2013-10-04 23:11:00,
2013-10-04 19:12:00,76.1,66.4,30.04,South,190,0.0,0.0,72,0.00,,,0.01,VWS V14.01,2013-10-04 23:12:00,
2013-10-04 19:13:00,76.0,66.3,30.04,South,189,0.0,0.0,72,0.00,,,0.01,VWS V14.01,2013-10-04 23:13:00,
2013-10-04 19:14:00,75.9,66.2,30.05,South,190,0.0,0.0,72,0.00,,,0.01,VWS V14.01,2013-10-04 23:14:00,
2013-10-04 19:15:00,75.8,66.5,30.04,South,189,0.0,0.0,73,0.00,,,0.01,VWS V14.01,2013-10-04 23:15:00,
2013-10-04 19:16:00,75.7,66.8,30.04,South,190,0.0,0.0,74,0.00,,,0.01,VWS V14.01,2013-10-04 23:16:00,
2013-10-04 19:17:00,75.7,66.8,30.04,South,190,0.0,0.0,74,0.00,,,0.01,VWS V14.01,2013-10-04 23:17:00,
2013-10-04 19:18:00,75.6,66.7,30.04,South,189,0.0,0.0,74,0.00,,,0.01,VWS V14.01,2013-10-04 23:18:00,
2013-10-04 19:19:00,75.5,67.0,30.04,South,190,0.0,0.0,75,0.00,,,0.01,VWS V14.01,2013-10-04 23:19:00,
2013-10-04 19:20:00,75.4,66.9,30.04,South,190,0.0,0.0,75,0.00,,,0.01,VWS V14.01,2013-10-04 23:20:00,
2013-10-04 19:21:00,75.2,67.1,30.04,South,190,0.0,0.0,76,0.00,,,0.01,VWS V14.01,2013-10-04 23:21:00,
2013-10-04 19:22:00,75.2,66.7,30.04,South,190,0.0,0.0,75,0.00,,,0.01,VWS V14.01,2013-10-04 23:22:00,
2013-10-04 19:23:00,75.1,67.0,30.04,South,190,0.0,0.0,76,0.00,,,0.01,VWS V14.01,2013-10-04 23:23:00,
2013-10-04 19:24:00,75.0,66.9,30.04,South,190,0.0,0.0,76,0.00,,,0.01,VWS V14.01,2013-10-04 23:24:00,
2013-10-04 19:25:00,74.8,66.7,30.05,South,190,0.0,0.0,76,0.00,,,0.01,VWS V14.01,2013-10-04 23:25:00,
2013-10-04 19:26:00,74.6,66.5,30.05,South,190,0.0,0.0,76,0.00,,,0.01,VWS V14.01,2013-10-04 23:26:00,
2013-10-04 19:27:00,74.6,66.5,30.05,South,190,0.0,0.0,76,0.00,,,0.01,VWS V14.01,2013-10-04 23:27:00,
2013-10-04 19:28:00,74.5,66.8,30.05,South,190,0.0,0.0,77,0.00,,,0.01,VWS V14.01,2013-10-04 23:28:00,
2013-10-04 19:29:00,74.4,66.7,30.05,South,190,0.0,0.0,77,0.00,,,0.01,VWS V14.01,2013-10-04 23:29:00,
2013-10-04 19:30:00,74.3,66.6,30.05,South,190,0.0,0.0,77,0.00,,,0.01,VWS V14.01,2013-10-04 23:30:00,
2013-10-04 19:31:00,74.1,66.4,30.05,South,190,0.0,0.0,77,0.00,,,0.01,VWS V14.01,2013-10-04 23:31:00,
2013-10-04 19:32:00,74.1,66.4,30.05,South,189,0.0,0.0,77,0.00,,,0.01,VWS V14.01,2013-10-04 23:32:00,
2013-10-04 19:33:00,74.0,66.0,30.05,South,189,0.0,0.0,76,0.00,,,0.01,VWS V14.01,2013-10-04 23:33:00,
2013-10-04 19:34:00,74.0,66.3,30.05,South,190,0.0,0.0,77,0.00,,,0.01,VWS V14.01,2013-10-04 23:34:00,
2013-10-04 19:35:00,73.9,66.2,30.05,South,190,0.0,0.0,77,0.00,,,0.01,VWS V14.01,2013-10-04 23:35:00,
2013-10-04 19:36:00,73.9,66.2,30.05,South,189,0.0,0.0,77,0.00,,,0.01,VWS V14.01,2013-10-04 23:36:00,
2013-10-04 19:37:00,73.9,66.2,30.05,South,189,0.0,0.0,77,0.00,,,0.01,VWS V14.01,2013-10-04 23:37:00,
2013-10-04 19:38:00,73.9,66.2,30.05,SSW,212,0.0,0.0,77,0.00,,,0.01,VWS V14.01,2013-10-04 23:38:00,
2013-10-04 19:39:00,73.9,66.2,30.05,SSW,212,0.0,0.0,77,0.00,,,0.01,VWS V14.01,2013-10-04 23:39:00,
2013-10-04 19:40:00,73.9,66.2,30.05,SSW,212,0.0,0.0,77,0.00,,,0.01,VWS V14.01,2013-10-04 23:40:00,
2013-10-04 19:41:00,73.9,66.6,30.05,SSW,211,0.0,0.0,78,0.00,,,0.01,VWS V14.01,2013-10-04 23:41:00,
2013-10-04 19:42:00,73.9,66.6,30.05,SSW,212,0.0,0.0,78,0.00,,,0.01,VWS V14.01,2013-10-04 23:42:00,
2013-10-04 19:43:00,73.8,66.5,30.05,SSW,211,0.0,0.0,78,0.00,,,0.01,VWS V14.01,2013-10-04 23:43:00,
2013-10-04 19:44:00,73.8,66.5,30.05,SSW,212,0.0,0.0,78,0.00,,,0.01,VWS V14.01,2013-10-04 23:44:00,
2013-10-04 19:45:00,73.7,66.4,30.05,SSW,211,0.0,0.0,78,0.00,,,0.01,VWS V14.01,2013-10-04 23:45:00,
2013-10-04 19:46:00,73.5,66.6,30.05,SSW,211,0.0,0.0,79,0.00,,,0.01,VWS V14.01,2013-10-04 23:46:00,
2013-10-04 19:47:00,73.5,66.6,30.05,SSW,212,0.0,0.0,79,0.00,,,0.01,VWS V14.01,2013-10-04 23:47:00,
2013-10-04 19:48:00,73.5,66.6,30.05,SSW,212,0.0,0.0,79,0.00,,,0.01,VWS V14.01,2013-10-04 23:48:00,
2013-10-04 19:49:00,73.3,66.4,30.05,SSW,211,0.0,0.0,79,0.00,,,0.01,VWS V14.01,2013-10-04 23:49:00,
2013-10-04 19:50:00,73.2,66.3,30.05,SSW,211,0.0,0.0,79,0.00,,,0.01,VWS V14.01,2013-10-04 23:50:00,
2013-10-04 19:51:00,73.0,66.1,30.05,SSW,212,0.0,0.0,79,0.00,,,0.01,VWS V14.01,2013-10-04 23:51:00,
2013-10-04 19:52:00,73.0,66.1,30.05,SSW,211,0.0,0.0,79,0.00,,,0.01,VWS V14.01,2013-10-04 23:52:00,
2013-10-04 19:53:00,72.8,65.9,30.05,SSW,211,0.0,0.0,79,0.00,,,0.01,VWS V14.01,2013-10-04 23:53:00,
2013-10-04 19:54:00,72.7,66.2,30.05,SSW,211,0.0,0.0,80,0.00,,,0.01,VWS V14.01,2013-10-04 23:54:00,
2013-10-04 19:55:00,72.6,66.1,30.05,SSW,212,0.0,0.0,80,0.00,,,0.01,VWS V14.01,2013-10-04 23:55:00,
2013-10-04 19:56:00,72.3,65.8,30.05,SSW,212,0.0,0.0,80,0.00,,,0.01,VWS V14.01,2013-10-04 23:56:00,
2013-10-04 19:57:00,72.3,65.8,30.05,SSW,212,0.0,0.0,80,0.00,,,0.01,VWS V14.01,2013-10-04 23:57:00,
2013-10-04 19:58:00,72.2,65.7,30.05,SSW,211,0.0,0.0,80,0.00,,,0.01,VWS V14.01,2013-10-04 23:58:00,
2013-10-04 19:59:00,72.0,65.9,30.05,SSW,211,0.0,0.0,81,0.00,,,0.01,VWS V14.01,2013-10-04 23:59:00,
2013-10-04 20:00:00,71.9,65.8,30.05,SSW,212,0.0,0.0,81,0.00,,,0.01,VWS V14.01,2013-10-05 00:00:00,
2013-10-04 20:01:00,71.8,65.7,30.05,SSW,211,0.0,0.0,81,0.00,,,0.01,VWS V14.01,2013-10-05 00:01:00,
2013-10-04 20:02:00,71.8,65.7,30.05,SSW,211,0.0,0.0,81,0.00,,,0.01,VWS V14.01,2013-10-05 00:02:00,
2013-10-04 20:03:00,71.7,65.6,30.05,SSW,211,0.0,0.0,81,0.00,,,0.01,VWS V14.01,2013-10-05 00:03:00,
2013-10-04 20:04:00,71.6,65.8,30.05,SSW,212,0.0,0.0,82,0.00,,,0.01,VWS V14.01,2013-10-05 00:04:00,
2013-10-04 20:05:00,71.5,65.7,30.05,SSW,212,0.0,0.0,82,0.00,,,0.01,VWS V14.01,2013-10-05 00:05:00,
2013-10-04 20:06:00,71.3,65.5,30.05,SSW,211,0.0,0.0,82,0.00,,,0.01,VWS V14.01,2013-10-05 00:06:00,
2013-10-04 20:07:00,71.3,65.5,30.05,SSW,211,0.0,0.0,82,0.00,,,0.01,VWS V14.01,2013-10-05 00:07:00,
2013-10-04 20:08:00,71.3,65.5,30.05,SSW,212,0.0,0.0,82,0.00,,,0.01,VWS V14.01,2013-10-05 00:08:00,
2013-10-04 20:09:00,71.2,65.8,30.05,SSW,211,0.0,0.0,83,0.00,,,0.01,VWS V14.01,2013-10-05 00:09:00,
2013-10-04 20:10:00,71.2,65.8,30.05,SSW,211,0.0,0.0,83,0.00,,,0.01,VWS V14.01,2013-10-05 00:10:00,
2013-10-04 20:11:00,71.1,65.7,30.05,SSW,211,0.0,0.0,83,0.00,,,0.01,VWS V14.01,2013-10-05 00:11:00,
2013-10-04 20:12:00,71.1,65.7,30.05,SSW,211,0.0,0.0,83,0.00,,,0.01,VWS V14.01,2013-10-05 00:12:00,
2013-10-04 20:13:00,71.0,65.6,30.05,SSW,211,0.0,0.0,83,0.00,,,0.01,VWS V14.01,2013-10-05 00:13:00,
2013-10-04 20:14:00,71.0,65.6,30.05,SSW,211,0.0,0.0,83,0.00,,,0.01,VWS V14.01,2013-10-05 00:14:00,
2013-10-04 20:15:00,70.9,65.5,30.05,SSW,211,0.0,0.0,83,0.00,,,0.01,VWS V14.01,2013-10-05 00:15:00,
2013-10-04 20:16:00,70.9,65.5,30.05,SSW,212,0.0,0.0,83,0.00,,,0.01,VWS V14.01,2013-10-05 00:16:00,
2013-10-04 20:17:00,70.8,65.7,30.05,SSW,211,0.0,0.0,84,0.00,,,0.01,VWS V14.01,2013-10-05 00:17:00,
2013-10-04 20:18:00,70.8,65.7,30.05,SSW,212,0.0,0.0,84,0.00,,,0.01,VWS V14.01,2013-10-05 00:18:00,
2013-10-04 20:19:00,70.7,65.6,30.05,SSW,212,0.0,0.0,84,0.00,,,0.01,VWS V14.01,2013-10-05 00:19:00,
2013-10-04 20:20:00,70.7,65.6,30.05,SSW,211,0.0,0.0,84,0.00,,,0.01,VWS V14.01,2013-10-05 00:20:00,
2013-10-04 20:21:00,70.6,65.5,30.05,SSW,211,0.0,0.0,84,0.00,,,0.01,VWS V14.01,2013-10-05 00:21:00,
2013-10-04 20:22:00,70.5,65.4,30.05,SSW,211,0.0,0.0,84,0.00,,,0.01,VWS V14.01,2013-10-05 00:22:00,
2013-10-04 20:23:00,70.5,65.4,30.05,SSW,211,0.0,0.0,84,0.00,,,0.01,VWS V14.01,2013-10-05 00:23:00,
2013-10-04 20:24:00,70.4,65.3,30.05,SSW,212,0.0,0.0,84,0.00,,,0.01,VWS V14.01,2013-10-05 00:24:00,
2013-10-04 20:25:00,70.4,65.3,30.05,SSW,212,0.0,0.0,84,0.00,,,0.01,VWS V14.01,2013-10-05 00:25:00,
2013-10-04 20:26:00,70.3,65.2,30.05,SSW,212,0.0,0.0,84,0.00,,,0.01,VWS V14.01,2013-10-05 00:26:00,
2013-10-04 20:27:00,70.2,65.5,30.05,SSW,212,0.0,0.0,85,0.00,,,0.01,VWS V14.01,2013-10-05 00:27:00,
2013-10-04 20:28:00,70.1,65.4,30.05,SSW,211,0.0,0.0,85,0.00,,,0.01,VWS V14.01,2013-10-05 00:28:00,
2013-10-04 20:29:00,70.1,65.7,30.05,SSW,211,0.0,0.0,86,0.00,,,0.01,VWS V14.01,2013-10-05 00:29:00,
2013-10-04 20:30:00,70.1,65.7,30.05,SSW,212,0.0,0.0,86,0.00,,,0.01,VWS V14.01,2013-10-05 00:30:00,
2013-10-04 20:31:00,70.0,65.6,30.05,SSW,212,0.0,0.0,86,0.00,,,0.01,VWS V14.01,2013-10-05 00:31:00,
2013-10-04 20:32:00,70.1,65.7,30.05,SSW,211,0.0,0.0,86,0.00,,,0.01,VWS V14.01,2013-10-05 00:32:00,
2013-10-04 20:33:00,70.1,65.7,30.05,SSW,212,0.0,0.0,86,0.00,,,0.01,VWS V14.01,2013-10-05 00:33:00,
2013-10-04 20:34:00,70.1,65.7,30.05,SSW,212,0.0,0.0,86,0.00,,,0.01,VWS V14.01,2013-10-05 00:34:00,
2013-10-04 20:35:00,70.1,65.7,30.05,SSW,211,0.0,0.0,86,0.00,,,0.01,VWS V14.01,2013-10-05 00:35:00,
2013-10-04 20:36:00,70.1,65.7,30.06,SSW,212,0.0,0.0,86,0.00,,,0.01,VWS V14.01,2013-10-05 00:36:00,
2013-10-04 20:37:00,70.1,65.7,30.06,SSW,211,0.0,0.0,86,0.00,,,0.01,VWS V14.01,2013-10-05 00:37:00,
2013-10-04 20:38:00,70.2,65.8,30.06,SSW,211,0.0,0.0,86,0.00,,,0.01,VWS V14.01,2013-10-05 00:38:00,
2013-10-04 20:39:00,70.2,65.8,30.05,SSW,211,0.0,0.0,86,0.00,,,0.01,VWS V14.01,2013-10-05 00:39:00,
2013-10-04 20:40:00,70.2,65.8,30.05,SSW,204,0.0,0.0,86,0.00,,,0.01,VWS V14.01,2013-10-05 00:40:00,
2013-10-04 20:41:00,70.3,65.9,30.06,SSW,205,0.0,0.0,86,0.00,,,0.01,VWS V14.01,2013-10-05 00:41:00,
2013-10-04 20:42:00,70.3,65.9,30.06,South,179,0.0,0.0,86,0.00,,,0.01,VWS V14.01,2013-10-05 00:42:00,
2013-10-04 20:43:00,70.4,66.0,30.06,South,180,0.0,0.0,86,0.00,,,0.01,VWS V14.01,2013-10-05 00:43:00,
2013-10-04 20:44:00,70.5,65.8,30.06,South,179,0.0,0.0,85,0.00,,,0.01,VWS V14.01,2013-10-05 00:44:00,
2013-10-04 20:45:00,70.6,65.9,30.06,South,179,0.0,0.0,85,0.00,,,0.01,VWS V14.01,2013-10-05 00:45:00,
2013-10-04 20:46:00,70.7,66.0,30.06,South,179,0.0,0.0,85,0.00,,,0.01,VWS V14.01,2013-10-05 00:46:00,
2013-10-04 20:47:00,70.7,66.0,30.06,South,179,0.0,0.0,85,0.00,,,0.01,VWS V14.01,2013-10-05 00:47:00,
2013-10-04 20:48:00,70.8,66.1,30.06,South,179,0.0,0.0,85,0.00,,,0.01,VWS V14.01,2013-10-05 00:48:00,
2013-10-04 20:49:00,70.9,65.8,30.06,South,179,0.0,0.0,84,0.00,,,0.01,VWS V14.01,2013-10-05 00:49:00,
2013-10-04 20:50:00,70.9,65.8,30.06,South,179,0.0,0.0,84,0.00,,,0.01,VWS V14.01,2013-10-05 00:50:00,
2013-10-04 20:51:00,70.9,65.8,30.06,SSE,158,0.0,0.0,84,0.00,,,0.01,VWS V14.01,2013-10-05 00:51:00,
2013-10-04 20:52:00,70.9,65.8,30.06,SSE,158,0.0,0.0,84,0.00,,,0.01,VWS V14.01,2013-10-05 00:52:00,
2013-10-04 20:53:00,71.0,66.3,30.06,SSE,158,0.0,0.0,85,0.00,,,0.01,VWS V14.01,2013-10-05 00:53:00,
2013-10-04 20:54:00,71.0,66.3,30.06,SSE,162,0.0,0.0,85,0.00,,,0.01,VWS V14.01,2013-10-05 00:54:00,
2013-10-04 20:55:00,71.0,65.9,30.06,SSE,162,0.0,0.0,84,0.00,,,0.01,VWS V14.01,2013-10-05 00:55:00,
2013-10-04 20:56:00,71.1,66.0,30.06,SSE,162,0.0,0.0,84,0.00,,,0.01,VWS V14.01,2013-10-05 00:56:00,
2013-10-04 20:57:00,71.1,66.0,30.06,SSE,167,0.0,0.0,84,0.00,,,0.01,VWS V14.01,2013-10-05 00:57:00,
2013-10-04 20:58:00,71.1,66.0,30.06,SSE,166,0.0,0.0,84,0.00,,,0.01,VWS V14.01,2013-10-05 00:58:00,
2013-10-04 20:59:00,71.1,66.0,30.06,SSE,167,0.0,0.0,84,0.00,,,0.01,VWS V14.01,2013-10-05 00:59:00,
2013-10-04 21:00:00,71.2,66.1,30.06,SSE,166,0.0,0.0,84,0.00,,,0.01,VWS V14.01,2013-10-05 01:00:00,
2013-10-04 21:01:00,71.2,66.1,30.06,SSE,167,0.0,0.0,84,0.00,,,0.01,VWS V14.01,2013-10-05 01:01:00,
2013-10-04 21:02:00,71.2,66.1,30.06,SSE,166,0.0,0.0,84,0.00,,,0.01,VWS V14.01,2013-10-05 01:02:00,
2013-10-04 21:03:00,71.2,66.1,30.06,SW,219,0.0,0.0,84,0.00,,,0.01,VWS V14.01,2013-10-05 01:03:00,
2013-10-04 21:04:00,71.2,66.1,30.06,SW,219,0.0,0.0,84,0.00,,,0.01,VWS V14.01,2013-10-05 01:04:00,
2013-10-04 21:05:00,71.2,66.5,30.06,SW,219,0.0,0.0,85,0.00,,,0.01,VWS V14.01,2013-10-05 01:05:00,
2013-10-04 21:06:00,71.2,66.1,30.06,SSW,193,0.0,0.0,84,0.00,,,0.01,VWS V14.01,2013-10-05 01:06:00,
2013-10-04 21:07:00,71.3,66.2,30.06,SSW,208,0.0,0.0,84,0.00,,,0.01,VWS V14.01,2013-10-05 01:07:00,
2013-10-04 21:08:00,71.3,66.2,30.06,SSW,213,0.0,0.0,84,0.00,,,0.01,VWS V14.01,2013-10-05 01:08:00,
2013-10-04 21:09:00,71.4,66.3,30.06,SSE,152,0.0,0.0,84,0.00,,,0.01,VWS V14.01,2013-10-05 01:09:00,
2013-10-04 21:10:00,71.4,66.3,30.06,SSE,167,0.0,0.0,84,0.00,,,0.01,VWS V14.01,2013-10-05 01:10:00,
2013-10-04 21:11:00,71.4,66.3,30.06,SW,214,0.0,0.0,84,0.00,,,0.01,VWS V14.01,2013-10-05 01:11:00,
2013-10-04 21:12:00,71.5,66.4,30.06,SE,145,0.0,0.0,84,0.00,,,0.01,VWS V14.01,2013-10-05 01:12:00,
2013-10-04 21:13:00,71.4,66.3,30.06,SE,145,0.0,0.0,84,0.00,,,0.01,VWS V14.01,2013-10-05 01:13:00,
2013-10-04 21:14:00,71.5,66.4,30.06,SE,145,0.0,0.0,84,0.00,,,0.01,VWS V14.01,2013-10-05 01:14:00,
2013-10-04 21:15:00,71.4,66.3,30.06,SE,145,0.0,0.0,84,0.00,,,0.01,VWS V14.01,2013-10-05 01:15:00,
2013-10-04 21:16:00,71.4,66.3,30.06,SSE,150,0.0,0.0,84,0.00,,,0.01,VWS V14.01,2013-10-05 01:16:00,
2013-10-04 21:17:00,71.4,66.3,30.06,SSW,201,0.0,0.0,84,0.00,,,0.01,VWS V14.01,2013-10-05 01:17:00,
2013-10-04 21:18:00,71.4,66.3,30.06,SSW,201,0.0,0.0,84,0.00,,,0.01,VWS V14.01,2013-10-05 01:18:00,
2013-10-04 21:19:00,71.4,66.3,30.06,SSW,201,0.0,0.0,84,0.00,,,0.01,VWS V14.01,2013-10-05 01:19:00,
2013-10-04 21:20:00,71.3,66.2,30.06,SSW,201,0.0,0.0,84,0.00,,,0.01,VWS V14.01,2013-10-05 01:20:00,
2013-10-04 21:21:00,71.3,66.2,30.06,SW,223,0.0,0.0,84,0.00,,,0.01,VWS V14.01,2013-10-05 01:21:00,
2013-10-04 21:22:00,71.3,66.2,30.06,SW,222,0.0,0.0,84,0.00,,,0.01,VWS V14.01,2013-10-05 01:22:00,
2013-10-04 21:23:00,71.3,66.6,30.06,SSW,193,0.0,0.0,85,0.00,,,0.01,VWS V14.01,2013-10-05 01:23:00,
2013-10-04 21:24:00,71.3,66.2,30.06,SSW,193,0.0,0.0,84,0.00,,,0.01,VWS V14.01,2013-10-05 01:24:00,
2013-10-04 21:25:00,71.3,66.6,30.06,SSW,193,0.0,0.0,85,0.00,,,0.01,VWS V14.01,2013-10-05 01:25:00,
2013-10-04 21:26:00,71.3,66.6,30.06,SSW,193,0.0,0.0,85,0.00,,,0.01,VWS V14.01,2013-10-05 01:26:00,
2013-10-04 21:27:00,71.3,66.6,30.06,SSW,193,0.0,0.0,85,0.00,,,0.01,VWS V14.01,2013-10-05 01:27:00,
2013-10-04 21:28:00,71.3,66.6,30.06,SSW,192,0.0,0.0,85,0.00,,,0.01,VWS V14.01,2013-10-05 01:28:00,
2013-10-04 21:29:00,71.2,66.5,30.06,South,191,0.0,0.0,85,0.00,,,0.01,VWS V14.01,2013-10-05 01:29:00,
2013-10-04 21:30:00,71.2,66.5,30.06,South,191,0.0,0.0,85,0.00,,,0.01,VWS V14.01,2013-10-05 01:30:00,
2013-10-04 21:31:00,71.1,66.4,30.06,South,191,0.0,0.0,85,0.00,,,0.01,VWS V14.01,2013-10-05 01:31:00,
2013-10-04 21:32:00,71.2,66.5,30.06,South,190,0.0,0.0,85,0.00,,,0.01,VWS V14.01,2013-10-05 01:32:00,
2013-10-04 21:33:00,71.1,66.4,30.06,South,190,0.0,0.0,85,0.00,,,0.01,VWS V14.01,2013-10-05 01:33:00,
2013-10-04 21:34:00,71.1,66.4,30.06,South,191,0.0,0.0,85,0.00,,,0.01,VWS V14.01,2013-10-05 01:34:00,
2013-10-04 21:35:00,71.0,66.3,30.06,South,190,0.0,0.0,85,0.00,,,0.01,VWS V14.01,2013-10-05 01:35:00,
2013-10-04 21:36:00,71.0,66.3,30.06,South,189,0.0,0.0,85,0.00,,,0.01,VWS V14.01,2013-10-05 01:36:00,
2013-10-04 21:37:00,71.0,66.3,30.06,South,190,0.0,0.0,85,0.00,,,0.01,VWS V14.01,2013-10-05 01:37:00,
2013-10-04 21:38:00,70.9,66.2,30.06,South,190,0.0,0.0,85,0.00,,,0.01,VWS V14.01,2013-10-05 01:38:00,
2013-10-04 21:39:00,70.9,66.2,30.06,South,190,0.0,0.0,85,0.00,,,0.01,VWS V14.01,2013-10-05 01:39:00,
2013-10-04 21:40:00,70.9,66.2,30.06,South,190,0.0,0.0,85,0.00,,,0.01,VWS V14.01,2013-10-05 01:40:00,
2013-10-04 21:41:00,70.8,66.4,30.06,South,190,0.0,0.0,86,0.00,,,0.01,VWS V14.01,2013-10-05 01:41:00,
2013-10-04 21:42:00,70.8,66.4,30.06,South,189,0.0,0.0,86,0.00,,,0.01,VWS V14.01,2013-10-05 01:42:00,
2013-10-04 21:43:00,70.7,66.3,30.06,South,190,0.0,0.0,86,0.00,,,0.01,VWS V14.01,2013-10-05 01:43:00,
2013-10-04 21:44:00,70.7,66.3,30.06,SSE,155,0.0,1.0,86,0.00,,,0.01,VWS V14.01,2013-10-05 01:44:00,
2013-10-04 21:45:00,70.7,66.3,30.06,SSW,193,0.0,0.0,86,0.00,,,0.01,VWS V14.01,2013-10-05 01:45:00,
2013-10-04 21:46:00,70.7,66.3,30.06,SSW,193,0.0,0.0,86,0.00,,,0.01,VWS V14.01,2013-10-05 01:46:00,
2013-10-04 21:47:00,70.7,66.3,30.06,SSW,193,0.0,0.0,86,0.00,,,0.01,VWS V14.01,2013-10-05 01:47:00,
2013-10-04 21:48:00,70.7,66.3,30.06,SSW,193,0.0,0.0,86,0.00,,,0.01,VWS V14.01,2013-10-05 01:48:00,
2013-10-04 21:49:00,70.7,66.3,30.06,SSW,212,0.0,0.0,86,0.00,,,0.01,VWS V14.01,2013-10-05 01:49:00,
2013-10-04 21:50:00,70.7,66.3,30.06,SW,214,0.0,0.0,86,0.00,,,0.01,VWS V14.01,2013-10-05 01:50:00,
2013-10-04 21:51:00,70.7,66.3,30.06,SSW,201,0.0,0.0,86,0.00,,,0.01,VWS V14.01,2013-10-05 01:51:00,
2013-10-04 21:52:00,70.7,66.3,30.06,SSW,201,0.0,0.0,86,0.00,,,0.01,VWS V14.01,2013-10-05 01:52:00,
2013-10-04 21:53:00,70.7,66.3,30.06,SSW,201,0.0,0.0,86,0.00,,,0.01,VWS V14.01,2013-10-05 01:53:00,
2013-10-04 21:54:00,70.7,66.3,30.06,SSW,201,0.0,0.0,86,0.00,,,0.01,VWS V14.01,2013-10-05 01:54:00,
2013-10-04 21:55:00,70.7,66.3,30.06,SSW,201,0.0,0.0,86,0.00,,,0.01,VWS V14.01,2013-10-05 01:55:00,
2013-10-04 21:56:00,70.6,66.2,30.06,South,191,0.0,0.0,86,0.00,,,0.01,VWS V14.01,2013-10-05 01:56:00,
2013-10-04 21:57:00,70.6,66.2,30.06,South,191,0.0,0.0,86,0.00,,,0.01,VWS V14.01,2013-10-05 01:57:00,
2013-10-04 21:58:00,70.6,66.2,30.06,SE,146,0.0,0.0,86,0.00,,,0.01,VWS V14.01,2013-10-05 01:58:00,
2013-10-04 21:59:00,70.6,66.2,30.06,SW,233,0.0,1.0,86,0.00,,,0.01,VWS V14.01,2013-10-05 01:59:00,
2013-10-04 22:00:00,70.6,66.6,30.06,SSW,203,0.0,0.0,87,0.00,,,0.01,VWS V14.01,2013-10-05 02:00:00,
2013-10-04 22:01:00,70.6,66.6,30.06,SSW,200,0.0,0.0,87,0.00,,,0.01,VWS V14.01,2013-10-05 02:01:00,
2013-10-04 22:02:00,70.6,66.6,30.06,SSW,203,0.0,1.0,87,0.00,,,0.01,VWS V14.01,2013-10-05 02:02:00,
2013-10-04 22:03:00,70.6,66.6,30.06,SSE,161,0.0,0.0,87,0.00,,,0.01,VWS V14.01,2013-10-05 02:03:00,
2013-10-04 22:04:00,70.5,66.4,30.06,SSW,195,0.0,0.0,87,0.00,,,0.01,VWS V14.01,2013-10-05 02:04:00,
2013-10-04 22:05:00,70.5,66.4,30.06,SSW,195,0.0,0.0,87,0.00,,,0.01,VWS V14.01,2013-10-05 02:05:00,
2013-10-04 22:06:00,70.5,66.4,30.07,SSW,195,0.0,0.0,87,0.00,,,0.01,VWS V14.01,2013-10-05 02:06:00,
2013-10-04 22:07:00,70.5,66.4,30.06,SSW,195,0.0,0.0,87,0.00,,,0.01,VWS V14.01,2013-10-05 02:07:00,
2013-10-04 22:08:00,70.5,66.4,30.07,SSW,195,0.0,0.0,87,0.00,,,0.01,VWS V14.01,2013-10-05 02:08:00,
2013-10-04 22:09:00,70.4,66.3,30.07,SSW,195,0.0,0.0,87,0.00,,,0.01,VWS V14.01,2013-10-05 02:09:00,
2013-10-04 22:10:00,70.4,66.3,30.07,SSW,195,0.0,0.0,87,0.00,,,0.01,VWS V14.01,2013-10-05 02:10:00,
2013-10-04 22:11:00,70.4,66.3,30.06,SSW,203,0.0,0.0,87,0.00,,,0.01,VWS V14.01,2013-10-05 02:11:00,
2013-10-04 22:12:00,70.3,66.2,30.06,SSW,203,0.0,0.0,87,0.00,,,0.01,VWS V14.01,2013-10-05 02:12:00,
2013-10-04 22:13:00,70.3,66.2,30.06,SSW,203,0.0,0.0,87,0.00,,,0.01,VWS V14.01,2013-10-05 02:13:00,
2013-10-04 22:14:00,70.3,66.2,30.06,SSW,203,0.0,0.0,87,0.00,,,0.01,VWS V14.01,2013-10-05 02:14:00,
2013-10-04 22:15:00,70.3,66.2,30.06,SSW,203,0.0,0.0,87,0.00,,,0.01,VWS V14.01,2013-10-05 02:15:00,
2013-10-04 22:16:00,70.2,66.2,30.06,SSW,203,0.0,0.0,87,0.00,,,0.01,VWS V14.01,2013-10-05 02:16:00,
2013-10-04 22:17:00,70.1,66.1,30.06,SSW,203,0.0,0.0,87,0.00,,,0.01,VWS V14.01,2013-10-05 02:17:00,
2013-10-04 22:18:00,70.1,66.1,30.06,WSW,239,0.0,1.0,87,0.00,,,0.01,VWS V14.01,2013-10-05 02:18:00,
2013-10-04 22:19:00,70.1,66.4,30.06,South,189,0.0,1.0,88,0.00,,,0.01,VWS V14.01,2013-10-05 02:19:00,
2013-10-04 22:20:00,70.0,66.0,30.06,South,186,0.0,0.0,87,0.00,,,0.01,VWS V14.01,2013-10-05 02:20:00,
2013-10-04 22:21:00,70.0,66.0,30.06,South,186,0.0,0.0,87,0.00,,,0.01,VWS V14.01,2013-10-05 02:21:00,
2013-10-04 22:22:00,70.0,66.3,30.07,South,186,0.0,0.0,88,0.00,,,0.01,VWS V14.01,2013-10-05 02:22:00,
2013-10-04 22:23:00,69.9,66.2,30.07,South,181,0.0,0.0,88,0.00,,,0.01,VWS V14.01,2013-10-05 02:23:00,
2013-10-04 22:24:00,69.9,66.2,30.06,South,181,0.0,0.0,88,0.00,,,0.01,VWS V14.01,2013-10-05 02:24:00,
2013-10-04 22:25:00,69.9,66.2,30.06,South,190,0.0,0.0,88,0.00,,,0.01,VWS V14.01,2013-10-05 02:25:00,
2013-10-04 22:26:00,69.8,66.1,30.06,South,190,0.0,0.0,88,0.00,,,0.01,VWS V14.01,2013-10-05 02:26:00,
2013-10-04 22:27:00,69.8,66.1,30.06,South,174,0.0,0.0,88,0.00,,,0.01,VWS V14.01,2013-10-05 02:27:00,
2013-10-04 22:28:00,69.8,66.1,30.06,South,174,0.0,0.0,88,0.00,,,0.01,VWS V14.01,2013-10-05 02:28:00,
2013-10-04 22:29:00,69.7,66.0,30.06,SSE,158,0.0,0.0,88,0.00,,,0.01,VWS V14.01,2013-10-05 02:29:00,
2013-10-04 22:30:00,69.7,66.0,30.06,South,191,0.0,1.0,88,0.00,,,0.01,VWS V14.01,2013-10-05 02:30:00,
2013-10-04 22:31:00,69.7,66.0,30.06,SSW,201,0.0,0.0,88,0.00,,,0.01,VWS V14.01,2013-10-05 02:31:00,
2013-10-04 22:32:00,69.7,66.0,30.06,South,175,0.0,0.0,88,0.00,,,0.01,VWS V14.01,2013-10-05 02:32:00,
2013-10-04 22:33:00,69.7,66.0,30.06,South,174,0.0,0.0,88,0.00,,,0.01,VWS V14.01,2013-10-05 02:33:00,
2013-10-04 22:34:00,69.7,66.0,30.06,SSW,206,0.0,0.0,88,0.00,,,0.01,VWS V14.01,2013-10-05 02:34:00,
2013-10-04 22:35:00,69.6,65.9,30.06,SSW,206,0.0,0.0,88,0.00,,,0.01,VWS V14.01,2013-10-05 02:35:00,
2013-10-04 22:36:00,69.6,65.9,30.06,SSW,205,0.0,0.0,88,0.00,,,0.01,VWS V14.01,2013-10-05 02:36:00,
2013-10-04 22:37:00,69.6,65.9,30.07,SSW,201,0.0,0.0,88,0.00,,,0.01,VWS V14.01,2013-10-05 02:37:00,
2013-10-04 22:38:00,69.6,66.2,30.07,SSW,200,0.0,0.0,89,0.00,,,0.01,VWS V14.01,2013-10-05 02:38:00,
2013-10-04 22:39:00,69.6,66.2,30.07,SSW,201,0.0,0.0,89,0.00,,,0.01,VWS V14.01,2013-10-05 02:39:00,
2013-10-04 22:40:00,69.6,66.2,30.07,South,189,0.0,0.0,89,0.00,,,0.01,VWS V14.01,2013-10-05 02:40:00,
2013-10-04 22:41:00,69.6,66.2,30.07,SSW,195,0.0,1.0,89,0.00,,,0.01,VWS V14.01,2013-10-05 02:41:00,
2013-10-04 22:42:00,69.6,66.2,30.07,SSW,200,0.0,0.0,89,0.00,,,0.01,VWS V14.01,2013-10-05 02:42:00,
2013-10-04 22:43:00,69.6,66.2,30.07,South,189,0.0,0.0,89,0.00,,,0.01,VWS V14.01,2013-10-05 02:43:00,
2013-10-04 22:44:00,69.6,66.2,30.06,South,188,0.0,0.0,89,0.00,,,0.01,VWS V14.01,2013-10-05 02:44:00,
2013-10-04 22:45:00,69.6,66.2,30.06,SSE,161,0.0,0.0,89,0.00,,,0.01,VWS V14.01,2013-10-05 02:45:00,
2013-10-04 22:46:00,69.6,66.2,30.06,SSW,195,0.0,0.0,89,0.00,,,0.01,VWS V14.01,2013-10-05 02:46:00,
2013-10-04 22:47:00,69.6,66.2,30.06,SE,146,0.0,0.0,89,0.00,,,0.01,VWS V14.01,2013-10-05 02:47:00,
2013-10-04 22:48:00,69.6,65.9,30.06,SSE,163,0.0,0.0,88,0.00,,,0.01,VWS V14.01,2013-10-05 02:48:00,
2013-10-04 22:49:00,69.6,66.2,30.06,SSW,206,0.0,0.0,89,0.00,,,0.01,VWS V14.01,2013-10-05 02:49:00,
2013-10-04 22:50:00,69.6,66.2,30.06,SSW,200,0.0,1.0,89,0.00,,,0.01,VWS V14.01,2013-10-05 02:50:00,
2013-10-04 22:51:00,69.6,66.2,30.06,SSW,195,0.0,0.0,89,0.00,,,0.01,VWS V14.01,2013-10-05 02:51:00,
2013-10-04 22:52:00,69.6,66.2,30.06,South,189,0.0,0.0,89,0.00,,,0.01,VWS V14.01,2013-10-05 02:52:00,
2013-10-04 22:53:00,69.6,66.2,30.06,SSW,203,0.0,0.0,89,0.00,,,0.01,VWS V14.01,2013-10-05 02:53:00,
2013-10-04 22:54:00,69.5,66.1,30.06,SSW,200,0.0,1.0,89,0.00,,,0.01,VWS V14.01,2013-10-05 02:54:00,
2013-10-04 22:55:00,69.5,65.8,30.06,SSW,195,0.0,0.0,88,0.00,,,0.01,VWS V14.01,2013-10-05 02:55:00,
2013-10-04 22:56:00,69.5,65.8,30.06,SSW,194,0.0,0.0,88,0.00,,,0.01,VWS V14.01,2013-10-05 02:56:00,
2013-10-04 22:57:00,69.5,65.8,30.06,SSW,193,0.0,0.0,88,0.00,,,0.01,VWS V14.01,2013-10-05 02:57:00,
2013-10-04 22:58:00,69.5,65.8,30.06,SSW,193,0.0,0.0,88,0.00,,,0.01,VWS V14.01,2013-10-05 02:58:00,
2013-10-04 22:59:00,69.5,66.1,30.07,South,191,0.0,0.0,89,0.00,,,0.01,VWS V14.01,2013-10-05 02:59:00,
2013-10-04 23:00:00,69.4,66.0,30.07,South,184,0.0,0.0,89,0.00,,,0.01,VWS V14.01,2013-10-05 03:00:00,
2013-10-04 23:01:00,69.4,66.0,30.07,South,183,0.0,0.0,89,0.00,,,0.01,VWS V14.01,2013-10-05 03:01:00,
2013-10-04 23:02:00,69.3,65.9,30.06,SSE,162,0.0,0.0,89,0.00,,,0.01,VWS V14.01,2013-10-05 03:02:00,
2013-10-04 23:03:00,69.3,65.9,30.06,SSE,162,0.0,0.0,89,0.00,,,0.01,VWS V14.01,2013-10-05 03:03:00,
2013-10-04 23:04:00,69.2,65.8,30.06,SSE,165,0.0,0.0,89,0.00,,,0.01,VWS V14.01,2013-10-05 03:04:00,
2013-10-04 23:05:00,69.2,65.8,30.06,SSE,165,0.0,0.0,89,0.00,,,0.01,VWS V14.01,2013-10-05 03:05:00,
2013-10-04 23:06:00,69.1,65.7,30.06,SSE,165,0.0,0.0,89,0.00,,,0.01,VWS V14.01,2013-10-05 03:06:00,
2013-10-04 23:07:00,69.1,65.7,30.06,SSE,155,0.0,0.0,89,0.00,,,0.01,VWS V14.01,2013-10-05 03:07:00,
2013-10-04 23:08:00,69.0,65.6,30.07,SSE,156,0.0,0.0,89,0.00,,,0.01,VWS V14.01,2013-10-05 03:08:00,
2013-10-04 23:09:00,69.0,65.6,30.06,SSE,156,0.0,0.0,89,0.00,,,0.01,VWS V14.01,2013-10-05 03:09:00,
2013-10-04 23:10:00,69.0,65.6,30.06,SSE,156,0.0,0.0,89,0.00,,,0.01,VWS V14.01,2013-10-05 03:10:00,
2013-10-04 23:11:00,68.9,65.5,30.06,SSE,156,0.0,0.0,89,0.00,,,0.01,VWS V14.01,2013-10-05 03:11:00,
2013-10-04 23:12:00,68.9,65.8,30.06,SSE,156,0.0,0.0,90,0.00,,,0.01,VWS V14.01,2013-10-05 03:12:00,
2013-10-04 23:13:00,68.8,65.8,30.07,SSE,156,0.0,0.0,90,0.00,,,0.01,VWS V14.01,2013-10-05 03:13:00,
2013-10-04 23:14:00,68.8,65.8,30.07,SSE,156,0.0,0.0,90,0.00,,,0.01,VWS V14.01,2013-10-05 03:14:00,
2013-10-04 23:15:00,68.7,65.7,30.06,SSE,156,0.0,0.0,90,0.00,,,0.01,VWS V14.01,2013-10-05 03:15:00,
2013-10-04 23:16:00,68.7,65.7,30.07,SSE,156,0.0,0.0,90,0.00,,,0.01,VWS V14.01,2013-10-05 03:16:00,
2013-10-04 23:17:00,68.6,65.6,30.06,SSE,156,0.0,0.0,90,0.00,,,0.01,VWS V14.01,2013-10-05 03:17:00,
2013-10-04 23:18:00,68.6,65.6,30.06,SSE,156,0.0,0.0,90,0.00,,,0.01,VWS V14.01,2013-10-05 03:18:00,
2013-10-04 23:19:00,68.5,65.5,30.07,SSE,156,0.0,0.0,90,0.00,,,0.01,VWS V14.01,2013-10-05 03:19:00,
2013-10-04 23:20:00,68.5,65.5,30.07,SSE,158,0.0,0.0,90,0.00,,,0.01,VWS V14.01,2013-10-05 03:20:00,
2013-10-04 23:21:00,68.4,65.7,30.07,SSE,156,0.0,0.0,91,0.00,,,0.01,VWS V14.01,2013-10-05 03:21:00,
2013-10-04 23:22:00,68.4,65.7,30.07,SSE,156,0.0,0.0,91,0.00,,,0.01,VWS V14.01,2013-10-05 03:22:00,
2013-10-04 23:23:00,68.4,65.7,30.07,SSE,156,0.0,0.0,91,0.00,,,0.01,VWS V14.01,2013-10-05 03:23:00,
2013-10-04 23:24:00,68.4,65.7,30.07,SSE,156,0.0,0.0,91,0.00,,,0.01,VWS V14.01,2013-10-05 03:24:00,
2013-10-04 23:25:00,68.4,65.7,30.07,SSE,156,0.0,0.0,91,0.00,,,0.01,VWS V14.01,2013-10-05 03:25:00,
2013-10-04 23:26:00,68.3,65.6,30.06,SSE,156,0.0,0.0,91,0.00,,,0.01,VWS V14.01,2013-10-05 03:26:00,
2013-10-04 23:27:00,68.3,65.6,30.06,SSE,156,0.0,0.0,91,0.00,,,0.01,VWS V14.01,2013-10-05 03:27:00,
2013-10-04 23:28:00,68.3,65.6,30.06,SSE,156,0.0,0.0,91,0.00,,,0.01,VWS V14.01,2013-10-05 03:28:00,
2013-10-04 23:29:00,68.3,65.6,30.06,SSE,156,0.0,0.0,91,0.00,,,0.01,VWS V14.01,2013-10-05 03:29:00,
2013-10-04 23:30:00,68.2,65.5,30.06,SSE,156,0.0,0.0,91,0.00,,,0.01,VWS V14.01,2013-10-05 03:30:00,
2013-10-04 23:31:00,68.2,65.5,30.06,SSE,158,0.0,0.0,91,0.00,,,0.01,VWS V14.01,2013-10-05 03:31:00,
2013-10-04 23:32:00,68.2,65.5,30.06,SSE,162,0.0,0.0,91,0.00,,,0.01,VWS V14.01,2013-10-05 03:32:00,
2013-10-04 23:33:00,68.2,65.5,30.06,SSE,162,0.0,0.0,91,0.00,,,0.01,VWS V14.01,2013-10-05 03:33:00,
2013-10-04 23:34:00,68.2,65.5,30.06,SSE,162,0.0,0.0,91,0.00,,,0.01,VWS V14.01,2013-10-05 03:34:00,
2013-10-04 23:35:00,68.2,65.5,30.06,SSE,148,0.0,0.0,91,0.00,,,0.01,VWS V14.01,2013-10-05 03:35:00,
2013-10-04 23:36:00,68.2,65.5,30.06,SSE,148,0.0,0.0,91,0.00,,,0.01,VWS V14.01,2013-10-05 03:36:00,
2013-10-04 23:37:00,68.2,65.5,30.06,SSE,154,0.0,0.0,91,0.00,,,0.01,VWS V14.01,2013-10-05 03:37:00,
2013-10-04 23:38:00,68.2,65.5,30.06,SSE,154,0.0,0.0,91,0.00,,,0.01,VWS V14.01,2013-10-05 03:38:00,
2013-10-04 23:39:00,68.2,65.5,30.06,SSE,153,0.0,0.0,91,0.00,,,0.01,VWS V14.01,2013-10-05 03:39:00,
2013-10-04 23:40:00,68.2,65.5,30.06,SSE,153,0.0,0.0,91,0.00,,,0.01,VWS V14.01,2013-10-05 03:40:00,
2013-10-04 23:41:00,68.1,65.4,30.07,SSW,200,0.0,0.0,91,0.00,,,0.01,VWS V14.01,2013-10-05 03:41:00,
2013-10-04 23:42:00,68.1,65.4,30.07,SSW,200,0.0,0.0,91,0.00,,,0.01,VWS V14.01,2013-10-05 03:42:00,
2013-10-04 23:43:00,68.1,65.4,30.07,SSW,200,0.0,0.0,91,0.00,,,0.01,VWS V14.01,2013-10-05 03:43:00,
2013-10-04 23:44:00,68.1,65.4,30.07,South,191,0.0,0.0,91,0.00,,,0.01,VWS V14.01,2013-10-05 03:44:00,
2013-10-04 23:45:00,68.1,65.7,30.07,SE,135,0.0,0.0,92,0.00,,,0.01,VWS V14.01,2013-10-05 03:45:00,
2013-10-04 23:46:00,68.1,65.7,30.07,South,188,0.0,0.0,92,0.00,,,0.01,VWS V14.01,2013-10-05 03:46:00,
2013-10-04 23:47:00,68.1,65.4,30.07,South,189,0.0,0.0,91,0.00,,,0.01,VWS V14.01,2013-10-05 03:47:00,
2013-10-04 23:48:00,68.1,65.4,30.07,South,189,0.0,0.0,91,0.00,,,0.01,VWS V14.01,2013-10-05 03:48:00,
2013-10-04 23:49:00,68.0,65.3,30.07,South,188,0.0,0.0,91,0.00,,,0.01,VWS V14.01,2013-10-05 03:49:00,
2013-10-04 23:50:00,68.0,65.3,30.07,South,188,0.0,0.0,91,0.00,,,0.01,VWS V14.01,2013-10-05 03:50:00,
2013-10-04 23:51:00,68.0,65.3,30.07,SSE,160,0.0,0.0,91,0.00,,,0.01,VWS V14.01,2013-10-05 03:51:00,
2013-10-04 23:52:00,68.0,65.3,30.07,SSE,159,0.0,0.0,91,0.00,,,0.01,VWS V14.01,2013-10-05 03:52:00,
2013-10-04 23:53:00,68.0,65.3,30.07,SSE,160,0.0,0.0,91,0.00,,,0.01,VWS V14.01,2013-10-05 03:53:00,
2013-10-04 23:54:00,67.9,65.2,30.06,SSE,161,0.0,0.0,91,0.00,,,0.01,VWS V14.01,2013-10-05 03:54:00,
2013-10-04 23:55:00,67.9,65.2,30.06,South,187,1.0,1.0,91,0.00,,,0.01,VWS V14.01,2013-10-05 03:55:00,
2013-10-04 23:56:00,68.0,65.6,30.06,SSE,160,0.0,1.0,92,0.00,,,0.01,VWS V14.01,2013-10-05 03:56:00,
2013-10-04 23:57:00,67.9,65.5,30.06,SSE,161,0.0,0.0,92,0.00,,,0.01,VWS V14.01,2013-10-05 03:57:00,
2013-10-04 23:58:00,67.9,65.5,30.06,SSW,206,0.0,0.0,92,0.00,,,0.01,VWS V14.01,2013-10-05 03:58:00,
2013-10-04 23:59:00,67.9,65.5,30.06,SSW,197,0.0,1.0,92,0.00,,,0.01,VWS V14.01,2013-10-05 03:59:00,